Provisional Data: Quittapahilla Creek near Syner, PA


Please select a monitoring station.
Please select start date.
Please select start date.

Toggle Unit: C/F Toggle Unit: C/F
Sample Time Temperature (C) Temperature (F) Specific Conductivity (mS/cm) pH   Turbidity (NTU+) DO (mg/L)
8/9/2021 12:00:00 AM 18.9 66.02 0.676 7.83 6.92 7.64
8/9/2021 12:15:00 AM 18.86 65.948 0.677 7.83 6.77 7.6
8/9/2021 12:30:00 AM 18.82 65.876 0.678 7.82 6.53 7.56
8/9/2021 12:45:00 AM 18.78 65.804 0.679 7.82 7.6 7.53
8/9/2021 1:00:00 AM 18.75 65.75 0.679 7.81 4.57 7.5
8/9/2021 1:15:00 AM 18.73 65.714 0.678 7.8 7.4 7.47
8/9/2021 1:30:00 AM 18.7 65.66 0.677 7.8 4.94 7.46
8/9/2021 1:45:00 AM 18.66 65.588 0.676 7.81 6.14 7.45
8/9/2021 2:00:00 AM 18.62 65.516 0.675 7.81 4.52 7.45
8/9/2021 2:15:00 AM 18.57 65.426 0.675 7.8 4.24 7.44
8/9/2021 2:30:00 AM 18.53 65.354 0.675 7.8 5.63 7.43
8/9/2021 2:45:00 AM 18.49 65.282 0.675 7.8 8.06 7.42
8/9/2021 3:00:00 AM 18.45 65.21 0.676 7.79 5.31 7.39
8/9/2021 3:15:00 AM 18.43 65.174 0.676 7.79 4.01 7.38
8/9/2021 3:30:00 AM 18.4 65.12 0.676 7.78 6.68 7.38
8/9/2021 3:45:00 AM 18.36 65.048 0.676 7.79 8.95 7.35
8/9/2021 4:00:00 AM 18.33 64.994 0.676 7.78 7.9 7.35
8/9/2021 4:15:00 AM 18.3 64.94 0.676 7.78 9.49 7.34
8/9/2021 4:30:00 AM 18.26 64.868 0.676 7.78 4.9 7.33
8/9/2021 4:45:00 AM 18.23 64.814 0.676 7.78 6.45 7.34
8/9/2021 5:00:00 AM 18.19 64.742 0.675 7.78 6.83 7.34
8/9/2021 5:15:00 AM 18.15 64.67 0.675 7.78 12.24 7.33
8/9/2021 5:30:00 AM 18.11 64.598 0.675 7.78 9.56 7.34
8/9/2021 5:45:00 AM 18.08 64.544 0.675 7.77 4.93 7.33
8/9/2021 6:00:00 AM 18.04 64.472 0.675 7.78 4.44 7.34
8/9/2021 6:15:00 AM 18 64.4 0.675 7.77 4.9 7.34
8/9/2021 6:30:00 AM 17.97 64.346 0.675 7.77 8.61 7.35
8/9/2021 6:45:00 AM 17.93 64.274 0.675 7.76 8.27 7.37
8/9/2021 7:00:00 AM 17.91 64.238 0.675 7.76 9.92 7.42
8/9/2021 7:15:00 AM 17.88 64.184 0.675 7.77 8.37 7.48
8/9/2021 7:30:00 AM 17.87 64.166 0.674 7.78 7.32 7.57
8/9/2021 7:45:00 AM 17.85 64.13 0.674 7.78 5.96 7.68
8/9/2021 8:00:00 AM 17.84 64.112 0.674 7.79 4.47 7.79
8/9/2021 8:15:00 AM 17.83 64.094 0.674 7.79 4.96 7.87
8/9/2021 8:30:00 AM 17.83 64.094 0.673 7.79 7.99 7.96
8/9/2021 8:45:00 AM 17.83 64.094 0.673 7.81 4.18 8.08
8/9/2021 9:00:00 AM 17.83 64.094 0.672 7.82 4.14 8.22
8/9/2021 9:15:00 AM 17.85 64.13 0.672 7.83 4.56 8.4
8/9/2021 9:30:00 AM 17.9 64.22 0.671 7.85 4.2 8.69
8/9/2021 9:45:00 AM 17.96 64.328 0.671 7.87 2.34 9.05
8/9/2021 10:00:00 AM 18.03 64.454 0.67 7.9 4.03 9.39
8/9/2021 10:15:00 AM 18.11 64.598 0.669 7.92 2.72 9.71
8/9/2021 10:30:00 AM 18.2 64.76 0.669 7.95 3.01 10.05
8/9/2021 10:45:00 AM 18.32 64.976 0.668 7.98 2.33 10.42
8/9/2021 11:00:00 AM 18.45 65.21 0.667 8.01 3.61 10.77
8/9/2021 11:15:00 AM 18.55 65.39 0.666 8.03 2.44 11.08
8/9/2021 11:30:00 AM 18.68 65.624 0.666 8.06 2.53 11.37
8/9/2021 11:45:00 AM 18.79 65.82201 0.665 8.08 4.04 11.61
8/9/2021 12:00:00 PM 18.91 66.038 0.664 8.1 6.08 11.87
8/9/2021 12:15:00 PM 19.05 66.29 0.663 8.12 2.43 12.13
8/9/2021 12:30:00 PM 19.21 66.578 0.662 8.14 3.22 12.36
8/9/2021 12:45:00 PM 19.42 66.956 0.662 8.16 3.36 12.66
8/9/2021 1:00:00 PM 19.61 67.298 0.661 8.18 2.13 12.87
8/9/2021 1:15:00 PM 19.8 67.64 0.661 8.19 2.56 13.04
8/9/2021 1:30:00 PM 19.98 67.964 0.661 8.21 1.93 13.19
8/9/2021 1:45:00 PM 20.16 68.288 0.662 8.21 2.42 13.33
8/9/2021 2:00:00 PM 20.26 68.468 0.662 8.22 1.93 13.42
8/9/2021 2:15:00 PM 20.36 68.648 0.664 8.22 1.68 13.44
8/9/2021 2:30:00 PM 20.48 68.864 0.664 8.23 1.68 13.49
8/9/2021 2:45:00 PM 20.53 68.954 0.664 8.23 4.3 13.42
8/9/2021 3:00:00 PM 20.49 68.882 0.664 8.21 2.41 13.26
8/9/2021 3:15:00 PM 20.38 68.684 0.665 8.19 2.43 13.03
8/9/2021 3:30:00 PM 20.29 68.522 0.665 8.18 2.36 12.79
8/9/2021 3:45:00 PM 20.29 68.522 0.665 8.18 2.95 12.73
8/9/2021 4:00:00 PM 20.34 68.612 0.665 8.19 4.07 12.73
8/9/2021 4:15:00 PM 20.34 68.612 0.664 8.18 3.99 12.6
8/9/2021 4:30:00 PM 20.31 68.558 0.663 8.17 4.34 12.36
8/9/2021 4:45:00 PM 20.26 68.468 0.662 8.16 6.82 12.13
8/9/2021 5:00:00 PM 20.19 68.342 0.661 8.15 4.81 11.88
8/9/2021 5:15:00 PM 20.12 68.216 0.659 8.14 3.76 11.6
8/9/2021 5:30:00 PM 20.06 68.108 0.657 8.12 4.26 11.32
8/9/2021 5:45:00 PM 20.01 68.018 0.656 8.09 4.67 11.18
8/9/2021 6:00:00 PM 19.96 67.92799 0.656 8.08 3.36 11.03
8/9/2021 6:15:00 PM 19.89 67.802 0.656 8.07 3.02 10.8
8/9/2021 6:30:00 PM 19.86 67.748 0.655 8.06 1.93 10.63
8/9/2021 6:45:00 PM 19.81 67.658 0.655 8.04 3.11 10.45
8/9/2021 7:00:00 PM 19.77 67.586 0.656 8.03 3.24 10.25
8/9/2021 7:15:00 PM 19.74 67.532 0.655 8.02 2.39 10.04
8/9/2021 7:30:00 PM 19.71 67.478 0.656 8 23.89 9.83
8/9/2021 7:45:00 PM 19.69 67.442 0.656 7.98 1.93 9.63
8/9/2021 8:00:00 PM 19.67 67.406 0.656 7.97 1.88 9.44
8/9/2021 8:15:00 PM 19.63 67.334 0.656 7.96 4.78 9.24
8/9/2021 8:30:00 PM 19.61 67.298 0.656 7.94 3.13 9.05
8/9/2021 8:45:00 PM 19.58 67.244 0.657 7.92 4.39 8.88
8/9/2021 9:00:00 PM 19.54 67.172 0.657 7.91 3.07 8.75
8/9/2021 9:15:00 PM 19.51 67.118 0.657 7.9 2.69 8.64
8/9/2021 9:30:00 PM 19.47 67.046 0.657 7.89 4.54 8.53
8/9/2021 9:45:00 PM 19.44 66.992 0.658 7.88 3.65 8.44
8/9/2021 10:00:00 PM 19.41 66.938 0.658 7.87 7.07 8.35
8/9/2021 10:15:00 PM 19.38 66.884 0.658 7.87 7.35 8.29
8/9/2021 10:30:00 PM 19.34 66.812 0.658 7.86 4.03 8.23
8/9/2021 10:45:00 PM 19.31 66.758 0.658 7.85 2.97 8.17
8/9/2021 11:00:00 PM 19.27 66.686 0.659 7.85 3.44 8.13
8/9/2021 11:15:00 PM 19.23 66.614 0.659 7.84 6.74 8.07
8/9/2021 11:30:00 PM 19.2 66.56 0.659 7.83 4.32 8.02
8/9/2021 11:45:00 PM 19.17 66.506 0.659 7.83 5.75 7.99
8/10/2021 12:00:00 AM 19.14 66.452 0.659 7.82 6.76 7.95
8/10/2021 12:15:00 AM 19.11 66.398 0.66 7.82 4.91 7.93
8/10/2021 12:30:00 AM 19.08 66.344 0.66 7.81 10.28 7.88
8/10/2021 12:45:00 AM 19.06 66.308 0.66 7.81 5.87 7.86
8/10/2021 1:00:00 AM 19.03 66.254 0.66 7.81 6.07 7.83
8/10/2021 1:15:00 AM 19 66.2 0.66 7.8 5.5 7.82
8/10/2021 1:30:00 AM 18.97 66.146 0.66 7.8 8.09 7.79
8/10/2021 1:45:00 AM 18.94 66.092 0.66 7.8 8.28 7.79
8/10/2021 2:00:00 AM 18.91 66.038 0.66 7.79 6.82 7.76
8/10/2021 2:15:00 AM 18.88 65.984 0.66 7.79 8.46 7.76
8/10/2021 2:30:00 AM 18.85 65.93 0.661 7.78 6.24 7.75
8/10/2021 2:45:00 AM 18.83 65.894 0.662 7.78 4.41 7.74
8/10/2021 3:00:00 AM 18.81 65.858 0.661 7.78 7.09 7.73
8/10/2021 3:15:00 AM 18.79 65.82201 0.661 7.78 4.22 7.71
8/10/2021 3:30:00 AM 18.77 65.786 0.662 7.77 6.18 7.69
8/10/2021 3:45:00 AM 18.75 65.75 0.662 7.77 5.83 7.68
8/10/2021 4:00:00 AM 18.72 65.696 0.662 7.76 9.05 7.69
8/10/2021 4:15:00 AM 18.7 65.66 0.662 7.76 9.79 7.68
8/10/2021 4:30:00 AM 18.68 65.624 0.662 7.76 6.27 7.66
8/10/2021 4:45:00 AM 18.65 65.57 0.662 7.76 11.68 7.67
8/10/2021 5:00:00 AM 18.63 65.534 0.661 7.76 5.46 7.66
8/10/2021 5:15:00 AM 18.62 65.516 0.662 7.75 6.85 7.66
8/10/2021 5:30:00 AM 18.59 65.462 0.661 7.75 8.6 7.66
8/10/2021 5:45:00 AM 18.57 65.426 0.662 7.75 7.48 7.67
8/10/2021 6:00:00 AM 18.55 65.39 0.662 7.75 9.06 7.65
8/10/2021 6:15:00 AM 18.53 65.354 0.661 7.74 5.69 7.65
8/10/2021 6:30:00 AM 18.51 65.318 0.661 7.74 5.8 7.66
8/10/2021 6:45:00 AM 18.49 65.282 0.661 7.74 6.4 7.67
8/10/2021 7:00:00 AM 18.48 65.264 0.661 7.73 9.36 7.69
8/10/2021 7:15:00 AM 18.47 65.246 0.661 7.74 7.72 7.75
8/10/2021 7:30:00 AM 18.46 65.228 0.661 7.74 6.92 7.8
8/10/2021 7:45:00 AM 18.45 65.21 0.661 7.74 7.89 7.84
8/10/2021 8:00:00 AM 18.45 65.21 0.661 7.74 9.82 7.88
8/10/2021 8:15:00 AM 18.44 65.192 0.662 7.75 4.98 7.92
8/10/2021 8:30:00 AM 18.44 65.192 0.661 7.75 5.23 7.99
8/10/2021 8:45:00 AM 18.45 65.21 0.661 7.75 3.83 8.1
8/10/2021 9:00:00 AM 18.46 65.228 0.661 7.77 4.76 8.19
8/10/2021 9:15:00 AM 18.47 65.246 0.661 7.77 2.88 8.33
8/10/2021 9:30:00 AM 18.5 65.3 0.661 7.78 2.25 8.51
8/10/2021 9:45:00 AM 18.54 65.372 0.66 7.8 2.56 8.73
8/10/2021 10:00:00 AM 18.6 65.48 0.66 7.81 4.38 8.97
8/10/2021 10:15:00 AM 18.69 65.642 0.66 7.84 2.32 9.29
8/10/2021 10:30:00 AM 18.8 65.84 0.659 7.88 2.09 9.67
8/10/2021 10:45:00 AM 18.91 66.038 0.659 7.9 2.9 10
8/10/2021 11:00:00 AM 19.02 66.236 0.658 7.93 2.46 10.27
8/10/2021 11:15:00 AM 19.13 66.434 0.657 7.95 1.99 10.55
8/10/2021 11:30:00 AM 19.23 66.614 0.657 7.97 1.49 10.8
8/10/2021 11:45:00 AM 19.41 66.938 0.656 8 1.3 11.15
8/10/2021 12:00:00 PM 19.57 67.226 0.656 8.02 1.94 11.38
8/10/2021 12:15:00 PM 19.76 67.568 0.655 8.04 1.47 11.61
8/10/2021 12:30:00 PM 19.95 67.91 0.655 8.06 1.46 11.84
8/10/2021 12:45:00 PM 20.08 68.144 0.655 8.08 3.72 11.88
8/10/2021 1:00:00 PM 20.17 68.306 0.654 8.09 1.84 11.93
8/10/2021 1:15:00 PM 20.32 68.576 0.654 8.1 1.99 12.01
8/10/2021 1:30:00 PM 20.48 68.864 0.653 8.11 2.2 12.12
8/10/2021 1:45:00 PM 20.62 69.116 0.653 8.12 2.78 12.24
8/10/2021 2:00:00 PM 20.71 69.278 0.654 8.13 1.38 12.24
8/10/2021 2:15:00 PM 20.72 69.296 0.655 8.12 3.48 12.09
8/10/2021 2:30:00 PM 20.72 69.296 0.656 8.12 1.46 12.15
8/10/2021 2:45:00 PM 20.66 69.188 0.656 8.11 1.83 11.98
8/10/2021 3:00:00 PM 20.6 69.08 0.657 8.1 2.47 11.81
8/10/2021 3:15:00 PM 20.38 68.684 0.657 8.07 3.38 11.25
8/10/2021 3:30:00 PM 20.22 68.396 0.658 8.04 2.09 10.92
8/10/2021 3:45:00 PM 20.15 68.27 0.658 8.03 1.43 10.89
8/10/2021 4:00:00 PM 20.08 68.144 0.658 8.04 3.17 10.96
8/10/2021 4:15:00 PM 20.08 68.144 0.658 8.05 2.79 11.08
8/10/2021 4:30:00 PM 20.1 68.18 0.658 8.06 1.9 11.14
8/10/2021 4:45:00 PM 20.16 68.288 0.658 8.07 9.46 11.24
8/10/2021 5:00:00 PM 20.23 68.414 0.657 8.07 11.65 11.3
8/10/2021 5:15:00 PM 20.27 68.486 0.656 8.08 3.15 11.31
8/10/2021 5:30:00 PM 20.27 68.486 0.655 8.08 2.08 11.22
8/10/2021 5:45:00 PM 20.22 68.396 0.655 8.06 5.05 11
8/10/2021 6:00:00 PM 20.16 68.288 0.648 8.04 3.94 10.53
8/10/2021 6:15:00 PM 20.1 68.18 0.637 8.03 5.9 10.01
8/10/2021 6:30:00 PM 19.99 67.982 0.63 8.01 7.93 9.64
8/10/2021 6:45:00 PM 19.89 67.802 0.63 7.98 8.07 9.38
8/10/2021 7:00:00 PM 19.83 67.694 0.626 7.96 12.19 9.12
8/10/2021 7:15:00 PM 19.79 67.622 0.628 7.93 19.27 8.93
8/10/2021 7:30:00 PM 19.74 67.532 0.631 7.91 15.41 8.82
8/10/2021 7:45:00 PM 19.7 67.46 0.6 7.89 14.57 8.7
8/10/2021 8:00:00 PM 19.67 67.406 0.635 7.88 20.51 8.6
8/10/2021 8:15:00 PM 19.65 67.37 0.637 7.87 15 8.51
8/10/2021 8:30:00 PM 19.64 67.352 0.639 7.86 12.07 8.41
8/10/2021 8:45:00 PM 19.62 67.316 0.641 7.85 13.48 8.34
8/10/2021 9:00:00 PM 19.59 67.262 0.644 7.84 13.84 8.31
8/10/2021 9:15:00 PM 19.56 67.208 0.645 7.84 9.91 8.27
8/10/2021 9:30:00 PM 19.53 67.154 0.647 7.84 10.26 8.24
8/10/2021 9:45:00 PM 19.5 67.1 0.649 7.84 12.23 8.22
8/10/2021 10:00:00 PM 19.47 67.046 0.65 7.83 9.72 8.19
8/10/2021 10:15:00 PM 19.44 66.992 0.65 7.83 9.04 8.15
8/10/2021 10:30:00 PM 19.42 66.956 0.65 7.83 16.38 8.1
8/10/2021 10:45:00 PM 19.39 66.902 0.65 7.82 12.04 8.04
8/10/2021 11:00:00 PM 19.36 66.848 0.653 7.81 14.06 7.99
8/10/2021 11:15:00 PM 19.31 66.758 0.655 7.8 21.16 7.96
8/10/2021 11:30:00 PM 19.25 66.65 0.659 7.79 41.92 7.95
8/10/2021 11:45:00 PM 19.18 66.524 0.664 7.79 53.61 7.93
8/11/2021 12:00:00 AM 19.11 66.398 0.669 7.78 39.45 7.82
8/11/2021 12:15:00 AM 19.1 66.38 0.671 7.77 57.46 7.65
8/11/2021 12:30:00 AM 19.16 66.488 0.677 7.75 86.63 7.52
8/11/2021 12:45:00 AM 19.3 66.74 0.687 7.74 73.23 7.45
8/11/2021 1:00:00 AM 19.51 67.118 0.698 7.75 67.11 7.38
8/11/2021 1:15:00 AM 19.75 67.55 0.705 7.76 55.52 7.31
8/11/2021 1:30:00 AM 19.99 67.982 0.702 7.75 63.58 7.19
8/11/2021 1:45:00 AM 20.23 68.414 0.684 7.74 53.95 6.99
8/11/2021 2:00:00 AM 20.47 68.846 0.653 7.72 56.23 6.74
8/11/2021 2:15:00 AM 20.7 69.26 0.613 7.69 47.52 6.51
8/11/2021 2:30:00 AM 20.9 69.62 0.57 7.65 57.99 6.29
8/11/2021 2:45:00 AM 21.07 69.926 0.53 7.62 47.81 6.15
8/11/2021 3:00:00 AM 21.2 70.16 0.492 7.59 41.28 6.02
8/11/2021 3:15:00 AM 21.3 70.34 0.46 7.56 38.98 5.96
8/11/2021 3:30:00 AM 21.37 70.466 0.433 7.55 30.27 5.92
8/11/2021 3:45:00 AM 21.41 70.538 0.411 7.53 27.42 5.85
8/11/2021 4:00:00 AM 21.42 70.556 0.396 7.52 30.52 5.86
8/11/2021 4:15:00 AM 21.41 70.538 0.385 7.51 26.2 5.89
8/11/2021 4:30:00 AM 21.38 70.484 0.378 7.51 25.83 5.93
8/11/2021 4:45:00 AM 21.34 70.412 0.375 7.5 29.14 5.96
8/11/2021 5:00:00 AM 21.28 70.304 0.375 7.5 24.02 6
8/11/2021 5:15:00 AM 21.22 70.196 0.377 7.5 22.82 6.02
8/11/2021 5:30:00 AM 21.15 70.07 0.381 7.51 20.52 6.06
8/11/2021 5:45:00 AM 21.07 69.926 0.385 7.51 38.17 6.1
8/11/2021 6:00:00 AM 20.99 69.782 0.391 7.51 22.73 6.13
8/11/2021 6:15:00 AM 20.9 69.62 0.397 7.51 23.02 6.17
8/11/2021 6:30:00 AM 20.81 69.458 0.403 7.51 20.97 6.21
8/11/2021 6:45:00 AM 20.72 69.296 0.406 7.51 18.89 6.25
8/11/2021 7:00:00 AM 20.64 69.152 0.397 7.51 15.36 6.32
8/11/2021 7:15:00 AM 20.56 69.008 0.421 7.52 17.93 6.39
8/11/2021 7:30:00 AM 20.49 68.882 0.427 7.53 15.49 6.47
8/11/2021 7:45:00 AM 20.43 68.774 0.427 7.53 15.08 6.57
8/11/2021 8:00:00 AM 20.37 68.666 0.438 7.54 14.09 6.69
8/11/2021 8:15:00 AM 20.33 68.594 0.427 7.55 16.67 6.82
8/11/2021 8:30:00 AM 20.29 68.522 0.448 7.55 16.02 6.97
8/11/2021 8:45:00 AM 20.27 68.486 0.456 7.57 17.34 7.12
8/11/2021 9:00:00 AM 20.28 68.504 0.461 7.58 11.84 7.31
8/11/2021 9:15:00 AM 20.27 68.486 0.428 7.59 9.83 7.49
8/11/2021 9:30:00 AM 20.29 68.522 0.432 7.61 8.29 7.68
8/11/2021 9:45:00 AM 20.33 68.594 0.473 7.63 7.19 7.88
8/11/2021 10:00:00 AM 20.38 68.684 0.481 7.65 7.35 8.09
8/11/2021 10:15:00 AM 20.44 68.792 0.486 7.67 8.98 8.29
8/11/2021 10:30:00 AM 20.52 68.936 0.491 7.69 6.14 8.48
8/11/2021 10:45:00 AM 20.61 69.098 0.493 7.71 7.98 8.67
8/11/2021 11:00:00 AM 20.68 69.224 0.499 7.73 11.38 8.86
8/11/2021 11:15:00 AM 20.77 69.386 0.507 7.74 6.96 9.04
8/11/2021 11:30:00 AM 20.86 69.548 0.511 7.76 5 9.21
8/11/2021 11:45:00 AM 20.96 69.728 0.511 7.78 4.77 9.37
8/11/2021 12:00:00 PM 21.08 69.944 0.519 7.8 5.46 9.54
8/11/2021 12:15:00 PM 21.18 70.124 0.523 7.82 4.19 9.69
8/11/2021 12:30:00 PM 21.28 70.304 0.526 7.83 5.03 9.84
8/11/2021 12:45:00 PM 21.38 70.484 0.528 7.85 4.82 9.96
8/11/2021 1:00:00 PM 21.46 70.628 0.532 7.86 5.59 10.08
8/11/2021 1:15:00 PM 21.56 70.808 0.534 7.88 6.97 10.19
8/11/2021 1:30:00 PM 21.63 70.934 0.538 7.89 5.95 10.26
8/11/2021 1:45:00 PM 21.66 70.988 0.525 7.89 6.42 10.33
8/11/2021 2:00:00 PM 21.67 71.006 0.542 7.9 4.08 10.35
8/11/2021 2:15:00 PM 21.73 71.114 0.501 7.91 5.26 10.43
8/11/2021 2:30:00 PM 21.77 71.186 0.54 7.91 6.28 10.47
8/11/2021 2:45:00 PM 21.77 71.186 0.553 7.92 5.28 10.51
8/11/2021 3:00:00 PM 21.69 71.042 0.556 7.92 5.57 10.4
8/11/2021 3:15:00 PM 21.54 70.772 0.558 7.91 4.19 10.17
8/11/2021 3:30:00 PM 21.4 70.52 0.562 7.89 4.41 9.97
8/11/2021 3:45:00 PM 21.27 70.286 0.564 7.88 4.03 9.89
8/11/2021 4:00:00 PM 21.17 70.106 0.567 7.88 4.55 9.89
8/11/2021 4:15:00 PM 21.13 70.034 0.568 7.89 5.12 9.91
8/11/2021 4:30:00 PM 21.09 69.962 0.569 7.89 3.39 9.87
8/11/2021 4:45:00 PM 21.02 69.836 0.571 7.88 4.74 9.65
8/11/2021 5:00:00 PM 20.97 69.746 0.572 7.86 2.92 9.41
8/11/2021 5:15:00 PM 20.93 69.674 0.573 7.85 4.89 9.2
8/11/2021 5:30:00 PM 20.87 69.566 0.571 7.84 10.18 8.94
8/11/2021 5:45:00 PM 20.8 69.44 0.571 7.82 5.37 8.68
8/11/2021 6:00:00 PM 20.73 69.314 0.572 7.81 4.26 8.52
8/11/2021 6:15:00 PM 20.67 69.206 0.571 7.8 4.68 8.38
8/11/2021 6:30:00 PM 20.63 69.134 0.575 7.78 4.35 8.23
8/11/2021 6:45:00 PM 20.6 69.08 0.577 7.77 4.39 8.11
8/11/2021 7:00:00 PM 20.57 69.026 0.579 7.76 4.91 7.99
8/11/2021 7:15:00 PM 20.54 68.972 0.581 7.75 6.66 7.88
8/11/2021 7:30:00 PM 20.51 68.918 0.58 7.75 5.4 7.79
8/11/2021 7:45:00 PM 20.48 68.864 0.582 7.74 4.5 7.69
8/11/2021 8:00:00 PM 20.44 68.792 0.582 7.73 5.79 7.61
8/11/2021 8:15:00 PM 20.41 68.738 0.582 7.73 10.54 7.54
8/11/2021 8:30:00 PM 20.38 68.684 0.568 7.73 8.16 7.49
8/11/2021 8:45:00 PM 20.34 68.612 0.58 7.72 8.32 7.43
8/11/2021 9:00:00 PM 20.29 68.522 0.587 7.72 11.12 7.39
8/11/2021 9:15:00 PM 20.25 68.45 0.59 7.71 9.19 7.34
8/11/2021 9:30:00 PM 20.21 68.378 0.592 7.71 14.44 7.28
8/11/2021 9:45:00 PM 20.17 68.306 0.594 7.71 10.25 7.23
8/11/2021 10:00:00 PM 20.14 68.252 0.596 7.7 14.03 7.17
8/11/2021 10:15:00 PM 20.1 68.18 0.597 7.7 10.05 7.13
8/11/2021 10:30:00 PM 20.07 68.126 0.598 7.7 9.81 7.09
8/11/2021 10:45:00 PM 20.04 68.07201 0.603 7.7 10.81 7.06
8/11/2021 11:00:00 PM 20.01 68.018 0.605 7.69 18.92 7.02
8/11/2021 11:15:00 PM 19.97 67.946 0.565 7.69 7.61 7.01
8/11/2021 11:30:00 PM 19.93 67.874 0.61 7.69 8.66 6.99
8/11/2021 11:45:00 PM 19.89 67.802 0.612 7.69 6.79 6.97
8/12/2021 12:00:00 AM 19.86 67.748 0.613 7.69 12.21 6.98
8/12/2021 12:15:00 AM 19.81 67.658 0.613 7.69 8.08 6.95
8/12/2021 12:30:00 AM 19.77 67.586 0.616 7.69 12.28 6.95
8/12/2021 12:45:00 AM 19.72 67.496 0.616 7.69 10.59 6.94
8/12/2021 1:00:00 AM 19.68 67.424 0.615 7.69 7.1 6.94
8/12/2021 1:15:00 AM 19.65 67.37 0.615 7.69 8.85 6.91
8/12/2021 1:30:00 AM 19.62 67.316 0.613 7.68 11.35 6.87
8/12/2021 1:45:00 AM 19.6 67.28 0.609 7.67 8.23 6.84
8/12/2021 2:00:00 AM 19.58 67.244 0.607 7.67 8.95 6.8
8/12/2021 2:15:00 AM 19.56 67.208 0.607 7.66 15.55 6.77
8/12/2021 2:30:00 AM 19.53 67.154 0.609 7.66 10.38 6.76
8/12/2021 2:45:00 AM 19.5 67.1 0.612 7.66 16.09 6.78
8/12/2021 3:00:00 AM 19.45 67.01 0.615 7.66 13.14 6.79
8/12/2021 3:15:00 AM 19.4 66.92 0.618 7.66 10.17 6.82
8/12/2021 3:30:00 AM 19.35 66.83 0.623 7.66 11.35 6.84
8/12/2021 3:45:00 AM 19.3 66.74 0.623 7.66 8.93 6.87
8/12/2021 4:00:00 AM 19.25 66.65 0.625 7.67 10.92 6.9
8/12/2021 4:15:00 AM 19.19 66.542 0.621 7.67 9.31 6.93
8/12/2021 4:30:00 AM 19.14 66.452 0.606 7.67 9.82 6.95
8/12/2021 4:45:00 AM 19.09 66.362 0.629 7.67 8.41 6.97
8/12/2021 5:00:00 AM 19.05 66.29 0.628 7.67 7.68 6.98
8/12/2021 5:15:00 AM 19.01 66.218 0.616 7.67 10.67 6.99
8/12/2021 5:30:00 AM 18.97 66.146 0.62 7.67 11.73 7
8/12/2021 5:45:00 AM 18.95 66.11 0.639 7.67 10.26 7
8/12/2021 6:00:00 AM 18.92 66.056 0.64 7.67 10.22 7.02
8/12/2021 6:15:00 AM 18.89 66.002 0.641 7.67 11.15 7.02
8/12/2021 6:30:00 AM 18.87 65.966 0.642 7.68 14.58 7.02
8/12/2021 6:45:00 AM 18.85 65.93 0.642 7.68 10 7.05
8/12/2021 7:00:00 AM 18.83 65.894 0.642 7.68 13.43 7.09
8/12/2021 7:15:00 AM 18.83 65.894 0.642 7.68 8.43 7.14
8/12/2021 7:30:00 AM 18.83 65.894 0.642 7.68 9.85 7.22
8/12/2021 7:45:00 AM 18.83 65.894 0.642 7.69 8.87 7.27
8/12/2021 8:00:00 AM 18.83 65.894 0.642 7.7 8.22 7.38
8/12/2021 8:15:00 AM 18.85 65.93 0.623 7.71 6.76 7.55
8/12/2021 8:30:00 AM 18.88 65.984 0.611 7.72 8.68 7.78
8/12/2021 8:45:00 AM 18.93 66.074 0.61 7.73 6.13 8.02
8/12/2021 9:00:00 AM 18.99 66.182 0.61 7.74 6.09 8.24
8/12/2021 9:15:00 AM 19.07 66.326 0.614 7.76 5.9 8.45
8/12/2021 9:30:00 AM 19.16 66.488 0.62 7.78 6.66 8.63
8/12/2021 9:45:00 AM 19.27 66.686 0.624 7.79 4.78 8.78
8/12/2021 10:00:00 AM 19.38 66.884 0.63 7.81 5.49 8.94
8/12/2021 10:15:00 AM 19.5 67.1 0.631 7.82 2.93 9.13
8/12/2021 10:30:00 AM 19.63 67.334 0.632 7.84 3.15 9.29
8/12/2021 10:45:00 AM 19.76 67.568 0.631 7.85 2.93 9.43
8/12/2021 11:00:00 AM 19.89 67.802 0.633 7.87 3.61 9.57
8/12/2021 11:15:00 AM 20.01 68.018 0.633 7.88 3.33 9.69
8/12/2021 11:30:00 AM 20.16 68.288 0.624 7.89 2.11 9.84
8/12/2021 11:45:00 AM 20.3 68.54 0.632 7.9 4.74 9.96
8/12/2021 12:00:00 PM 20.43 68.774 0.615 7.92 2.72 10.07
8/12/2021 12:15:00 PM 20.58 69.044 0.635 7.93 3.06 10.19
8/12/2021 12:30:00 PM 20.71 69.278 0.642 7.94 2.33 10.29
8/12/2021 12:45:00 PM 20.84 69.512 0.642 7.94 3.06 10.4
8/12/2021 1:00:00 PM 20.96 69.728 0.641 7.95 2.91 10.47
8/12/2021 1:15:00 PM 21.07 69.926 0.641 7.95 6.89 10.53
8/12/2021 1:30:00 PM 21.18 70.124 0.64 7.96 2.45 10.62
8/12/2021 1:45:00 PM 21.26 70.268 0.636 7.97 3.24 10.68
8/12/2021 2:00:00 PM 21.34 70.412 0.628 7.97 7.89 10.69
8/12/2021 2:15:00 PM 21.42 70.556 0.636 7.97 2.53 10.75
8/12/2021 2:30:00 PM 21.48 70.664 0.634 7.97 3.67 10.75
8/12/2021 2:45:00 PM 21.52 70.736 0.623 7.98 2.38 10.78
8/12/2021 3:00:00 PM 21.53 70.754 0.52 7.98 4.23 10.74
8/12/2021 3:15:00 PM 21.57 70.826 0.632 7.98 4.32 10.72
8/12/2021 3:30:00 PM 21.58 70.844 0.624 7.98 7.99 10.7
8/12/2021 3:45:00 PM 21.58 70.844 0.622 7.98 3.44 10.64
8/12/2021 4:00:00 PM 21.58 70.844 0.599 7.98 2.98 10.58
8/12/2021 4:15:00 PM 21.58 70.844 0.599 7.98 2.44 10.56
8/12/2021 4:30:00 PM 21.57 70.826 0.625 7.98 2.67 10.5
8/12/2021 4:45:00 PM 21.55 70.79 0.606 7.98 3.11 10.4
8/12/2021 5:00:00 PM 21.52 70.736 0.604 7.96 1.81 10.3
8/12/2021 5:15:00 PM 21.5 70.7 0.625 7.96 1.54 10.19
8/12/2021 5:30:00 PM 21.47 70.646 0.63 7.95 1.57 10.07
8/12/2021 5:45:00 PM 21.43 70.574 0.623 7.95 2.65 9.94
8/12/2021 6:00:00 PM 21.38 70.484 0.624 7.94 1.67 9.8
8/12/2021 6:15:00 PM 21.34 70.412 0.619 7.93 2.23 9.63
8/12/2021 6:30:00 PM 21.3 70.34 0.6 7.92 2.44 9.48
8/12/2021 6:45:00 PM 21.26 70.268 0.625 7.91 2.49 9.34
8/12/2021 7:00:00 PM 21.21 70.17799 0.631 7.9 2.17 9.17
8/12/2021 7:15:00 PM 21.16 70.088 0.631 7.89 2.31 9.01
8/12/2021 7:30:00 PM 21.1 69.98 0.631 7.88 2.65 8.81
8/12/2021 7:45:00 PM 21.03 69.854 0.631 7.87 3.95 8.65
8/12/2021 8:00:00 PM 20.98 69.764 0.631 7.86 4.9 8.47
8/12/2021 8:15:00 PM 20.92 69.656 0.632 7.84 5.27 8.31
8/12/2021 8:30:00 PM 20.87 69.566 0.633 7.83 4.34 8.18
8/12/2021 8:45:00 PM 20.83 69.494 0.634 7.82 11.44 8.04
8/12/2021 9:00:00 PM 20.79 69.422 0.635 7.81 8.18 7.92
8/12/2021 9:15:00 PM 20.76 69.368 0.637 7.8 7.48 7.83
8/12/2021 9:30:00 PM 20.73 69.314 0.639 7.79 8.06 7.75
8/12/2021 9:45:00 PM 20.69 69.242 0.641 7.79 6.51 7.67
8/12/2021 10:00:00 PM 20.67 69.206 0.643 7.78 6 7.6
8/12/2021 10:15:00 PM 20.63 69.134 0.645 7.77 5.23 7.53
8/12/2021 10:30:00 PM 20.62 69.116 0.647 7.76 5.44 7.48
8/12/2021 10:45:00 PM 20.58 69.044 0.648 7.76 6.85 7.41
8/12/2021 11:00:00 PM 20.55 68.99 0.649 7.76 4.95 7.36
8/12/2021 11:15:00 PM 20.52 68.936 0.65 7.76 8.34 7.33
8/12/2021 11:30:00 PM 20.48 68.864 0.651 7.75 6.62 7.29
8/12/2021 11:45:00 PM 20.44 68.792 0.65 7.75 8.2 7.25
8/13/2021 12:00:00 AM 20.39 68.702 0.652 7.75 12.33 7.22
8/13/2021 12:15:00 AM 20.34 68.612 0.652 7.75 8.95 7.2
8/13/2021 12:30:00 AM 20.29 68.522 0.652 7.76 7.25 7.19
8/13/2021 12:45:00 AM 20.25 68.45 0.652 7.75 11.33 7.17
8/13/2021 1:00:00 AM 20.2 68.36 0.651 7.75 8.18 7.15
8/13/2021 1:15:00 AM 20.16 68.288 0.651 7.75 7.66 7.14
8/13/2021 1:30:00 AM 20.12 68.216 0.651 7.74 10.47 7.13
8/13/2021 1:45:00 AM 20.08 68.144 0.652 7.74 9.48 7.11
8/13/2021 2:00:00 AM 20.04 68.07201 0.652 7.74 9.44 7.1
8/13/2021 2:15:00 AM 19.98 67.964 0.652 7.74 8.83 7.09
8/13/2021 2:30:00 AM 19.93 67.874 0.653 7.74 9.41 7.07
8/13/2021 2:45:00 AM 19.88 67.784 0.653 7.74 8.76 7.07
8/13/2021 3:00:00 AM 19.84 67.712 0.653 7.73 10.36 7.06
8/13/2021 3:15:00 AM 19.79 67.622 0.654 7.73 9.51 7.04
8/13/2021 3:30:00 AM 19.74 67.532 0.654 7.73 9.55 7.03
8/13/2021 3:45:00 AM 19.69 67.442 0.655 7.73 7.11 7.02
8/13/2021 4:00:00 AM 19.64 67.352 0.655 7.73 7.11 7.01
8/13/2021 4:15:00 AM 19.6 67.28 0.656 7.72 11.32 6.99
8/13/2021 4:30:00 AM 19.57 67.226 0.658 7.72 7.8 6.96
8/13/2021 4:45:00 AM 19.53 67.154 0.659 7.71 14.25 6.93
8/13/2021 5:00:00 AM 19.49 67.082 0.661 7.71 21.3 6.93
8/13/2021 5:15:00 AM 19.45 67.01 0.663 7.71 25.14 6.93
8/13/2021 5:30:00 AM 19.4 66.92 0.664 7.69 21.38 6.94
8/13/2021 5:45:00 AM 19.36 66.848 0.665 7.68 22.71 6.97
8/13/2021 6:00:00 AM 19.31 66.758 0.665 7.68 24.65 7.02
8/13/2021 6:15:00 AM 19.26 66.668 0.664 7.68 23.38 7.09
8/13/2021 6:30:00 AM 19.2 66.56 0.664 7.68 28.42 7.12
8/13/2021 6:45:00 AM 19.15 66.47 0.665 7.67 19.92 7.14
8/13/2021 7:00:00 AM 19.1 66.38 0.666 7.67 21.71 7.17
8/13/2021 7:15:00 AM 19.05 66.29 0.668 7.67 19.28 7.19
8/13/2021 7:30:00 AM 19.02 66.236 0.669 7.67 16.53 7.23
8/13/2021 7:45:00 AM 19.01 66.218 0.671 7.67 14.42 7.29
8/13/2021 8:00:00 AM 19.02 66.236 0.672 7.68 11.8 7.36
8/13/2021 8:15:00 AM 19.06 66.308 0.673 7.68 13.72 7.44
8/13/2021 8:30:00 AM 19.13 66.434 0.674 7.69 9.64 7.53
8/13/2021 8:45:00 AM 19.21 66.578 0.675 7.71 8.08 7.67
8/13/2021 9:00:00 AM 19.32 66.776 0.676 7.72 9.81 7.82
8/13/2021 9:15:00 AM 19.45 67.01 0.676 7.73 7.71 7.98
8/13/2021 9:30:00 AM 19.59 67.262 0.674 7.75 5.16 8.14
8/13/2021 9:45:00 AM 19.75 67.55 0.676 7.76 2.94 8.3
8/13/2021 10:00:00 AM 19.93 67.874 0.676 7.78 3.67 8.45
8/13/2021 10:15:00 AM 20.11 68.198 0.676 7.79 3.54 8.6
8/13/2021 10:30:00 AM 20.31 68.558 0.67 7.81 2.77 8.76
8/13/2021 10:45:00 AM 20.52 68.936 0.673 7.83 2.7 8.9
8/13/2021 11:00:00 AM 20.72 69.296 0.675 7.84 2.69 9.06
8/13/2021 11:15:00 AM 20.93 69.674 0.675 7.86 4.8 9.22
8/13/2021 11:30:00 AM 21.14 70.052 0.675 7.87 2.53 9.37
8/13/2021 11:45:00 AM 21.34 70.412 0.676 7.88 2.42 9.51
8/13/2021 12:00:00 PM 21.55 70.79 0.676 7.89 3.04 9.67
8/13/2021 12:15:00 PM 21.73 71.114 0.675 7.9 1.88 9.82
8/13/2021 12:30:00 PM 21.91 71.438 0.669 7.92 3.09 9.96
8/13/2021 12:45:00 PM 22.07 71.726 0.671 7.92 1.87 10.1
8/13/2021 1:00:00 PM 22.22 71.996 0.672 7.93 2.38 10.2
8/13/2021 1:15:00 PM 22.34 72.212 0.672 7.94 3.17 10.3
8/13/2021 1:30:00 PM 22.46 72.42799 0.665 7.93 2.39 10.36
8/13/2021 1:45:00 PM 22.56 72.608 0.662 7.93 4.11 10.43
8/13/2021 2:00:00 PM 22.64 72.752 0.655 7.94 3.43 10.45
8/13/2021 2:15:00 PM 22.71 72.878 0.647 7.94 3.86 10.51
8/13/2021 2:30:00 PM 22.73 72.914 0.633 7.94 628.2 10.51
8/13/2021 2:45:00 PM 22.76 72.968 0.625 7.93 2.79 10.5
8/13/2021 3:00:00 PM 22.76 72.968 0.586 7.92 3.49 10.45
8/13/2021 3:15:00 PM 22.73 72.914 0.583 7.91 4.44 10.39
8/13/2021 3:30:00 PM 22.69 72.842 0.579 7.9 4.22 10.3
8/13/2021 3:45:00 PM 22.57 72.626 0.557 7.88 4.48 10.12
8/13/2021 4:00:00 PM 22.34 72.212 0.561 7.86 5.18 9.87
8/13/2021 4:15:00 PM 22.12 71.816 0.553 7.83 3.65 9.55
8/13/2021 4:30:00 PM 21.9 71.42 0.503 7.8 4.79 9.26
8/13/2021 4:45:00 PM 21.65 70.97 0.543 7.78 5.56 8.91
8/13/2021 5:00:00 PM 21.45 70.61 0.514 7.75 6.89 8.63
8/13/2021 5:15:00 PM 21.27 70.286 0.547 7.73 5.76 8.46
8/13/2021 5:30:00 PM 21.16 70.088 0.541 7.72 6.14 8.38
8/13/2021 5:45:00 PM 21.08 69.944 0.554 7.71 5.6 8.38
8/13/2021 6:00:00 PM 21.03 69.854 0.519 7.71 4.9 8.44
8/13/2021 6:15:00 PM 21 69.8 0.509 7.71 4.8 8.49
8/13/2021 6:30:00 PM 20.98 69.764 0.507 7.72 5.1 8.51
8/13/2021 6:45:00 PM 20.95 69.71 0.56 7.72 5.57 8.53
8/13/2021 7:00:00 PM 20.92 69.656 0.565 7.73 4.75 8.52
8/13/2021 7:15:00 PM 20.88 69.584 0.567 7.73 7.24 8.47
8/13/2021 7:30:00 PM 20.84 69.512 0.569 7.72 5.19 8.39
8/13/2021 7:45:00 PM 20.79 69.422 0.571 7.72 4.54 8.33
8/13/2021 8:00:00 PM 20.74 69.332 0.573 7.72 5.77 8.25
8/13/2021 8:15:00 PM 20.67 69.206 0.575 7.71 6.11 8.14
8/13/2021 8:30:00 PM 20.61 69.098 0.577 7.7 7.08 8.03
8/13/2021 8:45:00 PM 20.55 68.99 0.578 7.7 6.53 7.94
8/13/2021 9:00:00 PM 20.5 68.9 0.58 7.69 6.86 7.84
8/13/2021 9:15:00 PM 20.44 68.792 0.578 7.68 7.42 7.76
8/13/2021 9:30:00 PM 20.4 68.72 0.583 7.67 9.98 7.71
8/13/2021 9:45:00 PM 20.35 68.63 0.584 7.67 9.34 7.66
8/13/2021 10:00:00 PM 20.31 68.558 0.586 7.66 8.32 7.62
8/13/2021 10:15:00 PM 20.27 68.486 0.588 7.66 8.53 7.59
8/13/2021 10:30:00 PM 20.23 68.414 0.589 7.66 8.56 7.57
8/13/2021 10:45:00 PM 20.2 68.36 0.591 7.66 9.09 7.55
8/13/2021 11:00:00 PM 20.17 68.306 0.594 7.66 7.28 7.52
8/13/2021 11:15:00 PM 20.14 68.252 0.571 7.66 9.8 7.51
8/13/2021 11:30:00 PM 20.1 68.18 0.599 7.66 10.35 7.49
8/13/2021 11:45:00 PM 20.06 68.108 0.601 7.66 8.4 7.47
8/14/2021 12:00:00 AM 20.02 68.036 0.603 7.65 11.11 7.45
8/14/2021 12:15:00 AM 19.98 67.964 0.604 7.65 12.34 7.43
8/14/2021 12:30:00 AM 19.94 67.892 0.606 7.66 10.91 7.41
8/14/2021 12:45:00 AM 19.89 67.802 0.607 7.65 9.24 7.4
8/14/2021 1:00:00 AM 19.85 67.73 0.609 7.65 9.92 7.38
8/14/2021 1:15:00 AM 19.81 67.658 0.564 7.64 11.25 7.37
8/14/2021 1:30:00 AM 19.77 67.586 0.612 7.65 9.62 7.36
8/14/2021 1:45:00 AM 19.73 67.514 0.614 7.64 12.79 7.35
8/14/2021 2:00:00 AM 19.69 67.442 0.616 7.64 10.2 7.36
8/14/2021 2:15:00 AM 19.66 67.388 0.618 7.64 10.53 7.36
8/14/2021 2:30:00 AM 19.62 67.316 0.62 7.65 10.1 7.36
8/14/2021 2:45:00 AM 19.59 67.262 0.623 7.65 10.13 7.37
8/14/2021 3:00:00 AM 19.55 67.19 0.626 7.65 8.59 7.38
8/14/2021 3:15:00 AM 19.52 67.136 0.628 7.66 10.11 7.38
8/14/2021 3:30:00 AM 19.48 67.064 0.631 7.66 9.78 7.4
8/14/2021 3:45:00 AM 19.44 66.992 0.633 7.65 9.62 7.4
8/14/2021 4:00:00 AM 19.4 66.92 0.634 7.66 10.03 7.41
8/14/2021 4:15:00 AM 19.37 66.866 0.634 7.65 11.62 7.41
8/14/2021 4:30:00 AM 19.34 66.812 0.639 7.65 10.85 7.42
8/14/2021 4:45:00 AM 19.31 66.758 0.62 7.65 9.03 7.43
8/14/2021 5:00:00 AM 19.28 66.704 0.643 7.66 13.28 7.44
8/14/2021 5:15:00 AM 19.25 66.65 0.629 7.66 11.22 7.44
8/14/2021 5:30:00 AM 19.22 66.596 0.646 7.66 10.7 7.44
8/14/2021 5:45:00 AM 19.19 66.542 0.646 7.67 15.56 7.44
8/14/2021 6:00:00 AM 19.16 66.488 0.647 7.66 11.37 7.45
8/14/2021 6:15:00 AM 19.13 66.434 0.648 7.67 16.59 7.46
8/14/2021 6:30:00 AM 19.1 66.38 0.649 7.67 13.62 7.46
8/14/2021 6:45:00 AM 19.07 66.326 0.65 7.66 9.01 7.47
8/14/2021 7:00:00 AM 19.04 66.272 0.65 7.67 9.96 7.51
8/14/2021 7:15:00 AM 19.01 66.218 0.651 7.67 89.54 7.53
8/14/2021 7:30:00 AM 18.98 66.164 0.644 7.65 12.46 7.58
8/14/2021 7:45:00 AM 18.96 66.128 0.652 7.65 8.14 7.64
8/14/2021 8:00:00 AM 18.96 66.128 0.653 7.66 5.92 7.72
8/14/2021 8:15:00 AM 18.96 66.128 0.653 7.66 6.95 7.82
8/14/2021 8:30:00 AM 18.99 66.182 0.654 7.67 5.46 7.99
8/14/2021 8:45:00 AM 19.04 66.272 0.655 7.69 4.78 8.19
8/14/2021 9:00:00 AM 19.11 66.398 0.654 7.71 3.45 8.39
8/14/2021 9:15:00 AM 19.17 66.506 0.655 7.72 4.8 8.59
8/14/2021 9:30:00 AM 19.23 66.614 0.655 7.73 10.35 8.73
8/14/2021 9:45:00 AM 19.29 66.722 0.654 7.76 4.95 8.89
8/14/2021 10:00:00 AM 19.35 66.83 0.654 7.77 5.32 9.01
8/14/2021 10:15:00 AM 19.42 66.956 0.654 7.79 2.89 9.16
8/14/2021 10:30:00 AM 19.52 67.136 0.654 7.81 4.39 9.33
8/14/2021 10:45:00 AM 19.54 67.172 0.653 7.81 5.65 9.37
8/14/2021 11:00:00 AM 19.54 67.172 0.653 7.81 6.63 9.4
8/14/2021 11:15:00 AM 19.55 67.19 0.654 7.81 3.98 9.42
8/14/2021 11:30:00 AM 19.53 67.154 0.654 7.82 2.65 9.43
8/14/2021 11:45:00 AM 19.51 67.118 0.654 7.82 2.28 9.4
8/14/2021 12:00:00 PM 19.51 67.118 0.654 7.82 4.71 9.42
8/14/2021 12:15:00 PM 19.55 67.19 0.653 7.83 2.81 9.58
8/14/2021 12:30:00 PM 19.61 67.298 0.653 7.85 7.75 9.7
8/14/2021 12:45:00 PM 19.68 67.424 0.653 7.86 2.45 9.82
8/14/2021 1:00:00 PM 19.71 67.478 0.653 7.87 3.25 9.89
8/14/2021 1:15:00 PM 19.76 67.568 0.602 7.88 3.15 9.98
8/14/2021 1:30:00 PM 19.8 67.64 0.653 7.89 2.43 10.01
8/14/2021 1:45:00 PM 19.81 67.658 0.653 7.9 2.34 10.04
8/14/2021 2:00:00 PM 19.83 67.694 0.653 7.9 4.65 10.08
8/14/2021 2:15:00 PM 19.88 67.784 0.653 7.91 3.34 10.15
8/14/2021 2:30:00 PM 19.99 67.982 0.654 7.92 3.1 10.27
8/14/2021 2:45:00 PM 20.17 68.306 0.654 7.93 2.5 10.41
8/14/2021 3:00:00 PM 20.33 68.594 0.654 7.94 3.47 10.52
8/14/2021 3:15:00 PM 20.48 68.864 0.655 7.95 3.46 10.58
8/14/2021 3:30:00 PM 20.6 69.08 0.656 7.96 2.55 10.61
8/14/2021 3:45:00 PM 20.6 69.08 0.656 7.96 5.78 10.58
8/14/2021 4:00:00 PM 20.58 69.044 0.656 7.95 2.74 10.51
8/14/2021 4:15:00 PM 20.53 68.954 0.657 7.95 3.29 10.44
8/14/2021 4:30:00 PM 20.45 68.81 0.658 7.95 3.2 10.37
8/14/2021 4:45:00 PM 20.46 68.828 0.658 7.94 3.07 10.36
8/14/2021 5:00:00 PM 20.44 68.792 0.658 7.94 5.04 10.33
8/14/2021 5:15:00 PM 20.37 68.666 0.659 7.94 2.73 10.21
8/14/2021 5:30:00 PM 20.31 68.558 0.66 7.93 273.2 10.1
8/14/2021 5:45:00 PM 20.25 68.45 0.66 7.93 276.9 10.01
8/14/2021 6:00:00 PM 20.18 68.324 0.66 7.92 278.6 9.89
8/14/2021 6:15:00 PM 20.15 68.27 0.662 7.91 278.9 9.79
8/14/2021 6:30:00 PM 20.11 68.198 0.662 7.91 279.2 9.68
8/14/2021 6:45:00 PM 20.09 68.162 0.663 7.91 280.3 9.59
8/14/2021 7:00:00 PM 20.05 68.09 0.663 7.9 280.3 9.48
8/14/2021 7:15:00 PM 20.01 68.018 0.664 7.89 279.9 9.34
8/14/2021 7:30:00 PM 19.97 67.946 0.664 7.88 280.4 9.19
8/14/2021 7:45:00 PM 19.93 67.874 0.664 7.88 281.6 9.06
8/14/2021 8:00:00 PM 19.88 67.784 0.664 7.87 281.4 8.93
8/14/2021 8:15:00 PM 19.83 67.694 0.664 7.85 282.8 8.78
8/14/2021 8:30:00 PM 19.78 67.604 0.664 7.84 283.3 8.67
8/14/2021 8:45:00 PM 19.74 67.532 0.663 7.84 6.27 8.56
8/14/2021 9:00:00 PM 19.68 67.424 0.663 7.83 5.7 8.49
8/14/2021 9:15:00 PM 19.63 67.334 0.663 7.82 4.97 8.41
8/14/2021 9:30:00 PM 19.59 67.262 0.662 7.81 6 8.34
8/14/2021 9:45:00 PM 19.53 67.154 0.662 7.81 6.22 8.29
8/14/2021 10:00:00 PM 19.48 67.064 0.662 7.8 4.57 8.24
8/14/2021 10:15:00 PM 19.43 66.974 0.662 7.8 4.73 8.19
8/14/2021 10:30:00 PM 19.39 66.902 0.661 7.79 7.42 8.16
8/14/2021 10:45:00 PM 19.35 66.83 0.661 7.79 4.84 8.12
8/14/2021 11:00:00 PM 19.32 66.776 0.661 7.79 7.89 8.09
8/14/2021 11:15:00 PM 19.29 66.722 0.661 7.78 6.05 8.06
8/14/2021 11:30:00 PM 19.26 66.668 0.661 7.78 8.41 8.03
8/14/2021 11:45:00 PM 19.23 66.614 0.661 7.78 39.87 8.01
8/15/2021 12:00:00 AM 19.2 66.56 0.66 7.78 6.76 7.98
8/15/2021 12:15:00 AM 19.17 66.506 0.66 7.78 6.92 7.96
8/15/2021 12:30:00 AM 19.13 66.434 0.66 7.78 10.13 7.94
8/15/2021 12:45:00 AM 19.1 66.38 0.66 7.78 10.07 7.92
8/15/2021 1:00:00 AM 19.07 66.326 0.661 7.77 9.92 7.9
8/15/2021 1:15:00 AM 19.04 66.272 0.661 7.76 24.9 7.88
8/15/2021 1:30:00 AM 19 66.2 0.661 7.76 7.38 7.87
8/15/2021 1:45:00 AM 18.98 66.164 0.661 7.76 7.55 7.86
8/15/2021 2:00:00 AM 18.95 66.11 0.662 7.76 9.66 7.84
8/15/2021 2:15:00 AM 18.93 66.074 0.662 7.76 8.32 7.83
8/15/2021 2:30:00 AM 18.9 66.02 0.662 7.76 8.32 7.83
8/15/2021 2:45:00 AM 18.88 65.984 0.663 7.76 8.02 7.82
8/15/2021 3:00:00 AM 18.85 65.93 0.663 7.76 14 7.82
8/15/2021 3:15:00 AM 18.83 65.894 0.663 7.76 7.33 7.82
8/15/2021 3:30:00 AM 18.8 65.84 0.663 7.76 7.18 7.82
8/15/2021 3:45:00 AM 18.77 65.786 0.663 7.76 9.84 7.81
8/15/2021 4:00:00 AM 18.73 65.714 0.664 7.76 7.96 7.8
8/15/2021 4:15:00 AM 18.7 65.66 0.664 7.76 7.2 7.79
8/15/2021 4:30:00 AM 18.67 65.606 0.664 7.76 9.07 7.79
8/15/2021 4:45:00 AM 18.64 65.552 0.664 7.76 8.43 7.78
8/15/2021 5:00:00 AM 18.61 65.498 0.665 7.76 11.11 7.8
8/15/2021 5:15:00 AM 18.58 65.444 0.665 7.76 7.52 7.8
8/15/2021 5:30:00 AM 18.55 65.39 0.665 7.76 10.67 7.8
8/15/2021 5:45:00 AM 18.51 65.318 0.665 7.76 7 7.79
8/15/2021 6:00:00 AM 18.48 65.264 0.665 7.76 6.79 7.79
8/15/2021 6:15:00 AM 18.44 65.192 0.665 7.76 10.86 7.79
8/15/2021 6:30:00 AM 18.39 65.102 0.665 7.76 7.02 7.8
8/15/2021 6:45:00 AM 18.35 65.03 0.666 7.76 9.08 7.8
8/15/2021 7:00:00 AM 18.32 64.976 0.666 7.76 7.04 7.84
8/15/2021 7:15:00 AM 18.29 64.922 0.666 7.76 3.48 7.89
8/15/2021 7:30:00 AM 18.26 64.868 0.666 7.77 4.88 7.93
8/15/2021 7:45:00 AM 18.24 64.832 0.666 7.77 7.38 8
8/15/2021 8:00:00 AM 18.23 64.814 0.666 7.77 6.44 8.06
8/15/2021 8:15:00 AM 18.22 64.796 0.666 7.78 3.72 8.12
8/15/2021 8:30:00 AM 18.22 64.796 0.666 7.79 3.48 8.23
8/15/2021 8:45:00 AM 18.25 64.85 0.666 7.8 3.27 8.38
8/15/2021 9:00:00 AM 18.29 64.922 0.666 7.81 2.77 8.57
8/15/2021 9:15:00 AM 18.33 64.994 0.666 7.82 2.05 8.7
8/15/2021 9:30:00 AM 18.36 65.048 0.666 7.83 5.89 8.82
8/15/2021 9:45:00 AM 18.39 65.102 0.665 7.84 1.97 8.95
8/15/2021 10:00:00 AM 18.4 65.12 0.665 7.85 2 9.07
8/15/2021 10:15:00 AM 18.44 65.192 0.665 7.86 1.65 9.22
8/15/2021 10:30:00 AM 18.48 65.264 0.664 7.88 1.71 9.38
8/15/2021 10:45:00 AM 18.54 65.372 0.664 7.88 2.72 9.53
8/15/2021 11:00:00 AM 18.6 65.48 0.664 7.9 3.49 9.71
8/15/2021 11:15:00 AM 18.67 65.606 0.663 7.91 2.59 9.87
8/15/2021 11:30:00 AM 18.71 65.67799 0.663 7.92 2 9.98
8/15/2021 11:45:00 AM 18.78 65.804 0.663 7.93 2.46 10.1
8/15/2021 12:00:00 PM 18.91 66.038 0.663 7.95 2.29 10.26
8/15/2021 12:15:00 PM 19.02 66.236 0.664 7.96 4.38 10.41
8/15/2021 12:30:00 PM 19.14 66.452 0.665 7.97 2.11 10.55
8/15/2021 12:45:00 PM 19.25 66.65 0.667 7.98 2.55 10.71
8/15/2021 1:00:00 PM 19.39 66.902 0.668 7.99 2.14 10.83
8/15/2021 1:15:00 PM 19.52 67.136 0.668 8 9.56 10.93
8/15/2021 1:30:00 PM 19.65 67.37 0.668 8.01 2.12 11.03
8/15/2021 1:45:00 PM 19.73 67.514 0.668 8.02 1.94 11.11
8/15/2021 2:00:00 PM 19.83 67.694 0.668 8.03 3.72 11.21
8/15/2021 2:15:00 PM 19.9 67.82 0.667 8.04 1.97 11.28
8/15/2021 2:30:00 PM 19.99 67.982 0.666 8.04 2.13 11.34
8/15/2021 2:45:00 PM 20.02 68.036 0.666 8.05 2.44 11.37
8/15/2021 3:00:00 PM 20.08 68.144 0.666 8.05 4.35 11.41
8/15/2021 3:15:00 PM 20.12 68.216 0.666 8.05 2.65 11.4
8/15/2021 3:30:00 PM 20.19 68.342 0.666 8.05 2.97 11.42
8/15/2021 3:45:00 PM 20.25 68.45 0.666 8.05 2.84 11.38
8/15/2021 4:00:00 PM 20.25 68.45 0.666 8.05 3.3 11.3
8/15/2021 4:15:00 PM 20.22 68.396 0.666 8.05 2.21 11.2
8/15/2021 4:30:00 PM 20.18 68.324 0.666 8.04 2.21 11.1
8/15/2021 4:45:00 PM 20.12 68.216 0.667 8.03 2.72 10.97
8/15/2021 5:00:00 PM 20.09 68.162 0.667 8.03 2.18 10.88
8/15/2021 5:15:00 PM 20.02 68.036 0.668 8.02 2.65 10.77
8/15/2021 5:30:00 PM 19.93 67.874 0.668 8.02 2.2 10.63
8/15/2021 5:45:00 PM 19.83 67.694 0.668 8.01 3.09 10.49
8/15/2021 6:00:00 PM 19.72 67.496 0.669 8 1.89 10.3
8/15/2021 6:15:00 PM 19.61 67.298 0.669 7.99 2.43 10.1
8/15/2021 6:30:00 PM 19.52 67.136 0.67 7.98 2.42 9.98
8/15/2021 6:45:00 PM 19.45 67.01 0.67 7.97 3.09 9.86
8/15/2021 7:00:00 PM 19.4 66.92 0.67 7.96 2.95 9.72
8/15/2021 7:15:00 PM 19.37 66.866 0.67 7.95 3.35 9.55
8/15/2021 7:30:00 PM 19.34 66.812 0.671 7.94 3.21 9.44
8/15/2021 7:45:00 PM 19.32 66.776 0.671 7.93 2.91 9.31
8/15/2021 8:00:00 PM 19.3 66.74 0.671 7.93 4.25 9.16
8/15/2021 8:15:00 PM 19.27 66.686 0.671 7.92 5.37 9.01
8/15/2021 8:30:00 PM 19.24 66.632 0.671 7.9 5.8 8.87
8/15/2021 8:45:00 PM 19.21 66.578 0.671 7.89 3.86 8.74
8/15/2021 9:00:00 PM 19.17 66.506 0.671 7.89 3.74 8.63
8/15/2021 9:15:00 PM 19.13 66.434 0.67 7.88 5.54 8.52
8/15/2021 9:30:00 PM 19.09 66.362 0.612 7.87 4.49 8.42
8/15/2021 9:45:00 PM 19.06 66.308 0.67 7.86 5.6 8.35
8/15/2021 10:00:00 PM 19.02 66.236 0.669 7.85 4.91 8.28
8/15/2021 10:15:00 PM 18.98 66.164 0.669 7.84 8.3 8.22
8/15/2021 10:30:00 PM 18.94 66.092 0.669 7.83 5.01 8.15
8/15/2021 10:45:00 PM 18.91 66.038 0.669 7.83 6.77 8.11
8/15/2021 11:00:00 PM 18.87 65.966 0.669 7.82 8.58 8.07
8/15/2021 11:15:00 PM 18.84 65.912 0.669 7.82 9.71 8.03
8/15/2021 11:30:00 PM 18.81 65.858 0.669 7.82 7.79 7.99
8/15/2021 11:45:00 PM 18.78 65.804 0.665 7.81 7.68 7.97
8/16/2021 12:00:00 AM 18.76 65.768 0.629 7.81 6.54 7.92
8/16/2021 12:15:00 AM 18.73 65.714 0.648 7.8 5.62 7.89
8/16/2021 12:30:00 AM 18.71 65.67799 0.662 7.8 6.77 7.87
8/16/2021 12:45:00 AM 18.69 65.642 0.671 7.79 7.95 7.84
8/16/2021 1:00:00 AM 18.66 65.588 0.671 7.79 6.6 7.81
8/16/2021 1:15:00 AM 18.64 65.552 0.671 7.79 9.54 7.77
8/16/2021 1:30:00 AM 18.61 65.498 0.671 7.79 8.22 7.76
8/16/2021 1:45:00 AM 18.58 65.444 0.672 7.78 13.01 7.73
8/16/2021 2:00:00 AM 18.56 65.408 0.672 7.77 7.24 7.72
8/16/2021 2:15:00 AM 18.53 65.354 0.672 7.77 8.43 7.69
8/16/2021 2:30:00 AM 18.5 65.3 0.673 7.77 6.45 7.69
8/16/2021 2:45:00 AM 18.47 65.246 0.673 7.77 5.46 7.66
8/16/2021 3:00:00 AM 18.45 65.21 0.67 7.76 6.82 7.66
8/16/2021 3:15:00 AM 18.42 65.156 0.673 7.76 7.32 7.65
8/16/2021 3:30:00 AM 18.39 65.102 0.673 7.76 8.95 7.64
8/16/2021 3:45:00 AM 18.37 65.066 0.673 7.76 8.94 7.64
8/16/2021 4:00:00 AM 18.34 65.012 0.673 7.75 7.01 7.63
8/16/2021 4:15:00 AM 18.31 64.958 0.673 7.76 7.4 7.62
8/16/2021 4:30:00 AM 18.29 64.922 0.673 7.76 6.61 7.61
8/16/2021 4:45:00 AM 18.26 64.868 0.673 7.75 8.16 7.61
8/16/2021 5:00:00 AM 18.24 64.832 0.672 7.75 7.16 7.6
8/16/2021 5:15:00 AM 18.21 64.778 0.673 7.75 13.61 7.6
8/16/2021 5:30:00 AM 18.19 64.742 0.674 7.75 7.02 7.6
8/16/2021 5:45:00 AM 18.16 64.688 0.674 7.74 9.38 7.59
8/16/2021 6:00:00 AM 18.14 64.652 0.674 7.74 9.46 7.59
8/16/2021 6:15:00 AM 18.11 64.598 0.674 7.74 7.81 7.58
8/16/2021 6:30:00 AM 18.09 64.562 0.674 7.74 5.54 7.59
8/16/2021 6:45:00 AM 18.07 64.526 0.674 7.73 7.04 7.6
8/16/2021 7:00:00 AM 18.05 64.49 0.674 7.74 6.86 7.61
8/16/2021 7:15:00 AM 18.02 64.436 0.674 7.73 6.47 7.65
8/16/2021 7:30:00 AM 18 64.4 0.674 7.74 6.41 7.68
8/16/2021 7:45:00 AM 17.98 64.364 0.661 7.74 5.52 7.72
8/16/2021 8:00:00 AM 17.97 64.346 0.673 7.74 5.34 7.79
8/16/2021 8:15:00 AM 17.98 64.364 0.672 7.75 4.76 7.9
8/16/2021 8:30:00 AM 18.03 64.454 0.669 7.76 4.16 8.06
8/16/2021 8:45:00 AM 18.08 64.544 0.666 7.77 6.01 8.3
8/16/2021 9:00:00 AM 18.15 64.67 0.665 7.78 3.56 8.58
8/16/2021 9:15:00 AM 18.22 64.796 0.663 7.8 3.32 8.84
8/16/2021 9:30:00 AM 18.26 64.868 0.662 7.81 2.59 9
8/16/2021 9:45:00 AM 18.3 64.94 0.662 7.82 2.95 9.14
8/16/2021 10:00:00 AM 18.33 64.994 0.661 7.84 3.48 9.25
8/16/2021 10:15:00 AM 18.35 65.03 0.661 7.84 3.37 9.29
8/16/2021 10:30:00 AM 18.37 65.066 0.661 7.85 10.44 9.33
8/16/2021 10:45:00 AM 18.4 65.12 0.66 7.86 3.81 9.43
8/16/2021 11:00:00 AM 18.48 65.264 0.66 7.85 2.45 9.58
8/16/2021 11:15:00 AM 18.62 65.516 0.66 7.88 2.81 9.78
8/16/2021 11:30:00 AM 18.75 65.75 0.642 7.9 2.96 9.95
8/16/2021 11:45:00 AM 18.83 65.894 0.634 7.91 3.2 10.05
8/16/2021 12:00:00 PM 18.93 66.074 0.639 7.92 2.28 10.19
8/16/2021 12:15:00 PM 19.01 66.218 0.638 7.93 2 10.29
8/16/2021 12:30:00 PM 19.05 66.29 0.658 7.94 2.61 10.37
8/16/2021 12:45:00 PM 19.08 66.344 0.658 7.95 2.18 10.42
8/16/2021 1:00:00 PM 19.14 66.452 0.657 7.96 2.5 10.54
8/16/2021 1:15:00 PM 19.22 66.596 0.657 7.97 2.11 10.63
8/16/2021 1:30:00 PM 19.28 66.704 0.657 7.98 3.08 10.74
8/16/2021 1:45:00 PM 19.28 66.704 0.657 7.99 2.36 10.73
8/16/2021 2:00:00 PM 19.28 66.704 0.657 7.99 4.58 10.69
8/16/2021 2:15:00 PM 19.28 66.704 0.656 7.98 2.1 10.64
8/16/2021 2:30:00 PM 19.25 66.65 0.65 7.98 2.8 10.59
8/16/2021 2:45:00 PM 19.2 66.56 0.656 7.98 1.9 10.51
8/16/2021 3:00:00 PM 19.15 66.47 0.656 7.97 2.61 10.42
8/16/2021 3:15:00 PM 19.11 66.398 0.656 7.97 2.06 10.34
8/16/2021 3:30:00 PM 19.08 66.344 0.656 7.97 2.73 10.25
8/16/2021 3:45:00 PM 19.09 66.362 0.656 7.97 3.46 10.25
8/16/2021 4:00:00 PM 19.12 66.416 0.656 7.97 4.13 10.28
8/16/2021 4:15:00 PM 19.13 66.434 0.656 7.98 8.74 10.28
8/16/2021 4:30:00 PM 19.14 66.452 0.655 7.98 3.81 10.24
8/16/2021 4:45:00 PM 19.17 66.506 0.655 7.98 3.19 10.26
8/16/2021 5:00:00 PM 19.18 66.524 0.655 7.98 4.55 10.22
8/16/2021 5:15:00 PM 19.18 66.524 0.655 7.97 3.27 10.17
8/16/2021 5:30:00 PM 19.18 66.524 0.655 7.97 2.95 10.12
8/16/2021 5:45:00 PM 19.17 66.506 0.656 7.97 2.89 10.06
8/16/2021 6:00:00 PM 19.15 66.47 0.656 7.97 2.7 9.92
8/16/2021 6:15:00 PM 19.12 66.416 0.656 7.95 2.53 9.79
8/16/2021 6:30:00 PM 19.1 66.38 0.646 7.95 3.99 9.68
8/16/2021 6:45:00 PM 19.06 66.308 0.657 7.94 2.52 9.51
8/16/2021 7:00:00 PM 19.03 66.254 0.657 7.93 2.44 9.38
8/16/2021 7:15:00 PM 19 66.2 0.657 7.92 2.32 9.25
8/16/2021 7:30:00 PM 18.97 66.146 0.657 7.91 3.89 9.14
8/16/2021 7:45:00 PM 18.94 66.092 0.656 7.9 3.93 9.03
8/16/2021 8:00:00 PM 18.92 66.056 0.658 7.89 3.19 8.92
8/16/2021 8:15:00 PM 18.9 66.02 0.658 7.88 3.37 8.83
8/16/2021 8:30:00 PM 18.88 65.984 0.658 7.88 6.37 8.74
8/16/2021 8:45:00 PM 18.87 65.966 0.658 7.87 7.56 8.67
8/16/2021 9:00:00 PM 18.85 65.93 0.658 7.87 6.72 8.6
8/16/2021 9:15:00 PM 18.82 65.876 0.658 7.86 6.25 8.55
8/16/2021 9:30:00 PM 18.8 65.84 0.658 7.86 4.65 8.5
8/16/2021 9:45:00 PM 18.78 65.804 0.658 7.85 7.71 8.44
8/16/2021 10:00:00 PM 18.76 65.768 0.658 7.85 5.61 8.42
8/16/2021 10:15:00 PM 18.75 65.75 0.658 7.85 6.27 8.38
8/16/2021 10:30:00 PM 18.73 65.714 0.658 7.84 7.03 8.33
8/16/2021 10:45:00 PM 18.71 65.67799 0.659 7.83 6.85 8.29
8/16/2021 11:00:00 PM 18.69 65.642 0.659 7.83 7.33 8.26
8/16/2021 11:15:00 PM 18.68 65.624 0.659 7.83 6.96 8.23
8/16/2021 11:30:00 PM 18.66 65.588 0.659 7.82 8.66 8.2
8/16/2021 11:45:00 PM 18.64 65.552 0.66 7.82 6.1 8.18
8/17/2021 12:00:00 AM 18.62 65.516 0.66 7.82 6.83 8.16
8/17/2021 12:15:00 AM 18.6 65.48 0.66 7.81 7.72 8.13
8/17/2021 12:30:00 AM 18.59 65.462 0.66 7.81 7.51 8.11
8/17/2021 12:45:00 AM 18.57 65.426 0.66 7.81 7.16 8.09
8/17/2021 1:00:00 AM 18.56 65.408 0.66 7.81 8.02 8.06
8/17/2021 1:15:00 AM 18.54 65.372 0.66 7.8 6.53 8.05
8/17/2021 1:30:00 AM 18.52 65.336 0.66 7.8 7.41 8.02
8/17/2021 1:45:00 AM 18.5 65.3 0.66 7.79 6.3 8.01
8/17/2021 2:00:00 AM 18.49 65.282 0.66 7.8 7.57 7.99
8/17/2021 2:15:00 AM 18.47 65.246 0.66 7.79 8.69 7.97
8/17/2021 2:30:00 AM 18.46 65.228 0.66 7.79 7.97 7.95
8/17/2021 2:45:00 AM 18.44 65.192 0.661 7.78 10.78 7.94
8/17/2021 3:00:00 AM 18.43 65.174 0.661 7.78 7.55 7.91
8/17/2021 3:15:00 AM 18.42 65.156 0.661 7.78 14.2 7.9
8/17/2021 3:30:00 AM 18.41 65.138 0.661 7.78 8.34 7.89
8/17/2021 3:45:00 AM 18.39 65.102 0.661 7.78 7.34 7.88
8/17/2021 4:00:00 AM 18.38 65.084 0.661 7.78 12.21 7.87
8/17/2021 4:15:00 AM 18.37 65.066 0.662 7.78 7.7 7.87
8/17/2021 4:30:00 AM 18.36 65.048 0.661 7.78 2274 7.86
8/17/2021 4:45:00 AM 18.34 65.012 0.661 7.78 8.25 7.86
8/17/2021 5:00:00 AM 18.33 64.994 0.662 7.76 14.54 7.87
8/17/2021 5:15:00 AM 18.31 64.958 0.662 7.77 8.08 7.86
8/17/2021 5:30:00 AM 18.3 64.94 0.662 7.76 12.51 7.86
8/17/2021 5:45:00 AM 18.28 64.904 0.662 7.77 8.75 7.85
8/17/2021 6:00:00 AM 18.27 64.886 0.662 7.76 10.31 7.84
8/17/2021 6:15:00 AM 18.26 64.868 0.662 7.76 5.91 7.84
8/17/2021 6:30:00 AM 18.24 64.832 0.662 7.76 7.09 7.85
8/17/2021 6:45:00 AM 18.23 64.814 0.662 7.76 9.61 7.85
8/17/2021 7:00:00 AM 18.22 64.796 0.662 7.76 6.03 7.87
8/17/2021 7:15:00 AM 18.21 64.778 0.662 7.76 6.35 7.88
8/17/2021 7:30:00 AM 18.2 64.76 0.662 7.77 6.63 7.91
8/17/2021 7:45:00 AM 18.2 64.76 0.662 7.77 4.4 7.96
8/17/2021 8:00:00 AM 18.2 64.76 0.662 7.77 5.46 8.02
8/17/2021 8:15:00 AM 18.22 64.796 0.662 7.78 5.51 8.12
8/17/2021 8:30:00 AM 18.24 64.832 0.662 7.79 2.96 8.24
8/17/2021 8:45:00 AM 18.25 64.85 0.662 7.79 3.02 8.32
8/17/2021 9:00:00 AM 18.26 64.868 0.662 7.8 4.55 8.36
8/17/2021 9:15:00 AM 18.28 64.904 0.662 7.8 4.89 8.44
8/17/2021 9:30:00 AM 18.28 64.904 0.662 7.81 6.58 8.5
8/17/2021 9:45:00 AM 18.29 64.922 0.662 7.81 3.25 8.54
8/17/2021 10:00:00 AM 18.32 64.976 0.661 7.82 8.05 8.65
8/17/2021 10:15:00 AM 18.33 64.994 0.661 7.82 2.28 8.68
8/17/2021 10:30:00 AM 18.33 64.994 0.661 7.82 2.32 8.66
8/17/2021 10:45:00 AM 18.33 64.994 0.661 7.82 1.92 8.68
8/17/2021 11:00:00 AM 18.37 65.066 0.661 7.82 2.24 8.78
8/17/2021 11:15:00 AM 18.44 65.192 0.661 7.84 2.01 8.94
8/17/2021 11:30:00 AM 18.53 65.354 0.66 7.86 12.27 9.14
8/17/2021 11:45:00 AM 18.6 65.48 0.66 7.87 1.58 9.28
8/17/2021 12:00:00 PM 18.63 65.534 0.661 7.87 1.93 9.36
8/17/2021 12:15:00 PM 18.64 65.552 0.663 7.88 1.36 9.41
8/17/2021 12:30:00 PM 18.66 65.588 0.665 7.88 1.45 9.49
8/17/2021 12:45:00 PM 18.7 65.66 0.667 7.89 2.45 9.59
8/17/2021 1:00:00 PM 18.73 65.714 0.669 7.9 1.61 9.65
8/17/2021 1:15:00 PM 18.81 65.858 0.67 7.91 1.78 9.77
8/17/2021 1:30:00 PM 18.92 66.056 0.671 7.92 2.03 9.89
8/17/2021 1:45:00 PM 19.13 66.434 0.672 7.94 2.7 10.09
8/17/2021 2:00:00 PM 19.27 66.686 0.672 7.95 2.29 10.22
8/17/2021 2:15:00 PM 19.32 66.776 0.672 7.95 4.66 10.24
8/17/2021 2:30:00 PM 19.4 66.92 0.671 7.95 2.06 10.2
8/17/2021 2:45:00 PM 19.46 67.028 0.67 7.96 2.3 10.23
8/17/2021 3:00:00 PM 19.4 66.92 0.668 7.96 2.33 10.2
8/17/2021 3:15:00 PM 19.35 66.83 0.667 7.96 2.38 10.13
8/17/2021 3:30:00 PM 19.35 66.83 0.666 7.96 3.33 10.24
8/17/2021 3:45:00 PM 19.36 66.848 0.666 7.97 3.1 10.32
8/17/2021 4:00:00 PM 19.35 66.83 0.666 7.98 2.78 10.3
8/17/2021 4:15:00 PM 19.32 66.776 0.665 7.97 3.96 10.23
8/17/2021 4:30:00 PM 19.3 66.74 0.665 7.97 2.44 10.14
8/17/2021 4:45:00 PM 19.28 66.704 0.665 7.97 3 10.15
8/17/2021 5:00:00 PM 19.25 66.65 0.665 7.97 3.18 10.12
8/17/2021 5:15:00 PM 19.22 66.596 0.665 7.97 2.36 10.06
8/17/2021 5:30:00 PM 19.21 66.578 0.665 7.96 2.48 10.03
8/17/2021 5:45:00 PM 19.2 66.56 0.665 7.96 3.15 9.99
8/17/2021 6:00:00 PM 19.2 66.56 0.666 7.96 2.32 9.93
8/17/2021 6:15:00 PM 19.21 66.578 0.666 7.96 3.32 9.84
8/17/2021 6:30:00 PM 19.19 66.542 0.667 7.95 3.21 9.78
8/17/2021 6:45:00 PM 19.18 66.524 0.666 7.95 2.57 9.66
8/17/2021 7:00:00 PM 19.16 66.488 0.666 7.93 1.78 9.5
8/17/2021 7:15:00 PM 19.14 66.452 0.665 7.92 6.38 9.36
8/17/2021 7:30:00 PM 19.11 66.398 0.665 7.91 2.78 9.22
8/17/2021 7:45:00 PM 19.07 66.326 0.664 7.9 3.45 9.06
8/17/2021 8:00:00 PM 19.03 66.254 0.664 7.89 3.83 8.9
8/17/2021 8:15:00 PM 19.01 66.218 0.664 7.87 5.45 8.77
8/17/2021 8:30:00 PM 18.99 66.182 0.664 7.87 5.03 8.63
8/17/2021 8:45:00 PM 18.96 66.128 0.664 7.85 5.37 8.51
8/17/2021 9:00:00 PM 18.94 66.092 0.664 7.84 6.42 8.4
8/17/2021 9:15:00 PM 18.93 66.074 0.664 7.84 5.71 8.32
8/17/2021 9:30:00 PM 18.91 66.038 0.664 7.83 7.88 8.25
8/17/2021 9:45:00 PM 18.89 66.002 0.664 7.82 7.95 8.2
8/17/2021 10:00:00 PM 18.88 65.984 0.664 7.82 6.69 8.14
8/17/2021 10:15:00 PM 18.87 65.966 0.663 7.81 11.06 8.09
8/17/2021 10:30:00 PM 18.87 65.966 0.661 7.8 6.66 8.03
8/17/2021 10:45:00 PM 18.88 65.984 0.658 7.79 8.47 7.96
8/17/2021 11:00:00 PM 18.9 66.02 0.655 7.78 5.76 7.89
8/17/2021 11:15:00 PM 18.92 66.056 0.653 7.77 6.33 7.83
8/17/2021 11:30:00 PM 18.94 66.092 0.651 7.76 7.86 7.77
8/17/2021 11:45:00 PM 18.94 66.092 0.651 7.76 5.61 7.74
8/18/2021 12:00:00 AM 18.93 66.074 0.652 7.75 10.12 7.71
8/18/2021 12:15:00 AM 18.92 66.056 0.654 7.75 24.18 7.7
8/18/2021 12:30:00 AM 18.89 66.002 0.655 7.75 8.8 7.67
8/18/2021 12:45:00 AM 18.86 65.948 0.657 7.75 8.25 7.65
8/18/2021 1:00:00 AM 18.83 65.894 0.659 7.75 8.87 7.66
8/18/2021 1:15:00 AM 18.8 65.84 0.661 7.75 7.47 7.65
8/18/2021 1:30:00 AM 18.78 65.804 0.662 7.75 7.71 7.65
8/18/2021 1:45:00 AM 18.75 65.75 0.664 7.75 8.44 7.64
8/18/2021 2:00:00 AM 18.73 65.714 0.666 7.75 9.4 7.64
8/18/2021 2:15:00 AM 18.7 65.66 0.667 7.75 8.55 7.63
8/18/2021 2:30:00 AM 18.68 65.624 0.669 7.75 6.55 7.63
8/18/2021 2:45:00 AM 18.66 65.588 0.67 7.75 9.07 7.63
8/18/2021 3:00:00 AM 18.65 65.57 0.67 7.75 9 7.63
8/18/2021 3:15:00 AM 18.63 65.534 0.669 7.75 9.07 7.63
8/18/2021 3:30:00 AM 18.62 65.516 0.669 7.75 8.31 7.63
8/18/2021 3:45:00 AM 18.62 65.516 0.667 7.75 10.87 7.64
8/18/2021 4:00:00 AM 18.59 65.462 0.668 7.75 10.02 7.61
8/18/2021 4:15:00 AM 18.57 65.426 0.668 7.75 9.96 7.59
8/18/2021 4:30:00 AM 18.54 65.372 0.669 7.75 8.4 7.57
8/18/2021 4:45:00 AM 18.52 65.336 0.669 7.74 9.48 7.56
8/18/2021 5:00:00 AM 18.5 65.3 0.67 7.75 10.84 7.54
8/18/2021 5:15:00 AM 18.47 65.246 0.671 7.74 10.51 7.54
8/18/2021 5:30:00 AM 18.44 65.192 0.671 7.73 10.63 7.54
8/18/2021 5:45:00 AM 18.42 65.156 0.672 7.72 8.75 7.54
8/18/2021 6:00:00 AM 18.41 65.138 0.671 7.73 9.68 7.55
8/18/2021 6:15:00 AM 18.41 65.138 0.67 7.72 9.08 7.57
8/18/2021 6:30:00 AM 18.4 65.12 0.669 7.73 12.67 7.57
8/18/2021 6:45:00 AM 18.4 65.12 0.668 7.72 9.96 7.57
8/18/2021 7:00:00 AM 18.39 65.102 0.667 7.72 10.8 7.58
8/18/2021 7:15:00 AM 18.38 65.084 0.668 7.72 8.8 7.57
8/18/2021 7:30:00 AM 18.38 65.084 0.668 7.72 9.47 7.57
8/18/2021 7:45:00 AM 18.38 65.084 0.668 7.72 7.08 7.59
8/18/2021 8:00:00 AM 18.38 65.084 0.668 7.72 5.74 7.63
8/18/2021 8:15:00 AM 18.39 65.102 0.667 7.73 5.54 7.68
8/18/2021 8:30:00 AM 18.41 65.138 0.667 7.73 8.28 7.79
8/18/2021 8:45:00 AM 18.43 65.174 0.667 7.73 5.23 7.86
8/18/2021 9:00:00 AM 18.45 65.21 0.666 7.74 5.43 7.95
8/18/2021 9:15:00 AM 18.49 65.282 0.666 7.74 3.61 8.07
8/18/2021 9:30:00 AM 18.53 65.354 0.665 7.75 6.42 8.16
8/18/2021 9:45:00 AM 18.57 65.426 0.665 7.77 3.75 8.26
8/18/2021 10:00:00 AM 18.61 65.498 0.665 7.78 5.85 8.41
8/18/2021 10:15:00 AM 18.65 65.57 0.666 7.79 3.84 8.51
8/18/2021 10:30:00 AM 18.7 65.66 0.666 7.8 3.79 8.63
8/18/2021 10:45:00 AM 18.77 65.786 0.666 7.81 3.31 8.78
8/18/2021 11:00:00 AM 18.85 65.93 0.666 7.82 2.92 8.93
8/18/2021 11:15:00 AM 18.89 66.002 0.666 7.82 4.72 9
8/18/2021 11:30:00 AM 18.93 66.074 0.666 7.83 2.4 9.02
8/18/2021 11:45:00 AM 18.98 66.164 0.665 7.84 1.9 9.08
8/18/2021 12:00:00 PM 19.04 66.272 0.665 7.84 1.77 9.17
8/18/2021 12:15:00 PM 19.15 66.47 0.664 7.85 2.15 9.32
8/18/2021 12:30:00 PM 19.3 66.74 0.663 7.86 2.79 9.5
8/18/2021 12:45:00 PM 19.38 66.884 0.663 7.87 2.65 9.54
8/18/2021 1:00:00 PM 19.45 67.01 0.662 7.88 2.87 9.61
8/18/2021 1:15:00 PM 19.55 67.19 0.663 7.88 4.29 9.71
8/18/2021 1:30:00 PM 19.63 67.334 0.663 7.89 3.51 9.75
8/18/2021 1:45:00 PM 19.65 67.37 0.662 7.9 2.92 9.75
8/18/2021 2:00:00 PM 19.69 67.442 0.661 7.9 2.93 9.74
8/18/2021 2:15:00 PM 19.72 67.496 0.66 7.91 3.82 9.8
8/18/2021 2:30:00 PM 19.71 67.478 0.658 7.91 3.56 9.8
8/18/2021 2:45:00 PM 19.67 67.406 0.656 7.9 6.02 9.71
8/18/2021 3:00:00 PM 19.65 67.37 0.654 7.9 3.99 9.72
8/18/2021 3:15:00 PM 19.63 67.334 0.652 7.89 4.95 9.66
8/18/2021 3:30:00 PM 19.59 67.262 0.65 7.89 5.44 9.56
8/18/2021 3:45:00 PM 19.55 67.19 0.649 7.88 6.09 9.41
8/18/2021 4:00:00 PM 19.5 67.1 0.649 7.86 5.17 9.18
8/18/2021 4:15:00 PM 19.45 67.01 0.649 7.85 6.21 9.04
8/18/2021 4:30:00 PM 19.42 66.956 0.65 7.84 4.66 8.95
8/18/2021 4:45:00 PM 19.42 66.956 0.65 7.85 5.84 9.03
8/18/2021 5:00:00 PM 19.43 66.974 0.652 7.85 4.28 9.13
8/18/2021 5:15:00 PM 19.42 66.956 0.653 7.86 3.68 9.08
8/18/2021 5:30:00 PM 19.41 66.938 0.653 7.85 6.22 9.01
8/18/2021 5:45:00 PM 19.41 66.938 0.653 7.85 5.81 8.94
8/18/2021 6:00:00 PM 19.39 66.902 0.654 7.84 6.17 8.83
8/18/2021 6:15:00 PM 19.36 66.848 0.654 7.84 6.56 8.72
8/18/2021 6:30:00 PM 19.35 66.83 0.654 7.84 8.3 8.63
8/18/2021 6:45:00 PM 19.33 66.794 0.654 7.82 6.73 8.52
8/18/2021 7:00:00 PM 19.32 66.776 0.652 7.83 7.47 8.43
8/18/2021 7:15:00 PM 19.38 66.884 0.643 7.82 9.01 8.37
8/18/2021 7:30:00 PM 19.44 66.992 0.634 7.82 10.19 8.34
8/18/2021 7:45:00 PM 19.47 67.046 0.628 7.82 11.53 8.27
8/18/2021 8:00:00 PM 19.48 67.064 0.625 7.82 13.32 8.18
8/18/2021 8:15:00 PM 19.51 67.118 0.619 7.81 22.04 8.11
8/18/2021 8:30:00 PM 19.5 67.1 0.618 7.8 24.84 8.05
8/18/2021 8:45:00 PM 19.47 67.046 0.619 7.79 19.01 8
8/18/2021 9:00:00 PM 19.45 67.01 0.618 7.79 18.55 7.99
8/18/2021 9:15:00 PM 19.43 66.974 0.616 7.79 17.5 7.95
8/18/2021 9:30:00 PM 19.44 66.992 0.612 7.78 20.95 7.91
8/18/2021 9:45:00 PM 19.44 66.992 0.61 7.77 19.89 7.89
8/18/2021 10:00:00 PM 19.41 66.938 0.613 7.77 21.9 7.85
8/18/2021 10:15:00 PM 19.38 66.884 0.617 7.77 21.95 7.85
8/18/2021 10:30:00 PM 19.33 66.794 0.623 7.77 22.47 7.86
8/18/2021 10:45:00 PM 19.29 66.722 0.627 7.77 26.9 7.84
8/18/2021 11:00:00 PM 19.24 66.632 0.628 7.76 35.11 7.84
8/18/2021 11:15:00 PM 19.2 66.56 0.629 7.75 49.52 7.82
8/18/2021 11:30:00 PM 19.11 66.398 0.632 7.74 61.65 7.81
8/18/2021 11:45:00 PM 19.04 66.272 0.634 7.73 71.23 7.77
8/19/2021 12:00:00 AM 19.06 66.308 0.621 7.72 74.37 7.7
8/19/2021 12:15:00 AM 19.33 66.794 0.572 7.71 110.4 7.59
8/19/2021 12:30:00 AM 19.66 67.388 0.524 7.69 115.6 7.48
8/19/2021 12:45:00 AM 19.88 67.784 0.514 7.66 129.9 7.38
8/19/2021 1:00:00 AM 20.09 68.162 0.527 7.65 149.1 7.26
8/19/2021 1:15:00 AM 20.4 68.72 0.539 7.64 142.7 7.15
8/19/2021 1:30:00 AM 20.8 69.44 0.514 7.62 121.1 6.99
8/19/2021 1:45:00 AM 21.26 70.268 0.447 7.59 159.5 6.78
8/19/2021 2:00:00 AM 21.72 71.096 0.374 7.55 153.1 6.56
8/19/2021 2:15:00 AM 22.1 71.78 0.319 7.51 172.2 6.4
8/19/2021 2:30:00 AM 22.32 72.176 0.278 7.48 160.7 6.29
8/19/2021 2:45:00 AM 22.45 72.41 0.244 7.46 151.3 6.28
8/19/2021 3:00:00 AM 22.51 72.518 0.219 7.48 148 6.31
8/19/2021 3:15:00 AM 22.53 72.554 0.205 7.49 136.1 6.36
8/19/2021 3:30:00 AM 22.52 72.536 0.202 7.51 102 6.4
8/19/2021 3:45:00 AM 22.5 72.5 0.205 7.5 112.7 6.42
8/19/2021 4:00:00 AM 22.46 72.42799 0.212 7.49 99.04 6.44
8/19/2021 4:15:00 AM 22.41 72.338 0.22 7.48 101.5 6.46
8/19/2021 4:30:00 AM 22.35 72.23 0.229 7.47 88.29 6.47
8/19/2021 4:45:00 AM 22.28 72.104 0.24 7.46 73.11 6.5
8/19/2021 5:00:00 AM 22.2 71.96 0.25 7.46 56.96 6.53
8/19/2021 5:15:00 AM 22.11 71.798 0.261 7.45 64.75 6.54
8/19/2021 5:30:00 AM 22.01 71.618 0.272 7.44 68.83 6.58
8/19/2021 5:45:00 AM 21.91 71.438 0.283 7.45 56.48 6.6
8/19/2021 6:00:00 AM 21.8 71.24 0.294 7.45 60.16 6.63
8/19/2021 6:15:00 AM 21.69 71.042 0.306 7.45 56 6.66
8/19/2021 6:30:00 AM 21.57 70.826 0.318 7.45 59.29 6.7
8/19/2021 6:45:00 AM 21.46 70.628 0.329 7.45 51.24 6.73
8/19/2021 7:00:00 AM 21.35 70.43 0.341 7.46 44.61 6.77
8/19/2021 7:15:00 AM 21.25 70.25 0.353 7.46 47.04 6.8
8/19/2021 7:30:00 AM 21.15 70.07 0.365 7.47 53.61 6.84
8/19/2021 7:45:00 AM 21.07 69.926 0.376 7.47 48.16 6.88
8/19/2021 8:00:00 AM 20.99 69.782 0.387 7.48 35.82 6.93
8/19/2021 8:15:00 AM 20.92 69.656 0.397 7.49 30.9 6.97
8/19/2021 8:30:00 AM 20.86 69.548 0.406 7.49 37.64 7.03
8/19/2021 8:45:00 AM 20.81 69.458 0.414 7.5 41.65 7.08
8/19/2021 9:00:00 AM 20.79 69.422 0.422 7.51 29.62 7.14
8/19/2021 9:15:00 AM 20.79 69.422 0.429 7.52 42.5 7.23
8/19/2021 9:30:00 AM 20.8 69.44 0.434 7.53 35.42 7.31
8/19/2021 9:45:00 AM 20.82 69.476 0.44 7.54 31.38 7.4
8/19/2021 10:00:00 AM 20.85 69.53 0.446 7.56 31.86 7.5
8/19/2021 10:15:00 AM 20.89 69.602 0.452 7.58 29.78 7.59
8/19/2021 10:30:00 AM 20.94 69.692 0.458 7.59 22.76 7.7
8/19/2021 10:45:00 AM 20.98 69.764 0.464 7.61 24.9 7.78
8/19/2021 11:00:00 AM 21.04 69.872 0.47 7.62 23.76 7.88
8/19/2021 11:15:00 AM 21.05 69.89 0.477 7.63 20.89 7.95
8/19/2021 11:30:00 AM 21.01 69.818 0.482 7.64 23.59 7.98
8/19/2021 11:45:00 AM 20.99 69.782 0.488 7.64 19.85 8.02
8/19/2021 12:00:00 PM 20.94 69.692 0.493 7.65 20.86 8.06
8/19/2021 12:15:00 PM 20.91 69.638 0.499 7.66 16.6 8.13
8/19/2021 12:30:00 PM 20.89 69.602 0.504 7.67 17.66 8.2
8/19/2021 12:45:00 PM 20.93 69.674 0.507 7.68 15.56 8.26
8/19/2021 1:00:00 PM 21.03 69.854 0.511 7.69 14.92 8.38
8/19/2021 1:15:00 PM 21.02 69.836 0.514 7.7 15.05 8.39
8/19/2021 1:30:00 PM 20.98 69.764 0.516 7.7 13.1 8.4
8/19/2021 1:45:00 PM 21.13 70.034 0.518 7.71 14.59 8.54
8/19/2021 2:00:00 PM 21.19 70.142 0.52 7.73 14.81 8.61
8/19/2021 2:15:00 PM 21.18 70.124 0.521 7.73 13.65 8.64
8/19/2021 2:30:00 PM 21.19 70.142 0.523 7.73 14.63 8.65
8/19/2021 2:45:00 PM 21.16 70.088 0.524 7.74 12.51 8.62
8/19/2021 3:00:00 PM 21.19 70.142 0.525 7.74 13.43 8.67
8/19/2021 3:15:00 PM 21.21 70.17799 0.526 7.74 12.48 8.68
8/19/2021 3:30:00 PM 21.19 70.142 0.527 7.75 12.02 8.67
8/19/2021 3:45:00 PM 21.3 70.34 0.529 7.76 11.87 8.74
8/19/2021 4:00:00 PM 21.27 70.286 0.529 7.76 13.52 8.73
8/19/2021 4:15:00 PM 21.22 70.196 0.531 7.75 15.55 8.66
8/19/2021 4:30:00 PM 21.22 70.196 0.531 7.75 13.23 8.62
8/19/2021 4:45:00 PM 21.2 70.16 0.532 7.75 11.01 8.6
8/19/2021 5:00:00 PM 21.17 70.106 0.534 7.75 11.98 8.56
8/19/2021 5:15:00 PM 21.18 70.124 0.535 7.76 12.76 8.56
8/19/2021 5:30:00 PM 21.19 70.142 0.537 7.76 12.5 8.54
8/19/2021 5:45:00 PM 21.18 70.124 0.539 7.76 13.32 8.5
8/19/2021 6:00:00 PM 21.1 69.98 0.54 7.76 13 8.41
8/19/2021 6:15:00 PM 21.02 69.836 0.542 7.75 12.14 8.31
8/19/2021 6:30:00 PM 20.96 69.728 0.543 7.74 10.69 8.21
8/19/2021 6:45:00 PM 20.87 69.566 0.544 7.73 14.46 8.06
8/19/2021 7:00:00 PM 20.8 69.44 0.541 7.72 12.33 7.99
8/19/2021 7:15:00 PM 20.75 69.35 0.548 7.71 11.83 7.93
8/19/2021 7:30:00 PM 20.71 69.278 0.549 7.71 13.04 7.89
8/19/2021 7:45:00 PM 20.67 69.206 0.551 7.71 12.2 7.85
8/19/2021 8:00:00 PM 20.63 69.134 0.552 7.7 14.28 7.81
8/19/2021 8:15:00 PM 20.59 69.062 0.553 7.7 13.52 7.79
8/19/2021 8:30:00 PM 20.55 68.99 0.554 7.7 15.78 7.75
8/19/2021 8:45:00 PM 20.5 68.9 0.555 7.7 14.57 7.71
8/19/2021 9:00:00 PM 20.46 68.828 0.556 7.7 13.99 7.67
8/19/2021 9:15:00 PM 20.43 68.774 0.558 7.7 12.75 7.65
8/19/2021 9:30:00 PM 20.4 68.72 0.56 7.69 17.9 7.62
8/19/2021 9:45:00 PM 20.37 68.666 0.562 7.69 16.58 7.59
8/19/2021 10:00:00 PM 20.34 68.612 0.563 7.69 17.99 7.57
8/19/2021 10:15:00 PM 20.31 68.558 0.565 7.68 18.41 7.54
8/19/2021 10:30:00 PM 20.27 68.486 0.566 7.68 18.59 7.53
8/19/2021 10:45:00 PM 20.23 68.414 0.568 7.68 20.88 7.51
8/19/2021 11:00:00 PM 20.2 68.36 0.569 7.68 21.12 7.49
8/19/2021 11:15:00 PM 20.17 68.306 0.571 7.68 18.76 7.5
8/19/2021 11:30:00 PM 20.14 68.252 0.572 7.67 16.99 7.48
8/19/2021 11:45:00 PM 20.12 68.216 0.574 7.67 19.98 7.47
8/20/2021 12:00:00 AM 20.09 68.162 0.575 7.67 20.58 7.46
8/20/2021 12:15:00 AM 20.07 68.126 0.576 7.68 16.79 7.45
8/20/2021 12:30:00 AM 20.06 68.108 0.576 7.67 16.8 7.42
8/20/2021 12:45:00 AM 20.07 68.126 0.574 7.67 20.09 7.39
8/20/2021 1:00:00 AM 20.07 68.126 0.572 7.65 15.81 7.35
8/20/2021 1:15:00 AM 20.08 68.144 0.571 7.65 17.41 7.32
8/20/2021 1:30:00 AM 20.07 68.126 0.572 7.65 17.94 7.31
8/20/2021 1:45:00 AM 20.04 68.07201 0.574 7.64 17.62 7.3
8/20/2021 2:00:00 AM 20.01 68.018 0.575 7.65 25.33 7.31
8/20/2021 2:15:00 AM 19.97 67.946 0.578 7.64 15.43 7.32
8/20/2021 2:30:00 AM 19.93 67.874 0.581 7.65 16.47 7.32
8/20/2021 2:45:00 AM 19.89 67.802 0.583 7.65 17.43 7.33
8/20/2021 3:00:00 AM 19.85 67.73 0.585 7.66 14.9 7.35
8/20/2021 3:15:00 AM 19.8 67.64 0.587 7.65 13.22 7.35
8/20/2021 3:30:00 AM 19.77 67.586 0.588 7.65 16.86 7.35
8/20/2021 3:45:00 AM 19.74 67.532 0.588 7.65 19.87 7.35
8/20/2021 4:00:00 AM 19.71 67.478 0.589 7.65 16.52 7.34
8/20/2021 4:15:00 AM 19.69 67.442 0.59 7.64 14.03 7.36
8/20/2021 4:30:00 AM 19.66 67.388 0.591 7.64 22.3 7.35
8/20/2021 4:45:00 AM 19.63 67.334 0.592 7.64 18.96 7.36
8/20/2021 5:00:00 AM 19.6 67.28 0.593 7.64 23.3 7.37
8/20/2021 5:15:00 AM 19.57 67.226 0.593 7.64 14.84 7.37
8/20/2021 5:30:00 AM 19.54 67.172 0.592 7.64 15.73 7.37
8/20/2021 5:45:00 AM 19.52 67.136 0.591 7.64 15.46 7.37
8/20/2021 6:00:00 AM 19.49 67.082 0.591 7.63 15.63 7.35
8/20/2021 6:15:00 AM 19.47 67.046 0.591 7.63 14.09 7.35
8/20/2021 6:30:00 AM 19.45 67.01 0.592 7.63 20.29 7.37
8/20/2021 6:45:00 AM 19.42 66.956 0.594 7.64 15.49 7.38
8/20/2021 7:00:00 AM 19.39 66.902 0.597 7.64 13.75 7.4
8/20/2021 7:15:00 AM 19.36 66.848 0.599 7.64 12.78 7.43
8/20/2021 7:30:00 AM 19.34 66.812 0.602 7.64 11.58 7.47
8/20/2021 7:45:00 AM 19.32 66.776 0.604 7.65 15.22 7.53
8/20/2021 8:00:00 AM 19.31 66.758 0.606 7.66 8.97 7.58
8/20/2021 8:15:00 AM 19.3 66.74 0.608 7.66 6.4 7.6
8/20/2021 8:30:00 AM 19.3 66.74 0.61 7.66 8.09 7.6
8/20/2021 8:45:00 AM 19.29 66.722 0.61 7.66 7.37 7.63
8/20/2021 9:00:00 AM 19.28 66.704 0.612 7.66 8.89 7.63
8/20/2021 9:15:00 AM 19.27 66.686 0.613 7.67 7.67 7.66
8/20/2021 9:30:00 AM 19.25 66.65 0.615 7.67 7.38 7.7
8/20/2021 9:45:00 AM 19.24 66.632 0.616 7.67 4.65 7.76
8/20/2021 10:00:00 AM 19.23 66.614 0.617 7.68 7.83 7.84
8/20/2021 10:15:00 AM 19.22 66.596 0.618 7.7 6.14 7.94
8/20/2021 10:30:00 AM 19.23 66.614 0.619 7.71 3.06 8.06
8/20/2021 10:45:00 AM 19.24 66.632 0.62 7.73 18.66 8.19
8/20/2021 11:00:00 AM 19.26 66.668 0.621 7.73 3.7 8.33
8/20/2021 11:15:00 AM 19.28 66.704 0.622 7.74 3.53 8.45
8/20/2021 11:30:00 AM 19.31 66.758 0.624 7.75 3.8 8.56
8/20/2021 11:45:00 AM 19.32 66.776 0.625 7.76 3.69 8.62
8/20/2021 12:00:00 PM 19.34 66.812 0.626 7.77 2.83 8.71
8/20/2021 12:15:00 PM 19.37 66.866 0.627 7.78 3.52 8.8
8/20/2021 12:30:00 PM 19.38 66.884 0.628 7.78 4.69 8.85
8/20/2021 12:45:00 PM 19.38 66.884 0.629 7.79 3.94 8.88
8/20/2021 1:00:00 PM 19.38 66.884 0.63 7.78 3.06 8.91
8/20/2021 1:15:00 PM 19.4 66.92 0.631 7.79 3.1 8.98
8/20/2021 1:30:00 PM 19.43 66.974 0.631 7.8 5.9 9.05
8/20/2021 1:45:00 PM 19.47 67.046 0.632 7.81 5.11 9.15
8/20/2021 2:00:00 PM 19.5 67.1 0.632 7.82 3.31 9.24
8/20/2021 2:15:00 PM 19.52 67.136 0.633 7.83 2.64 9.28
8/20/2021 2:30:00 PM 19.56 67.208 0.633 7.84 4 9.38
8/20/2021 2:45:00 PM 19.59 67.262 0.634 7.84 4.34 9.44
8/20/2021 3:00:00 PM 19.58 67.244 0.634 7.85 2.7 9.45
8/20/2021 3:15:00 PM 19.64 67.352 0.634 7.85 3.01 9.54
8/20/2021 3:30:00 PM 19.72 67.496 0.635 7.87 3.57 9.64
8/20/2021 3:45:00 PM 19.8 67.64 0.635 7.88 2.87 9.7
8/20/2021 4:00:00 PM 19.83 67.694 0.635 7.88 3.18 9.75
8/20/2021 4:15:00 PM 19.83 67.694 0.635 7.89 4.19 9.71
8/20/2021 4:30:00 PM 19.88 67.784 0.636 7.88 4.46 9.68
8/20/2021 4:45:00 PM 19.88 67.784 0.636 7.88 2.54 9.65
8/20/2021 5:00:00 PM 19.82 67.676 0.636 7.88 3.27 9.54
8/20/2021 5:15:00 PM 19.81 67.658 0.636 7.88 4.81 9.52
8/20/2021 5:30:00 PM 19.78 67.604 0.637 7.88 3.33 9.48
8/20/2021 5:45:00 PM 19.71 67.478 0.636 7.88 7.77 9.39
8/20/2021 6:00:00 PM 19.66 67.388 0.637 7.88 4.24 9.35
8/20/2021 6:15:00 PM 19.59 67.262 0.637 7.88 5.54 9.25
8/20/2021 6:30:00 PM 19.53 67.154 0.638 7.87 5.23 9.18
8/20/2021 6:45:00 PM 19.46 67.028 0.638 7.87 4.2 9.1
8/20/2021 7:00:00 PM 19.41 66.938 0.639 7.86 4.3 9.01
8/20/2021 7:15:00 PM 19.34 66.812 0.639 7.85 5.14 8.91
8/20/2021 7:30:00 PM 19.3 66.74 0.64 7.84 3.76 8.81
8/20/2021 7:45:00 PM 19.25 66.65 0.641 7.84 6.42 8.72
8/20/2021 8:00:00 PM 19.21 66.578 0.641 7.84 4.03 8.62
8/20/2021 8:15:00 PM 19.17 66.506 0.641 7.83 4.62 8.53
8/20/2021 8:30:00 PM 19.13 66.434 0.642 7.82 4.17 8.45
8/20/2021 8:45:00 PM 19.09 66.362 0.642 7.82 3.81 8.37
8/20/2021 9:00:00 PM 19.05 66.29 0.643 7.82 6.18 8.3
8/20/2021 9:15:00 PM 19.02 66.236 0.643 7.81 6.12 8.25
8/20/2021 9:30:00 PM 18.98 66.164 0.644 7.8 7.17 8.21
8/20/2021 9:45:00 PM 18.95 66.11 0.644 7.8 5.26 8.16
8/20/2021 10:00:00 PM 18.91 66.038 0.645 7.8 8.85 8.11
8/20/2021 10:15:00 PM 18.88 65.984 0.646 7.79 11.3 8.07
8/20/2021 10:30:00 PM 18.84 65.912 0.647 7.78 6.06 8.03
8/20/2021 10:45:00 PM 18.81 65.858 0.647 7.77 8.95 7.99
8/20/2021 11:00:00 PM 18.78 65.804 0.648 7.76 7.55 7.96
8/20/2021 11:15:00 PM 18.76 65.768 0.649 7.76 6.37 7.92
8/20/2021 11:30:00 PM 18.73 65.714 0.649 7.75 9.31 7.9
8/20/2021 11:45:00 PM 18.72 65.696 0.65 7.75 6.41 7.88
8/21/2021 12:00:00 AM 18.69 65.642 0.65 7.75 7.62 7.85
8/21/2021 12:15:00 AM 18.67 65.606 0.651 7.74 8.06 7.81
8/21/2021 12:30:00 AM 18.64 65.552 0.652 7.75 5.32 7.78
8/21/2021 12:45:00 AM 18.62 65.516 0.652 7.75 7.06 7.77
8/21/2021 1:00:00 AM 18.59 65.462 0.653 7.75 14.37 7.74
8/21/2021 1:15:00 AM 18.55 65.39 0.653 7.74 7.26 7.73
8/21/2021 1:30:00 AM 18.53 65.354 0.653 7.74 12.02 7.72
8/21/2021 1:45:00 AM 18.5 65.3 0.654 7.73 8.16 7.7
8/21/2021 2:00:00 AM 18.48 65.264 0.654 7.73 4.63 7.69
8/21/2021 2:15:00 AM 18.45 65.21 0.654 7.73 6.02 7.67
8/21/2021 2:30:00 AM 18.43 65.174 0.655 7.73 7.66 7.66
8/21/2021 2:45:00 AM 18.41 65.138 0.655 7.73 6.55 7.64
8/21/2021 3:00:00 AM 18.39 65.102 0.656 7.72 7.97 7.63
8/21/2021 3:15:00 AM 18.36 65.048 0.656 7.72 10.83 7.63
8/21/2021 3:30:00 AM 18.34 65.012 0.656 7.72 7 7.62
8/21/2021 3:45:00 AM 18.31 64.958 0.656 7.72 10.47 7.62
8/21/2021 4:00:00 AM 18.29 64.922 0.656 7.73 8.22 7.61
8/21/2021 4:15:00 AM 18.26 64.868 0.656 7.71 10.04 7.62
8/21/2021 4:30:00 AM 18.23 64.814 0.657 7.73 8.93 7.62
8/21/2021 4:45:00 AM 18.21 64.778 0.657 7.71 8.26 7.61
8/21/2021 5:00:00 AM 18.18 64.724 0.657 7.71 13 7.61
8/21/2021 5:15:00 AM 18.15 64.67 0.658 7.71 9.7 7.6
8/21/2021 5:30:00 AM 18.12 64.616 0.658 7.7 9.07 7.6
8/21/2021 5:45:00 AM 18.09 64.562 0.658 7.71 8.14 7.61
8/21/2021 6:00:00 AM 18.06 64.508 0.658 7.72 15.35 7.59
8/21/2021 6:15:00 AM 18.03 64.454 0.658 7.7 7.98 7.6
8/21/2021 6:30:00 AM 18 64.4 0.658 7.71 11.48 7.62
8/21/2021 6:45:00 AM 17.98 64.364 0.659 7.72 8.67 7.62
8/21/2021 7:00:00 AM 17.95 64.31 0.659 7.72 5.91 7.66
8/21/2021 7:15:00 AM 17.93 64.274 0.659 7.71 4.65 7.68
8/21/2021 7:30:00 AM 17.92 64.256 0.659 7.72 5.81 7.72
8/21/2021 7:45:00 AM 17.91 64.238 0.659 7.72 4.79 7.78
8/21/2021 8:00:00 AM 17.91 64.238 0.66 7.73 4.65 7.83
8/21/2021 8:15:00 AM 17.92 64.256 0.659 7.74 5.55 7.92
8/21/2021 8:30:00 AM 17.93 64.274 0.659 7.73 8.87 8.02
8/21/2021 8:45:00 AM 17.97 64.346 0.66 7.74 8.38 8.13
8/21/2021 9:00:00 AM 18.03 64.454 0.66 7.76 4.47 8.25
8/21/2021 9:15:00 AM 18.1 64.58 0.66 7.77 3.37 8.38
8/21/2021 9:30:00 AM 18.2 64.76 0.66 7.78 2.21 8.51
8/21/2021 9:45:00 AM 18.3 64.94 0.66 7.78 4.75 8.62
8/21/2021 10:00:00 AM 18.42 65.156 0.66 7.79 3.07 8.74
8/21/2021 10:15:00 AM 18.54 65.372 0.659 7.79 2.45 8.86
8/21/2021 10:30:00 AM 18.68 65.624 0.659 7.8 3.37 8.96
8/21/2021 10:45:00 AM 18.81 65.858 0.659 7.83 8 9.08
8/21/2021 11:00:00 AM 18.96 66.128 0.659 7.84 5.38 9.19
8/21/2021 11:15:00 AM 19.11 66.398 0.659 7.85 2.2 9.29
8/21/2021 11:30:00 AM 19.25 66.65 0.659 7.85 1.86 9.36
8/21/2021 11:45:00 AM 19.38 66.884 0.659 7.86 2.99 9.46
8/21/2021 12:00:00 PM 19.46 67.028 0.659 7.86 3.09 9.5
8/21/2021 12:15:00 PM 19.53 67.154 0.659 7.87 2.42 9.52
8/21/2021 12:30:00 PM 19.67 67.406 0.659 7.88 2.81 9.6
8/21/2021 12:45:00 PM 19.71 67.478 0.659 7.88 3.24 9.63
8/21/2021 1:00:00 PM 19.72 67.496 0.659 7.89 3.74 9.65
8/21/2021 1:15:00 PM 19.81 67.658 0.658 7.89 4.83 9.74
8/21/2021 1:30:00 PM 19.82 67.676 0.658 7.88 4.74 9.76
8/21/2021 1:45:00 PM 19.76 67.568 0.658 7.9 4.59 9.72
8/21/2021 2:00:00 PM 19.74 67.532 0.657 7.87 8.72 9.69
8/21/2021 2:15:00 PM 19.73 67.514 0.657 7.9 5.67 9.76
8/21/2021 2:30:00 PM 19.7 67.46 0.657 7.9 4.09 9.8
8/21/2021 2:45:00 PM 19.75 67.55 0.657 7.91 4.88 9.89
8/21/2021 3:00:00 PM 19.82 67.676 0.656 7.92 6.73 9.96
8/21/2021 3:15:00 PM 19.83 67.694 0.656 7.88 4.43 9.98
8/21/2021 3:30:00 PM 19.91 67.838 0.655 7.9 5.05 10.03
8/21/2021 3:45:00 PM 19.98 67.964 0.655 7.91 5.28 10.06
8/21/2021 4:00:00 PM 20.01 68.018 0.655 7.92 5.13 10.05
8/21/2021 4:15:00 PM 20.04 68.07201 0.655 7.92 7.26 10
8/21/2021 4:30:00 PM 20.02 68.036 0.655 7.92 5.76 9.92
8/21/2021 4:45:00 PM 19.97 67.946 0.656 7.9 3.17 9.83
8/21/2021 5:00:00 PM 19.95 67.91 0.656 7.9 4.66 9.74
8/21/2021 5:15:00 PM 19.94 67.892 0.656 7.89 4.46 9.7
8/21/2021 5:30:00 PM 19.89 67.802 0.656 7.87 3.44 9.61
8/21/2021 5:45:00 PM 19.86 67.748 0.656 7.87 5.12 9.55
8/21/2021 6:00:00 PM 19.8 67.64 0.656 7.86 6.52 9.46
8/21/2021 6:15:00 PM 19.73 67.514 0.656 7.86 6.56 9.35
8/21/2021 6:30:00 PM 19.68 67.424 0.656 7.87 9.2 9.24
8/21/2021 6:45:00 PM 19.62 67.316 0.655 7.86 3.36 9.12
8/21/2021 7:00:00 PM 19.58 67.244 0.655 7.83 5.64 9.03
8/21/2021 7:15:00 PM 19.56 67.208 0.655 7.84 4.78 8.92
8/21/2021 7:30:00 PM 19.53 67.154 0.656 7.83 5.93 8.82
8/21/2021 7:45:00 PM 19.52 67.136 0.656 7.8 5.94 8.74
8/21/2021 8:00:00 PM 19.5 67.1 0.656 7.82 11.46 8.63
8/21/2021 8:15:00 PM 19.47 67.046 0.656 7.8 8.92 8.55
8/21/2021 8:30:00 PM 19.45 67.01 0.656 7.8 9.06 8.49
8/21/2021 8:45:00 PM 19.41 66.938 0.656 7.8 7.34 8.41
8/21/2021 9:00:00 PM 19.37 66.866 0.656 7.76 9.48 8.35
8/21/2021 9:15:00 PM 19.33 66.794 0.656 7.76 6.44 8.3
8/21/2021 9:30:00 PM 19.29 66.722 0.656 7.75 8.24 8.24
8/21/2021 9:45:00 PM 19.25 66.65 0.656 7.74 5.49 8.22
8/21/2021 10:00:00 PM 19.21 66.578 0.655 7.74 6.36 8.18
8/21/2021 10:15:00 PM 19.17 66.506 0.655 7.71 12.05 8.16
8/21/2021 10:30:00 PM 19.13 66.434 0.655 7.74 11.27 8.14
8/21/2021 10:45:00 PM 19.1 66.38 0.655 7.73 7.37 8.1
8/21/2021 11:00:00 PM 19.07 66.326 0.655 7.73 8.55 8.06
8/21/2021 11:15:00 PM 19.04 66.272 0.656 7.72 8.12 8.05
8/21/2021 11:30:00 PM 19.02 66.236 0.656 7.72 8.59 8.03
8/21/2021 11:45:00 PM 19 66.2 0.656 7.72 8.94 8
8/22/2021 12:00:00 AM 18.98 66.164 0.657 7.74 7.39 7.97
8/22/2021 12:15:00 AM 18.96 66.128 0.657 7.74 7.67 7.96
8/22/2021 12:30:00 AM 18.94 66.092 0.657 7.73 10.48 7.94
8/22/2021 12:45:00 AM 18.93 66.074 0.657 7.73 7.64 7.92
8/22/2021 1:00:00 AM 18.91 66.038 0.658 7.73 5.23 7.9
8/22/2021 1:15:00 AM 18.89 66.002 0.659 7.72 7.55 7.9
8/22/2021 1:30:00 AM 18.88 65.984 0.659 7.71 8.26 7.87
8/22/2021 1:45:00 AM 18.86 65.948 0.659 7.72 10.71 7.86
8/22/2021 2:00:00 AM 18.84 65.912 0.66 7.71 8.64 7.86
8/22/2021 2:15:00 AM 18.82 65.876 0.66 7.68 11.96 7.83
8/22/2021 2:30:00 AM 18.8 65.84 0.66 7.67 5.84 7.84
8/22/2021 2:45:00 AM 18.79 65.82201 0.66 7.67 6.28 7.83
8/22/2021 3:00:00 AM 18.77 65.786 0.66 7.68 10.72 7.82
8/22/2021 3:15:00 AM 18.75 65.75 0.66 7.64 9.74 7.8
8/22/2021 3:30:00 AM 18.73 65.714 0.66 7.65 13.31 7.8
8/22/2021 4:00:00 AM 18.69 65.642 0.66 7.67 10.21 7.8
8/22/2021 4:15:00 AM 18.67 65.606 0.66 7.67 8.91 7.79
8/22/2021 4:30:00 AM 18.66 65.588 0.66 7.66 8.83 7.78
8/22/2021 4:45:00 AM 18.64 65.552 0.661 7.66 13.81 7.78
8/22/2021 5:00:00 AM 18.64 65.552 0.659 7.66 9.54 7.78
8/22/2021 5:15:00 AM 18.63 65.534 0.659 7.66 10.08 7.77
8/22/2021 5:30:00 AM 18.61 65.498 0.66 7.68 7.51 7.74
8/22/2021 5:45:00 AM 18.6 65.48 0.66 7.68 11.64 7.72
8/22/2021 6:00:00 AM 18.62 65.516 0.653 7.68 11.24 7.79
8/22/2021 6:15:00 AM 18.62 65.516 0.65 7.69 14.45 7.78
8/22/2021 6:30:00 AM 18.59 65.462 0.653 7.67 11.5 7.73
8/22/2021 6:45:00 AM 18.55 65.39 0.657 7.68 12.54 7.68
8/22/2021 7:00:00 AM 18.53 65.354 0.658 7.68 10.08 7.67
8/22/2021 7:15:00 AM 18.51 65.318 0.658 7.66 10.39 7.69
8/22/2021 7:30:00 AM 18.5 65.3 0.595 7.68 9.64 7.72
8/22/2021 7:45:00 AM 18.5 65.3 0.615 7.66 7.71 7.78
8/22/2021 8:00:00 AM 18.51 65.318 0.653 7.66 15.8 7.81
8/22/2021 8:15:00 AM 18.51 65.318 0.651 7.66 7.55 7.84
8/22/2021 8:30:00 AM 18.52 65.336 0.65 7.65 9.06 7.88
8/22/2021 8:45:00 AM 18.53 65.354 0.625 7.67 8.55 7.9
8/22/2021 9:00:00 AM 18.55 65.39 0.592 7.67 10.19 7.94
8/22/2021 9:15:00 AM 18.57 65.426 0.56 7.67 15.04 7.97
8/22/2021 9:30:00 AM 18.59 65.462 0.636 7.68 14.6 8.01
8/22/2021 9:45:00 AM 18.59 65.462 0.632 7.69 12.37 8.05
8/22/2021 10:00:00 AM 18.59 65.462 0.643 7.67 15.67 8.1
8/22/2021 10:15:00 AM 18.61 65.498 0.646 7.68 16.73 8.18
8/22/2021 10:30:00 AM 18.63 65.534 0.648 7.7 16.88 8.25
8/22/2021 10:45:00 AM 18.65 65.57 0.649 7.7 13.89 8.29
8/22/2021 11:00:00 AM 18.67 65.606 0.649 7.66 8.23 8.33
8/22/2021 11:15:00 AM 18.68 65.624 0.634 7.7 9.01 8.33
8/22/2021 11:30:00 AM 18.7 65.66 0.636 7.7 11.65 8.32
8/22/2021 11:45:00 AM 18.71 65.67799 0.647 7.69 12.1 8.29
8/22/2021 12:00:00 PM 18.72 65.696 0.646 7.69 10.37 8.28
8/22/2021 12:15:00 PM 18.76 65.768 0.635 7.69 8.49 8.3
8/22/2021 12:30:00 PM 18.83 65.894 0.59 7.67 7.72 8.29
8/22/2021 12:45:00 PM 18.93 66.074 0.583 7.69 8.5 8.28
8/22/2021 1:00:00 PM 19.02 66.236 0.583 7.69 9.51 8.27
8/22/2021 1:15:00 PM 19.09 66.362 0.597 7.69 7.71 8.25
8/22/2021 1:30:00 PM 19.14 66.452 0.592 7.69 7.72 8.27
8/22/2021 1:45:00 PM 19.2 66.56 0.585 7.69 7.3 8.3
8/22/2021 2:00:00 PM 19.26 66.668 0.581 7.7 8.26 8.39
8/22/2021 2:15:00 PM 19.31 66.758 0.582 7.7 11.7 8.5
8/22/2021 2:30:00 PM 19.34 66.812 0.587 7.68 10.4 8.57
8/22/2021 2:45:00 PM 19.35 66.83 0.593 7.72 10.57 8.66
8/22/2021 3:00:00 PM 19.33 66.794 0.6 7.72 9.46 8.74
8/22/2021 3:15:00 PM 19.31 66.758 0.606 7.73 9.6 8.78
8/22/2021 3:30:00 PM 19.28 66.704 0.611 7.73 9.98 8.83
8/22/2021 3:45:00 PM 19.24 66.632 0.612 7.74 15.32 8.81
8/22/2021 4:00:00 PM 19.21 66.578 0.612 7.7 9.85 8.79
8/22/2021 4:15:00 PM 19.17 66.506 0.611 7.73 10.37 8.74
8/22/2021 4:30:00 PM 19.14 66.452 0.609 7.72 11.68 8.72
8/22/2021 4:45:00 PM 19.09 66.362 0.609 7.72 13.19 8.67
8/22/2021 5:00:00 PM 19.05 66.29 0.6 7.68 11.45 8.63
8/22/2021 5:15:00 PM 19.01 66.218 0.6 7.71 12.19 8.58
8/22/2021 5:30:00 PM 18.99 66.182 0.598 7.69 13.61 8.54
8/22/2021 5:45:00 PM 18.98 66.164 0.559 7.69 13.78 8.49
8/22/2021 6:00:00 PM 18.97 66.146 0.535 7.69 14.44 8.44
8/22/2021 6:15:00 PM 18.96 66.128 0.491 7.68 13.8 8.39
8/22/2021 6:30:00 PM 18.93 66.074 0.582 7.68 10.91 8.36
8/22/2021 6:45:00 PM 18.9 66.02 0.583 7.67 13.48 8.3
8/22/2021 7:00:00 PM 18.87 65.966 0.582 7.67 11.16 8.27
8/22/2021 7:15:00 PM 18.83 65.894 0.543 7.66 16.84 8.2
8/22/2021 7:30:00 PM 18.8 65.84 0.582 7.65 13.77 8.14
8/22/2021 7:45:00 PM 18.78 65.804 0.581 7.65 11.98 8.07
8/22/2021 8:00:00 PM 18.77 65.786 0.58 7.64 14.31 8
8/22/2021 8:15:00 PM 18.77 65.786 0.58 7.61 11.28 7.94
8/22/2021 8:30:00 PM 18.78 65.804 0.58 7.63 16.15 7.89
8/22/2021 8:45:00 PM 18.78 65.804 0.583 7.61 17.81 7.87
8/22/2021 9:00:00 PM 18.78 65.804 0.586 7.62 14.32 7.86
8/22/2021 9:15:00 PM 18.78 65.804 0.591 7.62 18.14 7.86
8/22/2021 9:30:00 PM 18.78 65.804 0.596 7.63 14.61 7.86
8/22/2021 9:45:00 PM 18.76 65.768 0.602 7.62 15.32 7.85
8/22/2021 10:00:00 PM 18.74 65.732 0.607 7.62 14.2 7.85
8/22/2021 10:15:00 PM 18.71 65.67799 0.612 7.62 19.16 7.85
8/22/2021 10:30:00 PM 18.67 65.606 0.615 7.62 18.06 7.85
8/22/2021 10:45:00 PM 18.63 65.534 0.616 7.62 16.78 7.84
8/22/2021 11:00:00 PM 18.59 65.462 0.615 7.6 19.32 7.84
8/22/2021 11:15:00 PM 18.55 65.39 0.613 7.59 15.84 7.85
8/22/2021 11:30:00 PM 18.52 65.336 0.609 7.61 18.3 7.84
8/22/2021 11:45:00 PM 18.49 65.282 0.603 7.61 17.23 7.82
8/23/2021 12:00:00 AM 18.48 65.264 0.595 7.59 17.05 7.84
8/23/2021 12:15:00 AM 18.49 65.282 0.585 7.61 17.62 7.86
8/23/2021 12:30:00 AM 18.5 65.3 0.578 7.61 14.64 7.86
8/23/2021 12:45:00 AM 18.5 65.3 0.572 7.57 17.52 7.82
8/23/2021 1:00:00 AM 18.5 65.3 0.567 7.57 17.53 7.78
8/23/2021 1:15:00 AM 18.51 65.318 0.564 7.59 20.71 7.75
8/23/2021 1:30:00 AM 18.51 65.318 0.561 7.58 18.32 7.72
8/23/2021 1:45:00 AM 18.51 65.318 0.56 7.57 23.16 7.7
8/23/2021 2:00:00 AM 18.51 65.318 0.559 7.57 20.76 7.69
8/23/2021 2:15:00 AM 18.52 65.336 0.557 7.56 16.99 7.68
8/23/2021 2:30:00 AM 18.53 65.354 0.556 7.56 16.2 7.67
8/23/2021 2:45:00 AM 18.53 65.354 0.557 7.56 17.75 7.67
8/23/2021 3:00:00 AM 18.52 65.336 0.557 7.56 18.28 7.67
8/23/2021 3:15:00 AM 18.51 65.318 0.559 7.56 22.7 7.67
8/23/2021 3:30:00 AM 18.49 65.282 0.561 7.56 21.62 7.66
8/23/2021 3:45:00 AM 18.49 65.282 0.563 7.55 18.93 7.65
8/23/2021 4:00:00 AM 18.47 65.246 0.565 7.55 22.2 7.65
8/23/2021 4:15:00 AM 18.46 65.228 0.567 7.55 19.46 7.65
8/23/2021 4:30:00 AM 18.44 65.192 0.569 7.55 18.23 7.66
8/23/2021 4:45:00 AM 18.43 65.174 0.572 7.55 18.2 7.65
8/23/2021 5:00:00 AM 18.42 65.156 0.575 7.55 24.35 7.65
8/23/2021 5:15:00 AM 18.41 65.138 0.577 7.56 19.1 7.67
8/23/2021 5:30:00 AM 18.39 65.102 0.58 7.55 20.7 7.67
8/23/2021 5:45:00 AM 18.38 65.084 0.581 7.56 19.26 7.68
8/23/2021 6:00:00 AM 18.38 65.084 0.58 7.56 24.96 7.68
8/23/2021 6:15:00 AM 18.39 65.102 0.578 7.56 19.6 7.68
8/23/2021 6:30:00 AM 18.41 65.138 0.575 7.56 19.36 7.68
8/23/2021 6:45:00 AM 18.42 65.156 0.574 7.56 21.75 7.67
8/23/2021 7:00:00 AM 18.42 65.156 0.574 7.55 23.76 7.67
8/23/2021 7:15:00 AM 18.41 65.138 0.575 7.55 23.05 7.69
8/23/2021 7:30:00 AM 18.39 65.102 0.579 7.55 23.51 7.68
8/23/2021 7:45:00 AM 18.37 65.066 0.583 7.55 21.24 7.71
8/23/2021 8:00:00 AM 18.35 65.03 0.586 7.56 22.19 7.73
8/23/2021 8:15:00 AM 18.34 65.012 0.589 7.56 25.59 7.75
8/23/2021 8:30:00 AM 18.35 65.03 0.591 7.56 20.22 7.77
8/23/2021 8:45:00 AM 18.37 65.066 0.593 7.58 30.33 7.84
8/23/2021 9:00:00 AM 18.41 65.138 0.595 7.58 14.83 7.9
8/23/2021 9:15:00 AM 18.48 65.264 0.597 7.59 15 7.99
8/23/2021 9:30:00 AM 18.56 65.408 0.598 7.6 15.24 8.09
8/23/2021 9:45:00 AM 18.63 65.534 0.599 7.61 16.07 8.15
8/23/2021 10:00:00 AM 18.72 65.696 0.599 7.61 14.79 8.25
8/23/2021 10:15:00 AM 18.82 65.876 0.599 7.62 13.52 8.34
8/23/2021 10:30:00 AM 18.95 66.11 0.6 7.64 18.69 8.45
8/23/2021 10:45:00 AM 19.08 66.344 0.602 7.65 12.5 8.57
8/23/2021 11:00:00 AM 19.2 66.56 0.604 7.65 9.46 8.66
8/23/2021 11:15:00 AM 19.3 66.74 0.605 7.66 9.81 8.74
8/23/2021 11:30:00 AM 19.39 66.902 0.607 7.67 9.87 8.82
8/23/2021 11:45:00 AM 19.42 66.956 0.608 7.68 28.36 8.88
8/23/2021 12:00:00 PM 19.46 67.028 0.607 7.68 10.36 8.94
8/23/2021 12:15:00 PM 19.45 67.01 0.606 7.68 11.41 8.98
8/23/2021 12:30:00 PM 19.48 67.064 0.604 7.69 14.41 9.01
8/23/2021 12:45:00 PM 19.59 67.262 0.6 7.71 7.93 9.11
8/23/2021 1:00:00 PM 19.67 67.406 0.595 7.72 9.39 9.16
8/23/2021 1:15:00 PM 19.73 67.514 0.589 7.72 6.87 9.19
8/23/2021 1:30:00 PM 19.85 67.73 0.583 7.72 10.91 9.26
8/23/2021 1:45:00 PM 20.02 68.036 0.576 7.73 6.34 9.36
8/23/2021 2:00:00 PM 20.04 68.07201 0.57 7.75 11.19 9.35
8/23/2021 2:15:00 PM 20 68 0.562 7.73 7.76 9.21
8/23/2021 2:30:00 PM 20.02 68.036 0.556 7.72 7 9.16
8/23/2021 2:45:00 PM 20.12 68.216 0.552 7.73 8.2 9.26
8/23/2021 3:00:00 PM 20.15 68.27 0.55 7.74 9.14 9.3
8/23/2021 3:15:00 PM 20.13 68.234 0.55 7.73 6.58 9.27
8/23/2021 3:30:00 PM 20.23 68.414 0.549 7.73 8.65 9.34
8/23/2021 3:45:00 PM 20.37 68.666 0.549 7.74 6.84 9.42
8/23/2021 4:00:00 PM 20.42 68.756 0.55 7.75 7.06 9.46
8/23/2021 4:15:00 PM 20.56 69.008 0.552 7.76 5.31 9.53
8/23/2021 4:30:00 PM 20.65 69.17 0.553 7.76 9.76 9.54
8/23/2021 4:45:00 PM 20.67 69.206 0.555 7.76 6.45 9.51
8/23/2021 5:00:00 PM 20.6 69.08 0.556 7.76 8.25 9.38
8/23/2021 5:15:00 PM 20.51 68.918 0.558 7.74 5.82 9.22
8/23/2021 5:30:00 PM 20.43 68.774 0.555 7.73 7.83 9.01
8/23/2021 5:45:00 PM 20.37 68.666 0.549 7.73 7.3 8.8
8/23/2021 6:00:00 PM 20.35 68.63 0.546 7.74 12.36 8.74
8/23/2021 6:15:00 PM 20.39 68.702 0.54 7.73 26.93 8.65
8/23/2021 6:30:00 PM 20.43 68.774 0.538 7.71 51.25 8.47
8/23/2021 6:45:00 PM 20.46 68.828 0.538 7.7 41.13 8.47
8/23/2021 7:00:00 PM 20.45 68.81 0.536 7.68 34.55 8.42
8/23/2021 7:15:00 PM 20.44 68.792 0.534 7.67 29.53 8.3
8/23/2021 7:30:00 PM 20.43 68.774 0.532 7.66 30.19 8.17
8/23/2021 7:45:00 PM 20.4 68.72 0.534 7.64 36.41 8.09
8/23/2021 8:00:00 PM 20.35 68.63 0.537 7.63 36.83 8.04
8/23/2021 8:15:00 PM 20.28 68.504 0.542 7.63 37.06 7.97
8/23/2021 8:30:00 PM 20.24 68.432 0.541 7.64 37.09 7.88
8/23/2021 8:45:00 PM 20.2 68.36 0.539 7.63 46.58 7.8
8/23/2021 9:00:00 PM 20.15 68.27 0.542 7.62 50.31 7.75
8/23/2021 9:15:00 PM 20.11 68.198 0.547 7.62 43.63 7.72
8/23/2021 9:30:00 PM 20.11 68.198 0.55 7.62 34.24 7.69
8/23/2021 9:45:00 PM 20.15 68.27 0.551 7.61 39.06 7.62
8/23/2021 10:00:00 PM 20.27 68.486 0.543 7.59 34.45 7.53
8/23/2021 10:15:00 PM 20.45 68.81 0.526 7.59 43.23 7.44
8/23/2021 10:30:00 PM 20.64 69.152 0.51 7.58 49.04 7.34
8/23/2021 10:45:00 PM 20.77 69.386 0.501 7.56 44.48 7.27
8/23/2021 11:00:00 PM 20.79 69.422 0.501 7.54 42.51 7.24
8/23/2021 11:15:00 PM 20.76 69.368 0.506 7.54 48 7.22
8/23/2021 11:30:00 PM 20.71 69.278 0.512 7.53 55.63 7.21
8/23/2021 11:45:00 PM 20.67 69.206 0.517 7.53 62.13 7.19
8/24/2021 12:00:00 AM 20.65 69.17 0.519 7.53 47.71 7.17
8/24/2021 12:15:00 AM 20.66 69.188 0.519 7.52 52.16 7.14
8/24/2021 12:30:00 AM 20.67 69.206 0.517 7.52 43.44 7.11
8/24/2021 12:45:00 AM 20.68 69.224 0.517 7.52 43.14 7.1
8/24/2021 1:00:00 AM 20.68 69.224 0.519 7.51 35.62 7.1
8/24/2021 1:15:00 AM 20.66 69.188 0.523 7.5 38.15 7.1
8/24/2021 1:30:00 AM 20.62 69.116 0.528 7.51 44.75 7.09
8/24/2021 1:45:00 AM 20.57 69.026 0.535 7.51 35.84 7.11
8/24/2021 2:00:00 AM 20.51 68.918 0.543 7.51 37.34 7.12
8/24/2021 2:15:00 AM 20.44 68.792 0.55 7.52 29.4 7.14
8/24/2021 2:30:00 AM 20.37 68.666 0.554 7.53 28.99 7.15
8/24/2021 2:45:00 AM 20.29 68.522 0.556 7.53 38.8 7.16
8/24/2021 3:00:00 AM 20.22 68.396 0.554 7.53 30.96 7.16
8/24/2021 3:15:00 AM 20.16 68.288 0.549 7.51 33.39 7.15
8/24/2021 3:30:00 AM 20.11 68.198 0.541 7.51 23.42 7.13
8/24/2021 3:45:00 AM 20.06 68.108 0.531 7.51 27.42 7.1
8/24/2021 4:00:00 AM 20.02 68.036 0.52 7.49 30.22 7.09
8/24/2021 4:15:00 AM 19.98 67.964 0.51 7.48 21.19 7.07
8/24/2021 4:30:00 AM 19.94 67.892 0.5 7.48 37.06 7.06
8/24/2021 4:45:00 AM 19.91 67.838 0.492 7.47 29.99 7.05
8/24/2021 5:00:00 AM 19.86 67.748 0.485 7.46 28.84 7.05
8/24/2021 5:15:00 AM 19.82 67.676 0.481 7.45 27.2 7.06
8/24/2021 5:30:00 AM 19.77 67.586 0.479 7.45 31.17 7.06
8/24/2021 5:45:00 AM 19.72 67.496 0.478 7.45 35.18 7.09
8/24/2021 6:00:00 AM 19.67 67.406 0.479 7.45 27.23 7.1
8/24/2021 6:15:00 AM 19.61 67.298 0.481 7.45 25.2 7.13
8/24/2021 6:30:00 AM 19.56 67.208 0.484 7.46 29.64 7.14
8/24/2021 6:45:00 AM 19.51 67.118 0.488 7.47 25.04 7.16
8/24/2021 7:00:00 AM 19.46 67.028 0.493 7.45 27.44 7.19
8/24/2021 7:15:00 AM 19.42 66.956 0.497 7.47 23.83 7.24
8/24/2021 7:30:00 AM 19.38 66.884 0.502 7.48 21.89 7.28
8/24/2021 7:45:00 AM 19.34 66.812 0.507 7.47 16.38 7.32
8/24/2021 8:00:00 AM 19.31 66.758 0.513 7.47 23.65 7.39
8/24/2021 8:15:00 AM 19.28 66.704 0.518 7.49 18.48 7.45
8/24/2021 8:30:00 AM 19.26 66.668 0.524 7.5 26.13 7.54
8/24/2021 8:45:00 AM 19.26 66.668 0.53 7.51 15.33 7.62
8/24/2021 9:00:00 AM 19.27 66.686 0.536 7.52 18.62 7.73
8/24/2021 9:15:00 AM 19.29 66.722 0.541 7.52 20.09 7.83
8/24/2021 9:30:00 AM 19.32 66.776 0.545 7.54 14.05 7.93
8/24/2021 9:45:00 AM 19.36 66.848 0.549 7.55 12 8.02
8/24/2021 10:00:00 AM 19.4 66.92 0.552 7.56 14.36 8.15
8/24/2021 10:15:00 AM 19.47 67.046 0.554 7.57 14.95 8.26
8/24/2021 10:30:00 AM 19.52 67.136 0.556 7.58 9.25 8.37
8/24/2021 10:45:00 AM 19.57 67.226 0.559 7.58 9.48 8.46
8/24/2021 11:00:00 AM 19.63 67.334 0.562 7.59 13.59 8.57
8/24/2021 11:15:00 AM 19.71 67.478 0.565 7.6 11.82 8.69
8/24/2021 11:30:00 AM 19.74 67.532 0.568 7.61 10.84 8.75
8/24/2021 11:45:00 AM 19.79 67.622 0.572 7.62 11.06 8.83
8/24/2021 12:00:00 PM 19.89 67.802 0.576 7.63 8.7 8.96
8/24/2021 12:15:00 PM 19.98 67.964 0.579 7.64 10.8 9.07
8/24/2021 12:30:00 PM 20.03 68.054 0.582 7.65 9.94 9.15
8/24/2021 12:45:00 PM 20.08 68.144 0.585 7.66 10.35 9.2
8/24/2021 1:00:00 PM 20.15 68.27 0.587 7.68 9.25 9.31
8/24/2021 1:15:00 PM 20.22 68.396 0.588 7.69 8.53 9.39
8/24/2021 1:30:00 PM 20.27 68.486 0.589 7.69 6.88 9.44
8/24/2021 1:45:00 PM 20.31 68.558 0.59 7.71 9.42 9.49
8/24/2021 2:00:00 PM 20.37 68.666 0.59 7.71 7.07 9.53
8/24/2021 2:15:00 PM 20.42 68.756 0.59 7.71 9.47 9.57
8/24/2021 2:30:00 PM 20.46 68.828 0.59 7.72 11.09 9.61
8/24/2021 2:45:00 PM 20.48 68.864 0.59 7.73 8.04 9.61
8/24/2021 3:00:00 PM 20.5 68.9 0.591 7.73 9.16 9.62
8/24/2021 3:15:00 PM 20.51 68.918 0.591 7.73 8.18 9.63
8/24/2021 3:30:00 PM 20.51 68.918 0.592 7.74 9.83 9.63
8/24/2021 3:45:00 PM 20.51 68.918 0.593 7.74 9.87 9.61
8/24/2021 4:00:00 PM 20.51 68.918 0.594 7.74 5.88 9.55
8/24/2021 4:15:00 PM 20.49 68.882 0.596 7.74 7.1 9.53
8/24/2021 4:30:00 PM 20.47 68.846 0.597 7.74 8.56 9.48
8/24/2021 4:45:00 PM 20.45 68.81 0.598 7.73 7.13 9.41
8/24/2021 5:00:00 PM 20.41 68.738 0.599 7.73 8.43 9.36
8/24/2021 5:15:00 PM 20.37 68.666 0.6 7.73 9.11 9.29
8/24/2021 5:30:00 PM 20.32 68.576 0.601 7.73 11.03 9.2
8/24/2021 5:45:00 PM 20.27 68.486 0.603 7.72 9.08 9.11
8/24/2021 6:00:00 PM 20.22 68.396 0.605 7.72 8.3 9.02
8/24/2021 6:15:00 PM 20.2 68.36 0.606 7.72 9.38 8.94
8/24/2021 6:30:00 PM 20.24 68.432 0.615 7.72 10.06 8.84
8/24/2021 6:45:00 PM 20.27 68.486 0.626 7.71 12.02 8.7
8/24/2021 7:00:00 PM 20.27 68.486 0.634 7.7 9.23 8.61
8/24/2021 7:15:00 PM 20.24 68.432 0.639 7.7 10.19 8.52
8/24/2021 7:30:00 PM 20.21 68.378 0.642 7.69 12.28 8.43
8/24/2021 7:45:00 PM 20.18 68.324 0.644 7.69 9.75 8.36
8/24/2021 8:00:00 PM 20.14 68.252 0.646 7.68 13.34 8.28
8/24/2021 8:15:00 PM 20.11 68.198 0.648 7.69 13.48 8.2
8/24/2021 8:30:00 PM 20.07 68.126 0.649 7.67 10.6 8.14
8/24/2021 8:45:00 PM 20.04 68.07201 0.65 7.66 14.15 8.08
8/24/2021 9:00:00 PM 20 68 0.651 7.65 16.97 8.04
8/24/2021 9:15:00 PM 19.95 67.91 0.65 7.68 14.34 7.99
8/24/2021 9:30:00 PM 19.88 67.784 0.647 7.66 17.57 7.95
8/24/2021 9:45:00 PM 19.78 67.604 0.642 7.65 12.99 7.94
8/24/2021 10:00:00 PM 19.67 67.406 0.637 7.64 13.42 7.94
8/24/2021 10:15:00 PM 19.58 67.244 0.634 7.65 19.38 7.92
8/24/2021 10:30:00 PM 19.51 67.118 0.632 7.62 14.95 7.93
8/24/2021 10:45:00 PM 19.45 67.01 0.631 7.64 15.67 7.9
8/24/2021 11:00:00 PM 19.4 66.92 0.631 7.63 17.62 7.88
8/24/2021 11:15:00 PM 19.35 66.83 0.631 7.63 15.91 7.88
8/24/2021 11:30:00 PM 19.3 66.74 0.632 7.64 16.69 7.87
8/24/2021 11:45:00 PM 19.26 66.668 0.633 7.62 21.65 7.85
8/25/2021 12:00:00 AM 19.22 66.596 0.634 7.62 14.9 7.84
8/25/2021 12:15:00 AM 19.18 66.524 0.635 7.62 13.97 7.83
8/25/2021 12:30:00 AM 19.15 66.47 0.636 7.61 14.59 7.82
8/25/2021 12:45:00 AM 19.11 66.398 0.636 7.62 17.32 7.82
8/25/2021 1:00:00 AM 19.07 66.326 0.637 7.61 12.31 7.8
8/25/2021 1:15:00 AM 19.03 66.254 0.637 7.61 13.13 7.8
8/25/2021 1:30:00 AM 19 66.2 0.638 7.61 15.31 7.8
8/25/2021 1:45:00 AM 18.97 66.146 0.639 7.61 14.75 7.8
8/25/2021 2:00:00 AM 18.94 66.092 0.639 7.61 14.44 7.79
8/25/2021 2:15:00 AM 18.91 66.038 0.64 7.61 20.7 7.78
8/25/2021 2:30:00 AM 18.88 65.984 0.64 7.61 23.76 7.78
8/25/2021 2:45:00 AM 18.85 65.93 0.641 7.61 15.08 7.77
8/25/2021 3:00:00 AM 18.83 65.894 0.641 7.61 15.28 7.78
8/25/2021 3:15:00 AM 18.8 65.84 0.641 7.61 14.47 7.79
8/25/2021 3:30:00 AM 18.77 65.786 0.641 7.6 15.77 7.78
8/25/2021 3:45:00 AM 18.73 65.714 0.641 7.6 16.57 7.78
8/25/2021 4:00:00 AM 18.7 65.66 0.641 7.61 14.14 7.79
8/25/2021 4:15:00 AM 18.67 65.606 0.641 7.6 14.65 7.8
8/25/2021 4:30:00 AM 18.64 65.552 0.642 7.6 14.52 7.79
8/25/2021 4:45:00 AM 18.61 65.498 0.642 7.6 15.06 7.81
8/25/2021 5:00:00 AM 18.58 65.444 0.642 7.6 19.58 7.8
8/25/2021 5:15:00 AM 18.55 65.39 0.643 7.6 11.75 7.81
8/25/2021 5:30:00 AM 18.53 65.354 0.643 7.6 11.72 7.81
8/25/2021 5:45:00 AM 18.5 65.3 0.643 7.6 15.3 7.81
8/25/2021 6:00:00 AM 18.47 65.246 0.643 7.6 11.32 7.81
8/25/2021 6:15:00 AM 18.45 65.21 0.643 7.6 17.11 7.82
8/25/2021 6:30:00 AM 18.42 65.156 0.644 7.6 12.49 7.81
8/25/2021 6:45:00 AM 18.4 65.12 0.644 7.6 15.48 7.83
8/25/2021 7:00:00 AM 18.37 65.066 0.644 7.6 18.64 7.87
8/25/2021 7:15:00 AM 18.36 65.048 0.644 7.59 13.16 7.9
8/25/2021 7:30:00 AM 18.35 65.03 0.645 7.6 10.65 7.95
8/25/2021 7:45:00 AM 18.35 65.03 0.645 7.61 12.44 8.01
8/25/2021 8:00:00 AM 18.35 65.03 0.645 7.62 12.41 8.1
8/25/2021 8:15:00 AM 18.36 65.048 0.646 7.62 11.23 8.18
8/25/2021 8:30:00 AM 18.38 65.084 0.646 7.62 8.48 8.28
8/25/2021 8:45:00 AM 18.4 65.12 0.646 7.63 12.43 8.39
8/25/2021 9:00:00 AM 18.44 65.192 0.646 7.64 6.89 8.49
8/25/2021 9:15:00 AM 18.5 65.3 0.646 7.64 6.93 8.6
8/25/2021 9:30:00 AM 18.57 65.426 0.646 7.65 7.44 8.72
8/25/2021 9:45:00 AM 18.65 65.57 0.647 7.66 7.24 8.83
8/25/2021 10:00:00 AM 18.73 65.714 0.646 7.67 6.52 8.94
8/25/2021 10:15:00 AM 18.82 65.876 0.646 7.68 7.94 9.04
8/25/2021 10:30:00 AM 18.92 66.056 0.647 7.69 4.72 9.14
8/25/2021 10:45:00 AM 19.03 66.254 0.647 7.69 5.77 9.24
8/25/2021 11:00:00 AM 19.14 66.452 0.647 7.71 5.52 9.35
8/25/2021 11:15:00 AM 19.23 66.614 0.648 7.73 3.83 9.44
8/25/2021 11:30:00 AM 19.32 66.776 0.648 7.72 5.76 9.51
8/25/2021 11:45:00 AM 19.44 66.992 0.649 7.73 5.2 9.59
8/25/2021 12:00:00 PM 19.53 67.154 0.649 7.74 5.07 9.68
8/25/2021 12:15:00 PM 19.65 67.37 0.65 7.75 6.69 9.76
8/25/2021 12:30:00 PM 19.75 67.55 0.65 7.75 8.17 9.83
8/25/2021 12:45:00 PM 19.85 67.73 0.651 7.76 4.79 9.88
8/25/2021 1:00:00 PM 19.93 67.874 0.651 7.77 4.15 9.94
8/25/2021 1:15:00 PM 20.03 68.054 0.652 7.77 5.06 10
8/25/2021 1:30:00 PM 20.11 68.198 0.652 7.78 5.17 10.08
8/25/2021 1:45:00 PM 20.16 68.288 0.653 7.78 6.65 10.1
8/25/2021 2:00:00 PM 20.19 68.342 0.653 7.79 4.76 10.12
8/25/2021 2:15:00 PM 20.21 68.378 0.653 7.79 4.62 10.16
8/25/2021 2:30:00 PM 20.23 68.414 0.653 7.8 4.9 10.17
8/25/2021 2:45:00 PM 20.15 68.27 0.653 7.79 6.17 10.12
8/25/2021 3:00:00 PM 20.16 68.288 0.653 7.8 4.49 10.13
8/25/2021 3:15:00 PM 20.08 68.144 0.653 7.8 5.14 10.1
8/25/2021 3:30:00 PM 19.98 67.964 0.652 7.8 4.16 10.01
8/25/2021 3:45:00 PM 20.02 68.036 0.652 7.79 3.89 10.05
8/25/2021 4:00:00 PM 20.03 68.054 0.652 7.8 5.6 10.04
8/25/2021 4:15:00 PM 20.05 68.09 0.652 7.8 4.13 10.01
8/25/2021 4:30:00 PM 20.15 68.27 0.652 7.82 4.56 10.05
8/25/2021 4:45:00 PM 20.19 68.342 0.652 7.83 4.66 10.05
8/25/2021 5:00:00 PM 20.12 68.216 0.652 7.83 5.39 9.93
8/25/2021 5:15:00 PM 20.09 68.162 0.652 7.81 6.52 9.82
8/25/2021 5:30:00 PM 20.09 68.162 0.652 7.82 5.16 9.77
8/25/2021 5:45:00 PM 20.03 68.054 0.652 7.81 3.66 9.66
8/25/2021 6:00:00 PM 19.97 67.946 0.652 7.8 5.98 9.54
8/25/2021 6:15:00 PM 19.94 67.892 0.652 7.79 5.48 9.46
8/25/2021 6:30:00 PM 19.87 67.766 0.653 7.78 5.92 9.33
8/25/2021 6:45:00 PM 19.79 67.622 0.654 7.77 4.61 9.15
8/25/2021 7:00:00 PM 19.72 67.496 0.654 7.76 6.19 9.01
8/25/2021 7:15:00 PM 19.65 67.37 0.654 7.75 4.94 8.88
8/25/2021 7:30:00 PM 19.59 67.262 0.654 7.74 5.84 8.81
8/25/2021 7:45:00 PM 19.54 67.172 0.654 7.74 7.04 8.71
8/25/2021 8:00:00 PM 19.5 67.1 0.655 7.73 5.02 8.62
8/25/2021 8:15:00 PM 19.47 67.046 0.655 7.72 6.51 8.55
8/25/2021 8:30:00 PM 19.44 66.992 0.655 7.71 6.85 8.47
8/25/2021 8:45:00 PM 19.41 66.938 0.655 7.7 7.33 8.42
8/25/2021 9:00:00 PM 19.39 66.902 0.655 7.69 8.38 8.37
8/25/2021 9:15:00 PM 19.37 66.866 0.656 7.69 8.38 8.32
8/25/2021 9:30:00 PM 19.35 66.83 0.656 7.69 13.84 8.28
8/25/2021 9:45:00 PM 19.33 66.794 0.656 7.68 7.74 8.25
8/25/2021 10:00:00 PM 19.31 66.758 0.656 7.67 10.15 8.22
8/25/2021 10:15:00 PM 19.28 66.704 0.656 7.67 10.48 8.18
8/25/2021 10:30:00 PM 19.26 66.668 0.657 7.67 10.35 8.15
8/25/2021 10:45:00 PM 19.23 66.614 0.657 7.67 14.57 8.12
8/25/2021 11:00:00 PM 19.2 66.56 0.657 7.66 8.86 8.09
8/25/2021 11:15:00 PM 19.18 66.524 0.657 7.67 11.39 8.08
8/25/2021 11:30:00 PM 19.15 66.47 0.657 7.65 10.23 8.05
8/25/2021 11:45:00 PM 19.12 66.416 0.657 7.65 9.01 8.02
8/26/2021 12:00:00 AM 19.09 66.362 0.657 7.65 11.31 8.02
8/26/2021 12:15:00 AM 19.06 66.308 0.657 7.65 11.89 8
8/26/2021 12:30:00 AM 19.04 66.272 0.657 7.64 9.47 7.99
8/26/2021 12:45:00 AM 19.01 66.218 0.657 7.64 10.31 7.96
8/26/2021 1:00:00 AM 18.98 66.164 0.658 7.64 10.8 7.95
8/26/2021 1:15:00 AM 18.95 66.11 0.658 7.64 9.94 7.95
8/26/2021 1:30:00 AM 18.92 66.056 0.658 7.64 8.5 7.94
8/26/2021 1:45:00 AM 18.9 66.02 0.658 7.64 8.25 7.93
8/26/2021 2:00:00 AM 18.87 65.966 0.659 7.63 9.57 7.91
8/26/2021 2:15:00 AM 18.84 65.912 0.659 7.64 12.14 7.91
8/26/2021 2:30:00 AM 18.82 65.876 0.659 7.64 11.93 7.9
8/26/2021 2:45:00 AM 18.79 65.82201 0.659 7.63 10.14 7.9
8/26/2021 3:00:00 AM 18.77 65.786 0.614 7.63 10.48 7.88
8/26/2021 3:15:00 AM 18.75 65.75 0.659 7.63 10.57 7.88
8/26/2021 3:30:00 AM 18.72 65.696 0.659 7.63 10.42 7.88
8/26/2021 3:45:00 AM 18.7 65.66 0.599 7.63 10.61 7.89
8/26/2021 4:00:00 AM 18.67 65.606 0.659 7.62 9.71 7.89
8/26/2021 4:15:00 AM 18.65 65.57 0.659 7.62 15.06 7.88
8/26/2021 4:30:00 AM 18.62 65.516 0.658 7.62 10.11 7.88
8/26/2021 4:45:00 AM 18.59 65.462 0.657 7.61 13.03 7.89
8/26/2021 5:00:00 AM 18.57 65.426 0.658 7.63 11.49 7.88
8/26/2021 5:15:00 AM 18.54 65.372 0.657 7.62 11.18 7.89
8/26/2021 5:30:00 AM 18.52 65.336 0.657 7.69 15.99 7.88
8/26/2021 5:45:00 AM 18.49 65.282 0.657 7.71 11.59 7.89
8/26/2021 6:00:00 AM 18.47 65.246 0.657 7.71 10.77 7.88
8/26/2021 6:15:00 AM 18.45 65.21 0.657 7.72 15.48 7.89
8/26/2021 6:30:00 AM 18.43 65.174 0.657 7.73 10.07 7.89
8/26/2021 6:45:00 AM 18.41 65.138 0.656 7.73 10.32 7.9
8/26/2021 7:00:00 AM 18.39 65.102 0.656 7.73 9.01 7.9
8/26/2021 7:15:00 AM 18.37 65.066 0.656 7.73 10.41 7.93
8/26/2021 7:30:00 AM 18.37 65.066 0.656 7.73 8.28 7.97
8/26/2021 7:45:00 AM 18.36 65.048 0.656 7.71 6.68 8.02
8/26/2021 8:00:00 AM 18.36 65.048 0.657 7.71 7.32 8.08
8/26/2021 8:15:00 AM 18.36 65.048 0.658 7.68 5.65 8.1
8/26/2021 8:30:00 AM 18.36 65.048 0.659 7.69 5.85 8.18
8/26/2021 8:45:00 AM 18.39 65.102 0.66 7.69 5.92 8.26
8/26/2021 9:00:00 AM 18.44 65.192 0.66 7.69 6.95 8.36
8/26/2021 9:15:00 AM 18.5 65.3 0.66 7.71 4.24 8.5
8/26/2021 9:30:00 AM 18.58 65.444 0.659 7.71 4.58 8.63
8/26/2021 9:45:00 AM 18.67 65.606 0.659 7.72 5.21 8.78
8/26/2021 10:00:00 AM 18.78 65.804 0.66 7.73 4.96 8.9
8/26/2021 10:15:00 AM 18.89 66.002 0.661 7.74 5.07 9.02
8/26/2021 10:30:00 AM 19.01 66.218 0.662 7.75 3.97 9.13
8/26/2021 10:45:00 AM 19.13 66.434 0.663 7.75 3.38 9.27
8/26/2021 11:00:00 AM 19.26 66.668 0.663 7.76 5.87 9.36
8/26/2021 11:15:00 AM 19.39 66.902 0.663 7.77 3.82 9.47
8/26/2021 11:30:00 AM 19.51 67.118 0.663 7.78 6.6 9.59
8/26/2021 11:45:00 AM 19.64 67.352 0.663 7.79 7.04 9.69
8/26/2021 12:00:00 PM 19.78 67.604 0.662 7.8 5.43 9.78
8/26/2021 12:15:00 PM 19.92 67.856 0.661 7.81 3.54 9.9
8/26/2021 12:30:00 PM 20.04 68.07201 0.66 7.81 2.96 9.98
8/26/2021 12:45:00 PM 20.16 68.288 0.66 7.82 7.02 10.06
8/26/2021 1:00:00 PM 20.27 68.486 0.66 7.83 5.27 10.12
8/26/2021 1:15:00 PM 20.37 68.666 0.66 7.83 3.74 10.19
8/26/2021 1:30:00 PM 20.45 68.81 0.661 7.84 7 10.23
8/26/2021 1:45:00 PM 20.53 68.954 0.662 7.84 4.38 10.27
8/26/2021 2:00:00 PM 20.61 69.098 0.662 7.84 2.84 10.31
8/26/2021 2:15:00 PM 20.66 69.188 0.663 7.85 3.8 10.32
8/26/2021 2:30:00 PM 20.7 69.26 0.663 7.85 3.76 10.35
8/26/2021 2:45:00 PM 20.74 69.332 0.663 7.85 5.23 10.37
8/26/2021 3:00:00 PM 20.75 69.35 0.663 7.85 3.74 10.36
8/26/2021 3:15:00 PM 20.77 69.386 0.663 7.86 3.46 10.35
8/26/2021 3:30:00 PM 20.76 69.368 0.662 7.88 3.28 10.34
8/26/2021 3:45:00 PM 20.75 69.35 0.664 7.89 3.85 10.32
8/26/2021 4:00:00 PM 20.72 69.296 0.664 7.89 5.84 10.27
8/26/2021 4:15:00 PM 20.67 69.206 0.664 7.88 3.08 10.21
8/26/2021 4:30:00 PM 20.62 69.116 0.665 7.89 3.67 10.13
8/26/2021 4:45:00 PM 20.56 69.008 0.665 7.9 4.03 10.03
8/26/2021 5:00:00 PM 20.49 68.882 0.665 7.89 5.06 9.95
8/26/2021 5:15:00 PM 20.43 68.774 0.662 7.82 6.48 9.85
8/26/2021 5:30:00 PM 20.38 68.684 0.598 7.89 4.82 9.74
8/26/2021 5:45:00 PM 20.39 68.702 0.641 7.88 4.19 9.6
8/26/2021 6:00:00 PM 20.45 68.81 0.681 7.87 4.19 9.46
8/26/2021 6:15:00 PM 20.5 68.9 0.695 7.86 3.93 9.31
8/26/2021 6:30:00 PM 20.52 68.936 0.705 7.78 5.33 9.19
8/26/2021 6:45:00 PM 20.52 68.936 0.71 7.84 4.72 9.06
8/26/2021 7:00:00 PM 20.5 68.9 0.713 7.83 6.07 8.94
8/26/2021 7:15:00 PM 20.48 68.864 0.715 7.8 5 8.8
8/26/2021 7:30:00 PM 20.46 68.828 0.713 7.81 6.2 8.67
8/26/2021 7:45:00 PM 20.43 68.774 0.635 7.81 5.48 8.56
8/26/2021 8:00:00 PM 20.4 68.72 0.716 7.8 5.05 8.43
8/26/2021 8:15:00 PM 20.37 68.666 0.717 7.79 5.81 8.32
8/26/2021 8:30:00 PM 20.34 68.612 0.717 7.71 4.28 8.24
8/26/2021 8:45:00 PM 20.31 68.558 0.717 7.78 17.16 8.16
8/26/2021 9:00:00 PM 20.28 68.504 0.686 7.77 7.14 8.07
8/26/2021 9:15:00 PM 20.24 68.432 0.716 7.76 8 8.01
8/26/2021 9:30:00 PM 20.18 68.324 0.713 7.69 8.26 7.97
8/26/2021 9:45:00 PM 20.1 68.18 0.684 7.68 10.44 7.92
8/26/2021 10:00:00 PM 20 68 0.702 7.68 7.76 7.9
8/26/2021 10:15:00 PM 19.88 67.784 0.691 7.74 9.69 7.88
8/26/2021 10:30:00 PM 19.76 67.568 0.622 7.74 12.16 7.87
8/26/2021 10:45:00 PM 19.66 67.388 0.669 7.66 8.27 7.86
8/26/2021 11:00:00 PM 19.58 67.244 0.676 7.72 7.29 7.85
8/26/2021 11:15:00 PM 19.52 67.136 0.675 7.7 8.91 7.83
8/26/2021 11:30:00 PM 19.47 67.046 0.645 7.66 7.97 7.82
8/26/2021 11:45:00 PM 19.43 66.974 0.672 7.72 9.47 7.8
8/27/2021 12:00:00 AM 19.39 66.902 0.654 7.71 11.84 7.78
8/27/2021 12:15:00 AM 19.36 66.848 0.622 7.71 7.31 7.77
8/27/2021 12:30:00 AM 19.33 66.794 0.671 7.71 8.06 7.75
8/27/2021 12:45:00 AM 19.29 66.722 0.597 7.71 10.58 7.74
8/27/2021 1:00:00 AM 19.26 66.668 0.582 7.63 10.13 7.72
8/27/2021 1:15:00 AM 19.23 66.614 0.566 7.63 9.68 7.69
8/27/2021 1:30:00 AM 19.2 66.56 0.627 7.62 6.94 7.68
8/27/2021 1:45:00 AM 19.17 66.506 0.674 7.62 7.04 7.66
8/27/2021 2:00:00 AM 19.14 66.452 0.603 7.69 9.49 7.64
8/27/2021 2:15:00 AM 19.11 66.398 0.665 7.69 8.91 7.64
8/27/2021 2:30:00 AM 19.08 66.344 0.644 7.68 7.55 7.62
8/27/2021 2:45:00 AM 19.04 66.272 0.677 7.68 7.02 7.61
8/27/2021 3:00:00 AM 19.02 66.236 0.677 7.68 7.57 7.6
8/27/2021 3:15:00 AM 18.99 66.182 0.635 7.68 8.21 7.6
8/27/2021 3:30:00 AM 18.96 66.128 0.678 7.68 9.56 7.6
8/27/2021 3:45:00 AM 18.93 66.074 0.676 7.67 8.9 7.59
8/27/2021 4:00:00 AM 18.89 66.002 0.677 7.68 13.44 7.58
8/27/2021 4:15:00 AM 18.86 65.948 0.628 7.67 9.26 7.59
8/27/2021 4:30:00 AM 18.83 65.894 0.616 7.68 7.83 7.6
8/27/2021 4:45:00 AM 18.8 65.84 0.675 7.67 8.06 7.6
8/27/2021 5:00:00 AM 18.76 65.768 0.675 7.67 8.62 7.6
8/27/2021 5:15:00 AM 18.73 65.714 0.614 7.67 10.17 7.6
8/27/2021 5:30:00 AM 18.7 65.66 0.671 7.67 11.07 7.6
8/27/2021 5:45:00 AM 18.66 65.588 0.674 7.67 10.33 7.61
8/27/2021 6:00:00 AM 18.63 65.534 0.666 7.66 8.94 7.62
8/27/2021 6:15:00 AM 18.6 65.48 0.648 7.66 8.02 7.62
8/27/2021 6:30:00 AM 18.58 65.444 0.63 7.66 8.32 7.61
8/27/2021 6:45:00 AM 18.55 65.39 0.672 7.67 8.06 7.63
8/27/2021 7:00:00 AM 18.53 65.354 0.674 7.67 7.26 7.65
8/27/2021 7:15:00 AM 18.51 65.318 0.674 7.67 8.49 7.7
8/27/2021 7:30:00 AM 18.5 65.3 0.672 7.67 8.22 7.74
8/27/2021 7:45:00 AM 18.49 65.282 0.674 7.67 6.77 7.81
8/27/2021 8:00:00 AM 18.5 65.3 0.674 7.68 6.93 7.88
8/27/2021 8:15:00 AM 18.52 65.336 0.671 7.64 9.37 8
8/27/2021 8:30:00 AM 18.54 65.372 0.673 7.7 7.32 8.15
8/27/2021 8:45:00 AM 18.58 65.444 0.673 7.71 6.18 8.3
8/27/2021 9:00:00 AM 18.63 65.534 0.673 7.69 4.88 8.47
8/27/2021 9:15:00 AM 18.69 65.642 0.672 7.72 4.83 8.68
8/27/2021 9:30:00 AM 18.74 65.732 0.671 7.74 3.98 8.79
8/27/2021 9:45:00 AM 18.77 65.786 0.671 7.76 3.44 8.84
8/27/2021 10:00:00 AM 18.79 65.82201 0.638 7.76 3.32 8.88
8/27/2021 10:15:00 AM 18.8 65.84 0.633 7.77 2.5 8.91
8/27/2021 10:30:00 AM 18.8 65.84 0.667 7.76 3.35 8.92
8/27/2021 10:45:00 AM 18.8 65.84 0.669 7.76 3.05 8.95
8/27/2021 11:00:00 AM 18.8 65.84 0.669 7.76 3.52 8.98
8/27/2021 11:15:00 AM 18.82 65.876 0.669 7.77 4.92 9.05
8/27/2021 11:30:00 AM 18.87 65.966 0.651 7.78 4.37 9.14
8/27/2021 11:45:00 AM 18.97 66.146 0.66 7.79 8.62 9.35
8/27/2021 12:00:00 PM 19.08 66.344 0.656 7.76 4.5 9.57
8/27/2021 12:15:00 PM 19.16 66.488 0.648 7.78 7.16 9.78
8/27/2021 12:30:00 PM 19.24 66.632 0.661 7.81 6.17 9.95
8/27/2021 12:45:00 PM 19.33 66.794 0.663 7.78 4.59 10.09
8/27/2021 1:00:00 PM 19.39 66.902 0.664 7.85 5.61 10.18
8/27/2021 1:15:00 PM 19.52 67.136 0.664 7.81 4.44 10.3
8/27/2021 1:30:00 PM 19.68 67.424 0.664 7.88 3.64 10.41
8/27/2021 1:45:00 PM 19.82 67.676 0.664 7.89 3.93 10.46
8/27/2021 2:00:00 PM 19.96 67.92799 0.664 7.9 2.7 10.52
8/27/2021 2:15:00 PM 20.1 68.18 0.664 7.9 4.58 10.56
8/27/2021 2:30:00 PM 20.21 68.378 0.664 7.91 4.22 10.59
8/27/2021 2:45:00 PM 20.3 68.54 0.664 7.92 4.16 10.59
8/27/2021 3:00:00 PM 20.32 68.576 0.665 7.92 4.88 10.57
8/27/2021 3:15:00 PM 20.27 68.486 0.665 7.92 4.76 10.52
8/27/2021 3:30:00 PM 20.23 68.414 0.665 7.93 4.25 10.46
8/27/2021 3:45:00 PM 20.2 68.36 0.665 7.92 4.72 10.42
8/27/2021 4:00:00 PM 20.16 68.288 0.665 7.92 3.7 10.35
8/27/2021 4:15:00 PM 20.1 68.18 0.665 7.92 4.36 10.25
8/27/2021 4:30:00 PM 19.98 67.964 0.665 7.91 3.51 10.1
8/27/2021 4:45:00 PM 19.89 67.802 0.665 7.91 4.88 9.95
8/27/2021 5:00:00 PM 19.78 67.604 0.666 7.9 3.53 9.8
8/27/2021 5:15:00 PM 19.72 67.496 0.666 7.89 3.96 9.66
8/27/2021 5:30:00 PM 19.71 67.478 0.605 7.88 6.4 9.46
8/27/2021 5:45:00 PM 19.74 67.532 0.657 7.88 4.33 9.28
8/27/2021 6:00:00 PM 19.72 67.496 0.657 7.88 5.74 9.11
8/27/2021 6:15:00 PM 19.7 67.46 0.656 7.88 6.67 8.96
8/27/2021 6:30:00 PM 19.69 67.442 0.655 7.87 8.02 8.87
8/27/2021 6:45:00 PM 19.67 67.406 0.656 7.79 8.48 8.8
8/27/2021 7:00:00 PM 19.63 67.334 0.657 7.79 9.13 8.75
8/27/2021 7:15:00 PM 19.6 67.28 0.657 7.79 8.77 8.7
8/27/2021 7:30:00 PM 19.56 67.208 0.658 7.79 8.83 8.65
8/27/2021 7:45:00 PM 19.53 67.154 0.623 7.76 7.53 8.63
8/27/2021 8:00:00 PM 19.5 67.1 0.659 7.75 9.14 8.56
8/27/2021 8:15:00 PM 19.46 67.028 0.658 7.74 8.53 8.52
8/27/2021 8:30:00 PM 19.42 66.956 0.66 7.73 9.66 8.47
8/27/2021 8:45:00 PM 19.37 66.866 0.66 7.76 9.14 8.4
8/27/2021 9:00:00 PM 19.34 66.812 0.66 7.8 10.14 8.35
8/27/2021 9:15:00 PM 19.32 66.776 0.66 7.8 9.46 8.29
8/27/2021 9:30:00 PM 19.3 66.74 0.659 7.79 9.9 8.25
8/27/2021 9:45:00 PM 19.28 66.704 0.659 7.79 11.31 8.21
8/27/2021 10:00:00 PM 19.26 66.668 0.659 7.78 9.68 8.16
8/27/2021 10:15:00 PM 19.24 66.632 0.659 7.74 12.66 8.14
8/27/2021 10:30:00 PM 19.22 66.596 0.659 7.71 13.86 8.11
8/27/2021 10:45:00 PM 19.2 66.56 0.657 7.77 9.76 8.09
8/27/2021 11:00:00 PM 19.18 66.524 0.659 7.78 11.99 8.07
8/27/2021 11:15:00 PM 19.15 66.47 0.659 7.77 9.59 8.05
8/27/2021 11:30:00 PM 19.12 66.416 0.642 7.77 10.61 8.03
8/27/2021 11:45:00 PM 19.09 66.362 0.661 7.77 13.3 8.02
8/28/2021 12:00:00 AM 19.06 66.308 0.565 7.76 12.93 8.01
8/28/2021 12:15:00 AM 19.02 66.236 0.641 7.76 10.76 7.98
8/28/2021 12:30:00 AM 19 66.2 0.587 7.76 10.72 7.95
8/28/2021 12:45:00 AM 18.98 66.164 0.611 7.74 9.96 7.9
8/28/2021 1:00:00 AM 18.97 66.146 0.661 7.74 9.29 7.84
8/28/2021 1:15:00 AM 18.95 66.11 0.66 7.73 9.75 7.8
8/28/2021 1:30:00 AM 18.94 66.092 0.66 7.72 9.75 7.77
8/28/2021 1:45:00 AM 18.92 66.056 0.661 7.72 11.78 7.77
8/28/2021 2:00:00 AM 18.9 66.02 0.662 7.72 10.67 7.75
8/28/2021 2:15:00 AM 18.88 65.984 0.663 7.72 12.38 7.78
8/28/2021 2:30:00 AM 18.85 65.93 0.664 7.72 12.9 7.79
8/28/2021 2:45:00 AM 18.83 65.894 0.646 7.72 12.22 7.78
8/28/2021 3:00:00 AM 18.8 65.84 0.666 7.72 11.04 7.79
8/28/2021 3:15:00 AM 18.78 65.804 0.666 7.73 10.53 7.81
8/28/2021 3:30:00 AM 18.75 65.75 0.666 7.72 10.55 7.82
8/28/2021 3:45:00 AM 18.71 65.67799 0.667 7.72 10.86 7.82
8/28/2021 4:00:00 AM 18.68 65.624 0.667 7.72 11.82 7.84
8/28/2021 4:15:00 AM 18.66 65.588 0.667 7.73 12.49 7.84
8/28/2021 4:30:00 AM 18.62 65.516 0.667 7.72 12.01 7.85
8/28/2021 4:45:00 AM 18.6 65.48 0.668 7.72 15.15 7.86
8/28/2021 5:00:00 AM 18.58 65.444 0.633 7.72 14.03 7.86
8/28/2021 5:15:00 AM 18.56 65.408 0.629 7.72 12.43 7.86
8/28/2021 5:30:00 AM 18.53 65.354 0.669 7.72 14.2 7.87
8/28/2021 5:45:00 AM 18.5 65.3 0.668 7.72 13.15 7.88
8/28/2021 6:00:00 AM 18.48 65.264 0.647 7.72 14.85 7.88
8/28/2021 6:15:00 AM 18.45 65.21 0.667 7.72 14.34 7.87
8/28/2021 6:30:00 AM 18.44 65.192 0.667 7.72 15.63 7.89
8/28/2021 6:45:00 AM 18.42 65.156 0.667 7.72 13.5 7.89
8/28/2021 7:00:00 AM 18.41 65.138 0.667 7.72 12.22 7.91
8/28/2021 7:15:00 AM 18.41 65.138 0.667 7.73 14.17 7.94
8/28/2021 7:30:00 AM 18.41 65.138 0.667 7.72 9.63 7.98
8/28/2021 7:45:00 AM 18.41 65.138 0.667 7.73 8.59 8.05
8/28/2021 8:00:00 AM 18.42 65.156 0.667 7.73 6.95 8.09
8/28/2021 8:15:00 AM 18.44 65.192 0.666 7.73 9.58 8.15
8/28/2021 8:30:00 AM 18.46 65.228 0.666 7.74 6.03 8.25
8/28/2021 8:45:00 AM 18.49 65.282 0.666 7.75 8.79 8.34
8/28/2021 9:00:00 AM 18.52 65.336 0.666 7.75 6.03 8.39
8/28/2021 9:15:00 AM 18.56 65.408 0.666 7.76 7.75 8.49
8/28/2021 9:30:00 AM 18.61 65.498 0.665 7.77 5.78 8.63
8/28/2021 9:45:00 AM 18.67 65.606 0.665 7.78 6.22 8.77
8/28/2021 10:00:00 AM 18.74 65.732 0.665 7.79 6.23 8.92
8/28/2021 10:15:00 AM 18.8 65.84 0.665 7.8 3.87 9
8/28/2021 10:30:00 AM 18.87 65.966 0.666 7.8 4.5 9.06
8/28/2021 10:45:00 AM 18.88 65.984 0.667 7.8 3.99 9.07
8/28/2021 11:00:00 AM 18.89 66.002 0.668 7.8 5.7 9.08
8/28/2021 11:15:00 AM 18.91 66.038 0.669 7.8 4.36 9.09
8/28/2021 11:30:00 AM 18.92 66.056 0.669 7.81 5.58 9.11
8/28/2021 11:45:00 AM 18.9 66.02 0.67 7.8 4.41 9.07
8/28/2021 12:00:00 PM 18.9 66.02 0.669 7.8 7.65 9.13
8/28/2021 12:15:00 PM 18.96 66.128 0.668 7.81 5.71 9.23
8/28/2021 12:30:00 PM 18.96 66.128 0.666 7.81 6.56 9.25
8/28/2021 12:45:00 PM 18.93 66.074 0.663 7.81 8.41 9.19
8/28/2021 1:00:00 PM 18.95 66.11 0.658 7.81 10.69 9.24
8/28/2021 1:15:00 PM 18.92 66.056 0.653 7.81 9.46 9.27
8/28/2021 1:30:00 PM 18.87 65.966 0.649 7.81 10.6 9.21
8/28/2021 1:45:00 PM 18.88 65.984 0.644 7.81 8.54 9.25
8/28/2021 2:00:00 PM 18.87 65.966 0.639 7.8 7.23 9.2
8/28/2021 2:15:00 PM 18.88 65.984 0.633 7.79 12.94 9.15
8/28/2021 2:30:00 PM 18.93 66.074 0.627 7.79 10.29 9.11
8/28/2021 2:45:00 PM 18.98 66.164 0.621 7.79 12.14 9.04
8/28/2021 3:00:00 PM 19.04 66.272 0.616 7.78 8.46 9.02
8/28/2021 3:15:00 PM 19.1 66.38 0.612 7.78 10.12 9
8/28/2021 3:30:00 PM 19.15 66.47 0.609 7.78 10.77 8.95
8/28/2021 3:45:00 PM 19.19 66.542 0.608 7.78 10.44 8.9
8/28/2021 4:00:00 PM 19.23 66.614 0.607 7.77 12.43 8.88
8/28/2021 4:15:00 PM 19.25 66.65 0.608 7.77 14.22 8.82
8/28/2021 4:30:00 PM 19.27 66.686 0.608 7.78 12.86 8.76
8/28/2021 4:45:00 PM 19.28 66.704 0.609 7.77 8.51 8.69
8/28/2021 5:00:00 PM 19.3 66.74 0.608 7.77 8.94 8.64
8/28/2021 5:15:00 PM 19.32 66.776 0.607 7.76 8.52 8.57
8/28/2021 5:30:00 PM 19.33 66.794 0.605 7.76 13.86 8.54
8/28/2021 5:45:00 PM 19.33 66.794 0.601 7.76 10.66 8.46
8/28/2021 6:00:00 PM 19.34 66.812 0.596 7.75 13.86 8.39
8/28/2021 6:15:00 PM 19.34 66.812 0.591 7.75 10.53 8.35
8/28/2021 6:30:00 PM 19.34 66.812 0.585 7.74 12.1 8.29
8/28/2021 6:45:00 PM 19.33 66.794 0.578 7.74 12.64 8.23
8/28/2021 7:00:00 PM 19.32 66.776 0.571 7.73 11.41 8.19
8/28/2021 7:15:00 PM 19.31 66.758 0.564 7.73 11.23 8.13
8/28/2021 7:30:00 PM 19.29 66.722 0.557 7.71 14.77 8.08
8/28/2021 7:45:00 PM 19.28 66.704 0.55 7.71 15.89 8.04
8/28/2021 8:00:00 PM 19.27 66.686 0.543 7.7 16.05 7.99
8/28/2021 8:15:00 PM 19.26 66.668 0.538 7.7 17.54 7.94
8/28/2021 8:30:00 PM 19.26 66.668 0.534 7.69 17.62 7.9
8/28/2021 8:45:00 PM 19.26 66.668 0.531 7.68 18.59 7.88
8/28/2021 9:00:00 PM 19.25 66.65 0.53 7.68 15.84 7.85
8/28/2021 9:15:00 PM 19.25 66.65 0.53 7.68 17.76 7.82
8/28/2021 9:30:00 PM 19.25 66.65 0.531 7.67 20.94 7.81
8/28/2021 9:45:00 PM 19.24 66.632 0.533 7.67 21.96 7.79
8/28/2021 10:00:00 PM 19.22 66.596 0.536 7.67 20.66 7.78
8/28/2021 10:15:00 PM 19.21 66.578 0.54 7.68 25.19 7.78
8/28/2021 10:30:00 PM 19.19 66.542 0.544 7.67 15.75 7.77
8/28/2021 10:45:00 PM 19.17 66.506 0.548 7.67 18.89 7.78
8/28/2021 11:00:00 PM 19.15 66.47 0.551 7.67 22 7.78
8/28/2021 11:15:00 PM 19.13 66.434 0.554 7.68 21.31 7.77
8/28/2021 11:30:00 PM 19.11 66.398 0.558 7.68 19.36 7.77
8/28/2021 11:45:00 PM 19.08 66.344 0.561 7.68 20.56 7.78
8/29/2021 12:00:00 AM 19.06 66.308 0.564 7.68 17.63 7.78
8/29/2021 12:15:00 AM 19.03 66.254 0.566 7.68 20.94 7.79
8/29/2021 12:30:00 AM 19.01 66.218 0.569 7.69 18.45 7.78
8/29/2021 12:45:00 AM 18.98 66.164 0.572 7.69 15.04 7.8
8/29/2021 1:00:00 AM 18.95 66.11 0.574 7.69 17.72 7.79
8/29/2021 1:15:00 AM 18.92 66.056 0.576 7.69 21.57 7.8
8/29/2021 1:30:00 AM 18.9 66.02 0.579 7.69 19.89 7.81
8/29/2021 1:45:00 AM 18.87 65.966 0.581 7.69 19.37 7.83
8/29/2021 2:00:00 AM 18.84 65.912 0.583 7.69 17.48 7.84
8/29/2021 2:15:00 AM 18.81 65.858 0.585 7.7 16.57 7.84
8/29/2021 2:30:00 AM 18.78 65.804 0.587 7.69 15.53 7.84
8/29/2021 2:45:00 AM 18.75 65.75 0.59 7.7 18.54 7.85
8/29/2021 3:00:00 AM 18.72 65.696 0.592 7.7 17.19 7.87
8/29/2021 3:15:00 AM 18.69 65.642 0.594 7.7 20.78 7.87
8/29/2021 3:30:00 AM 18.66 65.588 0.596 7.71 15.61 7.88
8/29/2021 4:00:00 AM 18.6 65.48 0.6 7.71 14.08 7.9
8/29/2021 4:15:00 AM 18.57 65.426 0.601 7.71 14.1 7.9
8/29/2021 4:30:00 AM 18.54 65.372 0.603 7.72 15.18 7.91
8/29/2021 4:45:00 AM 18.51 65.318 0.604 7.72 15.59 7.92
8/29/2021 5:00:00 AM 18.48 65.264 0.605 7.71 13.09 7.92
8/29/2021 5:15:00 AM 18.45 65.21 0.607 7.72 14.6 7.93
8/29/2021 5:30:00 AM 18.42 65.156 0.607 7.72 15.63 7.93
8/29/2021 5:45:00 AM 18.4 65.12 0.609 7.72 16.36 7.95
8/29/2021 6:00:00 AM 18.37 65.066 0.61 7.72 13.62 7.94
8/29/2021 6:15:00 AM 18.35 65.03 0.603 7.72 17.88 7.95
8/29/2021 6:30:00 AM 18.32 64.976 0.611 7.72 14.85 7.95
8/29/2021 6:45:00 AM 18.3 64.94 0.612 7.72 13.34 7.96
8/29/2021 7:00:00 AM 18.27 64.886 0.613 7.73 11.89 7.96
8/29/2021 7:15:00 AM 18.25 64.85 0.614 7.73 11.88 7.98
8/29/2021 7:30:00 AM 18.23 64.814 0.615 7.73 12.34 8.01
8/29/2021 7:45:00 AM 18.21 64.778 0.616 7.73 9.76 8.02
8/29/2021 8:00:00 AM 18.19 64.742 0.617 7.73 19.15 8.06
8/29/2021 8:15:00 AM 18.18 64.724 0.618 7.74 9.1 8.12
8/29/2021 8:30:00 AM 18.17 64.706 0.619 7.75 7.47 8.18
8/29/2021 8:45:00 AM 18.16 64.688 0.62 7.75 6.38 8.25
8/29/2021 9:00:00 AM 18.16 64.688 0.621 7.77 7.71 8.35
8/29/2021 9:15:00 AM 18.16 64.688 0.622 7.77 6.17 8.43
8/29/2021 9:30:00 AM 18.17 64.706 0.623 7.78 4.91 8.52
8/29/2021 9:45:00 AM 18.17 64.706 0.624 7.78 6.45 8.61
8/29/2021 10:00:00 AM 18.17 64.706 0.625 7.79 5.06 8.66
8/29/2021 10:15:00 AM 18.17 64.706 0.626 7.8 4.75 8.74
8/29/2021 10:30:00 AM 18.18 64.724 0.626 7.81 5.56 8.85
8/29/2021 10:45:00 AM 18.19 64.742 0.627 7.82 3.97 8.93
8/29/2021 11:00:00 AM 18.21 64.778 0.627 7.82 3.12 9.05
8/29/2021 11:15:00 AM 18.27 64.886 0.628 7.84 6.78 9.26
8/29/2021 11:30:00 AM 18.33 64.994 0.628 7.86 4.58 9.42
8/29/2021 11:45:00 AM 18.38 65.084 0.629 7.87 4.42 9.58
8/29/2021 12:00:00 PM 18.44 65.192 0.63 7.88 4.82 9.72
8/29/2021 12:15:00 PM 18.5 65.3 0.63 7.9 3.82 9.85
8/29/2021 12:30:00 PM 18.55 65.39 0.631 7.91 3.09 9.94
8/29/2021 12:45:00 PM 18.59 65.462 0.632 7.92 2.88 10.03
8/29/2021 1:00:00 PM 18.65 65.57 0.632 7.93 6.33 10.15
8/29/2021 1:15:00 PM 18.7 65.66 0.633 7.94 3.16 10.22
8/29/2021 1:30:00 PM 18.75 65.75 0.634 7.94 3.53 10.28
8/29/2021 1:45:00 PM 18.79 65.82201 0.635 7.95 2.9 10.32
8/29/2021 2:00:00 PM 18.81 65.858 0.636 7.96 3.68 10.35
8/29/2021 2:15:00 PM 18.86 65.948 0.636 7.96 4.94 10.4
8/29/2021 2:30:00 PM 18.91 66.038 0.637 7.96 2.49 10.45
8/29/2021 2:45:00 PM 18.94 66.092 0.638 7.97 4.47 10.47
8/29/2021 3:00:00 PM 18.97 66.146 0.638 7.97 5.21 10.5
8/29/2021 3:15:00 PM 19.01 66.218 0.639 7.98 2.99 10.54
8/29/2021 3:30:00 PM 19.03 66.254 0.639 7.98 4.03 10.53
8/29/2021 3:45:00 PM 19.03 66.254 0.64 7.98 3.96 10.51
8/29/2021 4:00:00 PM 19.02 66.236 0.64 7.98 2.74 10.46
8/29/2021 4:15:00 PM 19.01 66.218 0.64 7.98 4.04 10.44
8/29/2021 4:30:00 PM 18.99 66.182 0.64 7.98 4.25 10.38
8/29/2021 4:45:00 PM 18.99 66.182 0.64 7.98 4.76 10.3
8/29/2021 5:00:00 PM 18.98 66.164 0.64 7.97 4.95 10.22
8/29/2021 5:15:00 PM 18.92 66.056 0.64 7.96 3.63 10.07
8/29/2021 5:30:00 PM 18.86 65.948 0.64 7.95 5.08 9.94
8/29/2021 5:45:00 PM 18.81 65.858 0.64 7.94 3.38 9.83
8/29/2021 6:00:00 PM 18.77 65.786 0.64 7.93 4.05 9.71
8/29/2021 6:15:00 PM 18.74 65.732 0.64 7.92 4.67 9.58
8/29/2021 6:30:00 PM 18.7 65.66 0.64 7.91 4.72 9.46
8/29/2021 6:45:00 PM 18.67 65.606 0.641 7.9 4.72 9.32
8/29/2021 7:00:00 PM 18.65 65.57 0.641 7.89 3.57 9.21
8/29/2021 7:15:00 PM 18.63 65.534 0.641 7.88 4.05 9.14
8/29/2021 7:30:00 PM 18.6 65.48 0.641 7.87 4.4 9.07
8/29/2021 7:45:00 PM 18.58 65.444 0.642 7.87 6.67 8.96
8/29/2021 8:00:00 PM 18.55 65.39 0.642 7.86 4.7 8.89
8/29/2021 8:15:00 PM 18.53 65.354 0.642 7.85 7.88 8.81
8/29/2021 8:30:00 PM 18.5 65.3 0.642 7.84 15.11 8.73
8/29/2021 8:45:00 PM 18.47 65.246 0.642 7.84 6.6 8.68
8/29/2021 9:00:00 PM 18.44 65.192 0.642 7.83 7.64 8.62
8/29/2021 9:15:00 PM 18.42 65.156 0.643 7.83 8.61 8.59
8/29/2021 9:30:00 PM 18.4 65.12 0.643 7.83 7.76 8.55
8/29/2021 9:45:00 PM 18.39 65.102 0.643 7.82 7.42 8.51
8/29/2021 10:00:00 PM 18.37 65.066 0.644 7.81 6.76 8.47
8/29/2021 10:15:00 PM 18.36 65.048 0.644 7.81 7.94 8.43
8/29/2021 10:30:00 PM 18.34 65.012 0.645 7.8 9.99 8.4
8/29/2021 10:45:00 PM 18.32 64.976 0.645 7.8 10.66 8.37
8/29/2021 11:00:00 PM 18.3 64.94 0.645 7.79 10.71 8.35
8/29/2021 11:15:00 PM 18.29 64.922 0.646 7.79 8.1 8.31
8/29/2021 11:30:00 PM 18.28 64.904 0.646 7.79 9.25 8.29
8/29/2021 11:45:00 PM 18.26 64.868 0.646 7.78 11.03 8.27
8/30/2021 12:00:00 AM 18.25 64.85 0.647 7.78 12.46 8.24
8/30/2021 12:15:00 AM 18.24 64.832 0.647 7.78 10.35 8.23
8/30/2021 12:30:00 AM 18.23 64.814 0.647 7.77 11.8 8.2
8/30/2021 12:45:00 AM 18.22 64.796 0.648 7.77 12.13 8.19
8/30/2021 1:00:00 AM 18.21 64.778 0.648 7.77 10.02 8.18
8/30/2021 1:15:00 AM 18.21 64.778 0.648 7.76 10.63 8.16
8/30/2021 1:30:00 AM 18.2 64.76 0.649 7.76 10.06 8.14
8/30/2021 1:45:00 AM 18.19 64.742 0.649 7.76 12.94 8.13
8/30/2021 2:00:00 AM 18.18 64.724 0.649 7.76 8.74 8.11
8/30/2021 2:15:00 AM 18.17 64.706 0.649 7.76 9.46 8.11
8/30/2021 2:30:00 AM 18.16 64.688 0.65 7.76 10.76 8.1
8/30/2021 2:45:00 AM 18.14 64.652 0.65 7.76 9.36 8.08
8/30/2021 3:00:00 AM 18.13 64.634 0.65 7.75 8.56 8.07
8/30/2021 3:15:00 AM 18.12 64.616 0.65 7.75 9.33 8.07
8/30/2021 3:30:00 AM 18.11 64.598 0.65 7.75 9.29 8.06
8/30/2021 3:45:00 AM 18.09 64.562 0.65 7.75 11.42 8.05
8/30/2021 4:00:00 AM 18.08 64.544 0.651 7.75 8.09 8.05
8/30/2021 4:15:00 AM 18.06 64.508 0.651 7.74 11.25 8.05
8/30/2021 4:30:00 AM 18.04 64.472 0.651 7.74 12.94 8.05
8/30/2021 4:45:00 AM 18.02 64.436 0.651 7.74 11.04 8.04
8/30/2021 5:00:00 AM 18 64.4 0.651 7.74 10.82 8.04
8/30/2021 5:15:00 AM 17.99 64.382 0.651 7.74 11.04 8.04
8/30/2021 5:30:00 AM 17.97 64.346 0.65 7.73 9.19 8.04
8/30/2021 5:45:00 AM 17.96 64.328 0.65 7.73 17.74 8.04
8/30/2021 6:00:00 AM 17.94 64.292 0.651 7.73 15.13 8.03
8/30/2021 6:15:00 AM 17.93 64.274 0.651 7.73 9.01 8.03
8/30/2021 6:30:00 AM 17.92 64.256 0.651 7.73 10.14 8.02
8/30/2021 6:45:00 AM 17.92 64.256 0.65 7.73 9.23 8.02
8/30/2021 7:00:00 AM 17.92 64.256 0.65 7.73 6.72 8.03
8/30/2021 7:15:00 AM 17.91 64.238 0.65 7.73 6.94 8.05
8/30/2021 7:30:00 AM 17.91 64.238 0.65 7.73 7.47 8.09
8/30/2021 7:45:00 AM 17.92 64.256 0.65 7.74 7.34 8.16
8/30/2021 8:00:00 AM 17.93 64.274 0.65 7.75 5.6 8.24
8/30/2021 8:15:00 AM 17.95 64.31 0.649 7.75 7.64 8.32
8/30/2021 8:30:00 AM 17.96 64.328 0.649 7.76 5.59 8.37
8/30/2021 8:45:00 AM 18 64.4 0.649 7.77 5.58 8.52
8/30/2021 9:00:00 AM 18.04 64.472 0.648 7.78 5.75 8.69
8/30/2021 9:15:00 AM 18.07 64.526 0.648 7.79 4.45 8.71
8/30/2021 9:30:00 AM 18.1 64.58 0.648 7.8 3.58 8.8
8/30/2021 9:45:00 AM 18.16 64.688 0.648 7.81 5.39 8.96
8/30/2021 10:00:00 AM 18.23 64.814 0.647 7.82 3.98 9.1
8/30/2021 10:15:00 AM 18.34 65.012 0.647 7.84 3.88 9.25
8/30/2021 10:30:00 AM 18.45 65.21 0.647 7.85 2.7 9.4
8/30/2021 10:45:00 AM 18.57 65.426 0.647 7.87 7.02 9.57
8/30/2021 11:00:00 AM 18.71 65.67799 0.647 7.88 2.99 9.69
8/30/2021 11:15:00 AM 18.81 65.858 0.647 7.88 3.91 9.79
8/30/2021 11:30:00 AM 18.91 66.038 0.647 7.87 3.35 9.83
8/30/2021 11:45:00 AM 19.07 66.326 0.647 7.9 4.59 9.96
8/30/2021 12:00:00 PM 19.16 66.488 0.647 7.91 2.76 10.04
8/30/2021 12:15:00 PM 19.18 66.524 0.647 7.9 3.21 10.05
8/30/2021 12:30:00 PM 19.24 66.632 0.647 7.93 3.56 10.11
8/30/2021 12:45:00 PM 19.35 66.83 0.648 7.92 3.11 10.18
8/30/2021 1:00:00 PM 19.42 66.956 0.648 7.94 3.54 10.24
8/30/2021 1:15:00 PM 19.53 67.154 0.649 7.91 3.65 10.3
8/30/2021 1:30:00 PM 19.61 67.298 0.65 7.94 3.1 10.33
8/30/2021 1:45:00 PM 19.67 67.406 0.651 7.93 3.73 10.34
8/30/2021 2:00:00 PM 19.73 67.514 0.652 7.95 3.51 10.35
8/30/2021 2:15:00 PM 19.81 67.658 0.653 7.94 5.08 10.35
8/30/2021 2:30:00 PM 19.89 67.802 0.653 7.94 3.46 10.36
8/30/2021 2:45:00 PM 19.95 67.91 0.654 7.94 3.69 10.35
8/30/2021 3:00:00 PM 19.95 67.91 0.654 7.91 3.72 10.25
8/30/2021 3:15:00 PM 19.96 67.92799 0.653 7.91 4.02 10.23
8/30/2021 3:30:00 PM 19.95 67.91 0.653 7.95 5.48 10.2
8/30/2021 3:45:00 PM 19.96 67.92799 0.653 7.97 3.83 10.21
8/30/2021 4:00:00 PM 19.95 67.91 0.652 7.97 3.57 10.22
8/30/2021 4:15:00 PM 19.95 67.91 0.652 7.97 3.52 10.2
8/30/2021 4:30:00 PM 19.94 67.892 0.652 7.97 4.11 10.17
8/30/2021 4:45:00 PM 19.93 67.874 0.652 7.98 4.32 10.15
8/30/2021 5:00:00 PM 19.89 67.802 0.652 7.97 3.69 10.08
8/30/2021 5:15:00 PM 19.84 67.712 0.653 7.97 5.16 9.99
8/30/2021 5:30:00 PM 19.79 67.622 0.652 7.96 2.79 9.91
8/30/2021 5:45:00 PM 19.73 67.514 0.653 7.96 4 9.8
8/30/2021 6:00:00 PM 19.68 67.424 0.653 7.95 2.59 9.69
8/30/2021 6:15:00 PM 19.63 67.334 0.653 7.95 2.92 9.58
8/30/2021 6:30:00 PM 19.6 67.28 0.653 7.94 2.87 9.46
8/30/2021 6:45:00 PM 19.57 67.226 0.655 7.93 3.43 9.36
8/30/2021 7:00:00 PM 19.53 67.154 0.656 7.93 3.29 9.22
8/30/2021 7:15:00 PM 19.5 67.1 0.656 7.91 3.72 9.06
8/30/2021 7:30:00 PM 19.46 67.028 0.657 7.91 8.3 8.89
8/30/2021 7:45:00 PM 19.43 66.974 0.657 7.9 5.1 8.76
8/30/2021 8:00:00 PM 19.39 66.902 0.658 7.89 4.57 8.62
8/30/2021 8:15:00 PM 19.34 66.812 0.659 7.88 4.42 8.5
8/30/2021 8:30:00 PM 19.29 66.722 0.659 7.87 6.43 8.4
8/30/2021 8:45:00 PM 19.24 66.632 0.66 7.86 4.17 8.31
8/30/2021 9:00:00 PM 19.2 66.56 0.66 7.85 7.21 8.25
8/30/2021 9:15:00 PM 19.16 66.488 0.66 7.85 6.11 8.19
8/30/2021 9:30:00 PM 19.12 66.416 0.66 7.84 6.89 8.14
8/30/2021 9:45:00 PM 19.09 66.362 0.661 7.84 7.96 8.1
8/30/2021 10:00:00 PM 19.06 66.308 0.661 7.83 8.52 8.05
8/30/2021 10:15:00 PM 19.03 66.254 0.661 7.82 6.98 8.02
8/30/2021 10:30:00 PM 18.99 66.182 0.661 7.82 11.56 7.98
8/30/2021 10:45:00 PM 18.96 66.128 0.661 7.81 7.51 7.94
8/30/2021 11:00:00 PM 18.93 66.074 0.662 7.81 8.61 7.91
8/30/2021 11:15:00 PM 18.91 66.038 0.662 7.8 7.52 7.88
8/30/2021 11:30:00 PM 18.88 65.984 0.662 7.8 9.06 7.86
8/30/2021 11:45:00 PM 18.86 65.948 0.663 7.8 10.32 7.82
8/31/2021 12:00:00 AM 18.84 65.912 0.663 7.79 7.73 7.8
8/31/2021 12:15:00 AM 18.82 65.876 0.663 7.76 7.03 7.77
8/31/2021 12:30:00 AM 18.8 65.84 0.663 7.75 6.52 7.75
8/31/2021 12:45:00 AM 18.78 65.804 0.664 7.71 9.69 7.72
8/31/2021 1:00:00 AM 18.76 65.768 0.664 7.72 9.32 7.71
8/31/2021 1:15:00 AM 18.73 65.714 0.664 7.72 6.57 7.69
8/31/2021 1:30:00 AM 18.7 65.66 0.665 7.74 6.81 7.67
8/31/2021 1:45:00 AM 18.67 65.606 0.665 7.74 6.69 7.67
8/31/2021 2:00:00 AM 18.64 65.552 0.666 7.77 7.9 7.65
8/31/2021 2:15:00 AM 18.61 65.498 0.666 7.76 8.33 7.64
8/31/2021 2:30:00 AM 18.58 65.444 0.666 7.76 7.54 7.63
8/31/2021 2:45:00 AM 18.55 65.39 0.666 7.76 9.19 7.62
8/31/2021 3:00:00 AM 18.51 65.318 0.667 7.76 9.17 7.63
8/31/2021 3:15:00 AM 18.48 65.264 0.667 7.75 7.02 7.61
8/31/2021 3:30:00 AM 18.45 65.21 0.667 7.75 7.63 7.61
8/31/2021 3:45:00 AM 18.43 65.174 0.667 7.75 9.58 7.61
8/31/2021 4:00:00 AM 18.39 65.102 0.667 7.76 7.92 7.61
8/31/2021 4:15:00 AM 18.37 65.066 0.668 7.75 9.77 7.61
8/31/2021 4:30:00 AM 18.34 65.012 0.668 7.74 11.63 7.62
8/31/2021 4:45:00 AM 18.31 64.958 0.668 7.75 9.04 7.61
8/31/2021 5:00:00 AM 18.29 64.922 0.668 7.75 9.16 7.61
8/31/2021 5:15:00 AM 18.27 64.886 0.668 7.75 9.96 7.62
8/31/2021 5:30:00 AM 18.24 64.832 0.667 7.76 12.5 7.62
8/31/2021 5:45:00 AM 18.21 64.778 0.667 7.75 7.88 7.61
8/31/2021 6:00:00 AM 18.19 64.742 0.667 7.74 8.62 7.61
8/31/2021 6:15:00 AM 18.16 64.688 0.667 7.75 7.91 7.61
8/31/2021 6:30:00 AM 18.14 64.652 0.667 7.74 8.68 7.6
8/31/2021 6:45:00 AM 18.11 64.598 0.667 7.74 8.03 7.62
8/31/2021 7:00:00 AM 18.09 64.562 0.667 7.75 6.22 7.63
8/31/2021 7:15:00 AM 18.07 64.526 0.667 7.75 7.76 7.66
8/31/2021 7:30:00 AM 18.06 64.508 0.667 7.75 5.95 7.71
8/31/2021 7:45:00 AM 18.05 64.49 0.666 7.75 5.56 7.79
8/31/2021 8:00:00 AM 18.05 64.49 0.666 7.76 5.18 7.87
8/31/2021 8:15:00 AM 18.05 64.49 0.666 7.76 4.46 7.96
8/31/2021 8:30:00 AM 18.06 64.508 0.666 7.77 5.47 8.08
8/31/2021 8:45:00 AM 18.09 64.562 0.666 7.78 4.85 8.25
8/31/2021 9:00:00 AM 18.14 64.652 0.665 7.79 4.72 8.45
8/31/2021 9:15:00 AM 18.19 64.742 0.665 7.81 4.93 8.63
8/31/2021 9:30:00 AM 18.24 64.832 0.665 7.82 2.88 8.8
8/31/2021 9:45:00 AM 18.3 64.94 0.664 7.84 3.18 8.99
8/31/2021 10:00:00 AM 18.34 65.012 0.664 7.86 2.49 9.1
8/31/2021 10:15:00 AM 18.37 65.066 0.664 7.86 3.15 9.2
8/31/2021 10:30:00 AM 18.42 65.156 0.663 7.87 4.45 9.33
8/31/2021 10:45:00 AM 18.46 65.228 0.663 7.88 3.37 9.41
8/31/2021 11:00:00 AM 18.48 65.264 0.663 7.89 2.81 9.45
8/31/2021 11:15:00 AM 18.49 65.282 0.662 7.9 3 9.46
8/31/2021 11:30:00 AM 18.5 65.3 0.662 7.9 2.59 9.5
8/31/2021 11:45:00 AM 18.52 65.336 0.662 7.9 2.88 9.56
8/31/2021 12:00:00 PM 18.54 65.372 0.662 7.91 3.96 9.63
8/31/2021 12:15:00 PM 18.56 65.408 0.662 7.92 3.65 9.68
8/31/2021 12:30:00 PM 18.58 65.444 0.662 7.93 5.08 9.73
8/31/2021 12:45:00 PM 18.62 65.516 0.662 7.93 3.14 9.79
8/31/2021 1:00:00 PM 18.65 65.57 0.662 7.94 3.93 9.86
8/31/2021 1:15:00 PM 18.72 65.696 0.661 7.94 4.31 9.93
8/31/2021 1:30:00 PM 18.78 65.804 0.66 7.95 4.9 10.06
8/31/2021 1:45:00 PM 18.83 65.894 0.659 7.96 3.94 10.17
8/31/2021 2:00:00 PM 18.85 65.93 0.659 7.96 3.53 10.24
8/31/2021 2:15:00 PM 18.86 65.948 0.658 7.97 3.19 10.26
8/31/2021 2:30:00 PM 18.84 65.912 0.659 7.97 3.13 10.2
8/31/2021 2:45:00 PM 18.81 65.858 0.659 7.96 4.1 10.11
8/31/2021 3:00:00 PM 18.78 65.804 0.659 7.96 3.56 10.01
8/31/2021 3:15:00 PM 18.75 65.75 0.659 7.96 3.08 9.92
8/31/2021 3:30:00 PM 18.74 65.732 0.66 7.96 3.81 9.93
8/31/2021 3:45:00 PM 18.75 65.75 0.659 7.96 3.64 9.93
8/31/2021 4:00:00 PM 18.74 65.732 0.659 7.96 3.08 9.89
8/31/2021 4:15:00 PM 18.73 65.714 0.659 7.96 2.65 9.85
8/31/2021 4:30:00 PM 18.72 65.696 0.66 7.96 6.04 9.79
8/31/2021 4:45:00 PM 18.7 65.66 0.66 7.95 3.06 9.72
8/31/2021 5:00:00 PM 18.68 65.624 0.66 7.95 3.4 9.67
8/31/2021 5:15:00 PM 18.66 65.588 0.66 7.95 3.77 9.61
8/31/2021 5:30:00 PM 18.64 65.552 0.66 7.95 3.84 9.6
8/31/2021 5:45:00 PM 18.63 65.534 0.66 7.95 3.37 9.55
8/31/2021 6:00:00 PM 18.6 65.48 0.66 7.94 3.4 9.44
8/31/2021 6:15:00 PM 18.57 65.426 0.66 7.93 3.82 9.3
8/31/2021 6:30:00 PM 18.54 65.372 0.66 7.93 3.26 9.18
8/31/2021 6:45:00 PM 18.5 65.3 0.66 7.92 4.05 9.06
8/31/2021 7:00:00 PM 18.46 65.228 0.66 7.91 4.26 8.94
8/31/2021 7:15:00 PM 18.42 65.156 0.66 7.9 4.9 8.86
8/31/2021 7:30:00 PM 18.39 65.102 0.66 7.89 3.65 8.79
8/31/2021 7:45:00 PM 18.36 65.048 0.66 7.89 4.96 8.7
8/31/2021 8:00:00 PM 18.33 64.994 0.66 7.88 4.7 8.64
8/31/2021 8:15:00 PM 18.3 64.94 0.633 7.88 4.61 8.59
8/31/2021 8:30:00 PM 18.27 64.886 0.66 7.88 4.6 8.55
8/31/2021 8:45:00 PM 18.25 64.85 0.66 7.87 8.13 8.51
8/31/2021 9:00:00 PM 18.22 64.796 0.66 7.87 7.98 8.47
8/31/2021 9:15:00 PM 18.2 64.76 0.66 7.86 7.38 8.45
8/31/2021 9:30:00 PM 18.18 64.724 0.66 7.86 7.46 8.43
8/31/2021 9:45:00 PM 18.16 64.688 0.661 7.86 8.65 8.4
8/31/2021 10:00:00 PM 18.14 64.652 0.661 7.86 8.77 8.39
8/31/2021 10:15:00 PM 18.12 64.616 0.661 7.86 7.82 8.36
8/31/2021 10:30:00 PM 18.1 64.58 0.661 7.85 8.37 8.33
8/31/2021 10:45:00 PM 18.08 64.544 0.662 7.85 8.28 8.31
8/31/2021 11:00:00 PM 18.07 64.526 0.662 7.85 6.86 8.29
8/31/2021 11:15:00 PM 18.05 64.49 0.662 7.85 9.82 8.26
8/31/2021 11:30:00 PM 18.04 64.472 0.663 7.83 7.56 8.24
8/31/2021 11:45:00 PM 18.02 64.436 0.663 7.84 7.13 8.22
9/1/2021 12:00:00 AM 18.01 64.418 0.663 7.83 11.56 8.19
9/1/2021 12:15:00 AM 17.99 64.382 0.664 7.83 10.24 8.18
9/1/2021 12:30:00 AM 17.98 64.364 0.664 7.82 8.14 8.17
9/1/2021 12:45:00 AM 17.97 64.346 0.664 7.82 6.92 8.16
9/1/2021 1:00:00 AM 17.96 64.328 0.664 7.82 8.68 8.15
9/1/2021 1:15:00 AM 17.94 64.292 0.664 7.83 8.39 8.14
9/1/2021 1:30:00 AM 17.93 64.274 0.663 7.81 10.3 8.13
9/1/2021 1:45:00 AM 17.93 64.274 0.66 7.81 9.44 8.14
9/1/2021 2:00:00 AM 17.92 64.256 0.66 7.81 8.25 8.11
9/1/2021 2:15:00 AM 17.9 64.22 0.661 7.81 8.04 8.09
9/1/2021 2:30:00 AM 17.89 64.202 0.661 7.81 8.7 8.07
9/1/2021 2:45:00 AM 17.87 64.166 0.662 7.81 5.94 8.08
9/1/2021 3:00:00 AM 17.85 64.13 0.662 7.81 8.66 8.05
9/1/2021 3:15:00 AM 17.83 64.094 0.662 7.8 5.73 8.05
9/1/2021 3:30:00 AM 17.82 64.076 0.662 7.8 6.01 8.03
9/1/2021 3:45:00 AM 17.8 64.04 0.662 7.79 5.85 8.04
9/1/2021 4:00:00 AM 17.78 64.004 0.662 7.79 7.24 8.03
9/1/2021 4:15:00 AM 17.77 63.986 0.661 7.8 7.68 8.02
9/1/2021 4:30:00 AM 17.76 63.968 0.661 7.79 7.8 8.02
9/1/2021 4:45:00 AM 17.74 63.932 0.661 7.79 6.43 8.01
9/1/2021 5:00:00 AM 17.73 63.914 0.66 7.79 9.48 8.02
9/1/2021 5:15:00 AM 17.71 63.878 0.66 7.79 7.81 8.02
9/1/2021 5:30:00 AM 17.7 63.86 0.659 7.79 6.8 8.02
9/1/2021 5:45:00 AM 17.68 63.824 0.659 7.79 7.89 8.01
9/1/2021 6:00:00 AM 17.67 63.806 0.658 7.79 11.37 8
9/1/2021 6:15:00 AM 17.66 63.788 0.657 7.79 7.7 8.01
9/1/2021 6:30:00 AM 17.65 63.77 0.656 7.79 8.45 8.01
9/1/2021 6:45:00 AM 17.64 63.752 0.655 7.8 9.28 8.02
9/1/2021 7:00:00 AM 17.64 63.752 0.653 7.8 9.45 8.03
9/1/2021 7:15:00 AM 17.63 63.734 0.652 7.79 7.66 8.06
9/1/2021 7:30:00 AM 17.62 63.716 0.651 7.8 10.49 8.07
9/1/2021 7:45:00 AM 17.61 63.698 0.65 7.8 11.42 8.07
9/1/2021 8:00:00 AM 17.61 63.698 0.649 7.8 6.6 8.08
9/1/2021 8:15:00 AM 17.61 63.698 0.646 7.8 7.09 8.12
9/1/2021 8:30:00 AM 17.62 63.716 0.643 7.8 8.74 8.15
9/1/2021 8:45:00 AM 17.63 63.734 0.642 7.81 6.45 8.17
9/1/2021 9:00:00 AM 17.63 63.734 0.641 7.81 7.11 8.2
9/1/2021 9:15:00 AM 17.65 63.77 0.639 7.81 9.25 8.2
9/1/2021 9:30:00 AM 17.66 63.788 0.636 7.82 10.36 8.21
9/1/2021 9:45:00 AM 17.67 63.806 0.632 7.82 8.29 8.23
9/1/2021 10:00:00 AM 17.68 63.824 0.629 7.81 11.94 8.25
9/1/2021 10:15:00 AM 17.69 63.842 0.622 7.82 13.07 8.25
9/1/2021 10:30:00 AM 17.73 63.914 0.614 7.81 11.43 8.26
9/1/2021 10:45:00 AM 17.76 63.968 0.61 7.8 19.14 8.22
9/1/2021 11:00:00 AM 17.79 64.022 0.605 7.79 26.83 8.18
9/1/2021 11:15:00 AM 17.83 64.094 0.598 7.78 25.88 8.15
9/1/2021 11:30:00 AM 17.88 64.184 0.587 7.77 24.5 8.14
9/1/2021 11:45:00 AM 17.95 64.31 0.579 7.76 26.83 8.11
9/1/2021 12:00:00 PM 18.02 64.436 0.573 7.76 35.14 8.08
9/1/2021 12:15:00 PM 18.1 64.58 0.564 7.76 35.06 8.07
9/1/2021 12:30:00 PM 18.15 64.67 0.551 7.78 54.26 8.1
9/1/2021 12:45:00 PM 18.21 64.778 0.53 7.77 61.34 8.09
9/1/2021 1:00:00 PM 18.3 64.94 0.511 7.75 100 8.02
9/1/2021 1:15:00 PM 18.39 65.102 0.491 7.72 123.3 7.99
9/1/2021 1:30:00 PM 18.46 65.228 0.478 7.71 131.7 7.95
9/1/2021 1:45:00 PM 18.58 65.444 0.463 7.7 154.5 7.9
9/1/2021 2:00:00 PM 18.78 65.804 0.434 7.68 160.3 7.85
9/1/2021 2:15:00 PM 18.91 66.038 0.417 7.66 163 7.77
9/1/2021 2:30:00 PM 18.98 66.164 0.412 7.66 155.7 7.73
9/1/2021 2:45:00 PM 18.95 66.11 0.413 7.66 132.6 7.71
9/1/2021 3:00:00 PM 18.91 66.038 0.418 7.65 162 7.71
9/1/2021 3:15:00 PM 18.87 65.966 0.42 7.66 156.6 7.7
9/1/2021 3:30:00 PM 18.86 65.948 0.409 7.65 121.8 7.67
9/1/2021 3:45:00 PM 18.91 66.038 0.386 7.64 161.9 7.64
9/1/2021 4:00:00 PM 19 66.2 0.349 7.61 165.2 7.62
9/1/2021 4:15:00 PM 19.11 66.398 0.313 7.6 165.1 7.58
9/1/2021 4:30:00 PM 19.21 66.578 0.293 7.57 166.7 7.52
9/1/2021 4:45:00 PM 19.29 66.722 0.285 7.57 183.5 7.45
9/1/2021 5:00:00 PM 19.33 66.794 0.278 7.55 226.6 7.37
9/1/2021 5:15:00 PM 19.36 66.848 0.268 7.55 224.5 7.33
9/1/2021 5:30:00 PM 19.37 66.866 0.254 7.57 236.2 7.31
9/1/2021 5:45:00 PM 19.37 66.866 0.246 7.58 210.9 7.28
9/1/2021 6:00:00 PM 19.37 66.866 0.243 7.56 216.3 7.2
9/1/2021 6:15:00 PM 19.38 66.884 0.24 7.54 230.3 7.1
9/1/2021 6:30:00 PM 19.38 66.884 0.232 7.52 210.6 7.03
9/1/2021 6:45:00 PM 19.38 66.884 0.223 7.52 220.3 7
9/1/2021 7:00:00 PM 19.38 66.884 0.217 7.53 221 6.95
9/1/2021 7:15:00 PM 19.38 66.884 0.209 7.53 240.7 6.84
9/1/2021 7:30:00 PM 19.39 66.902 0.201 7.53 192.6 6.75
9/1/2021 7:45:00 PM 19.41 66.938 0.194 7.52 217.2 6.68
9/1/2021 8:00:00 PM 19.45 67.01 0.188 7.51 195.5 6.59
9/1/2021 8:15:00 PM 19.48 67.064 0.183 7.5 213.2 6.52
9/1/2021 8:30:00 PM 19.5 67.1 0.18 7.49 189.2 6.54
9/1/2021 8:45:00 PM 19.51 67.118 0.178 7.48 206.6 6.5
9/1/2021 9:00:00 PM 19.51 67.118 0.177 7.47 162.9 6.47
9/1/2021 9:15:00 PM 19.51 67.118 0.175 7.46 168.8 6.45
9/1/2021 9:30:00 PM 19.5 67.1 0.174 7.44 185 6.43
9/1/2021 9:45:00 PM 19.48 67.064 0.174 7.42 207.7 6.4
9/1/2021 10:00:00 PM 19.46 67.028 0.174 7.4 171.2 6.39
9/1/2021 10:15:00 PM 19.44 66.992 0.174 7.39 155.5 6.4
9/1/2021 10:30:00 PM 19.42 66.956 0.174 7.38 135.5 6.4
9/1/2021 10:45:00 PM 19.4 66.92 0.174 7.37 135.2 6.4
9/1/2021 11:00:00 PM 19.38 66.884 0.174 7.36 148 6.4
9/1/2021 11:15:00 PM 19.36 66.848 0.175 7.35 137.2 6.44
9/1/2021 11:30:00 PM 19.34 66.812 0.177 7.34 129.2 6.44
9/1/2021 11:45:00 PM 19.32 66.776 0.179 7.34 130.7 6.45
9/2/2021 12:00:00 AM 19.29 66.722 0.181 7.34 107.9 6.47
9/2/2021 12:15:00 AM 19.27 66.686 0.183 7.33 108.5 6.49
9/2/2021 12:30:00 AM 19.24 66.632 0.185 7.32 101.6 6.51
9/2/2021 12:45:00 AM 19.21 66.578 0.188 7.32 100 6.53
9/2/2021 1:00:00 AM 19.18 66.524 0.191 7.31 124.6 6.54
9/2/2021 1:15:00 AM 19.15 66.47 0.193 7.32 86.66 6.55
9/2/2021 1:30:00 AM 19.11 66.398 0.197 7.31 80.89 6.54
9/2/2021 1:45:00 AM 19.08 66.344 0.201 7.31 77.47 6.54
9/2/2021 2:00:00 AM 19.05 66.29 0.205 7.31 80.97 6.53
9/2/2021 2:15:00 AM 19.02 66.236 0.21 7.31 77.54 6.51
9/2/2021 2:30:00 AM 18.99 66.182 0.214 7.31 70.13 6.48
9/2/2021 2:45:00 AM 18.97 66.146 0.218 7.31 73.2 6.46
9/2/2021 3:00:00 AM 18.95 66.11 0.222 7.31 75.68 6.44
9/2/2021 3:15:00 AM 18.93 66.074 0.226 7.31 75.38 6.41
9/2/2021 3:30:00 AM 18.92 66.056 0.229 7.31 73.73 6.41
9/2/2021 3:45:00 AM 18.9 66.02 0.233 7.31 78.64 6.39
9/2/2021 4:00:00 AM 18.89 66.002 0.236 7.31 82.95 6.39
9/2/2021 4:15:00 AM 18.88 65.984 0.239 7.31 78.48 6.38
9/2/2021 4:30:00 AM 18.87 65.966 0.243 7.31 85.76 6.36
9/2/2021 4:45:00 AM 18.86 65.948 0.246 7.31 94.09 6.36
9/2/2021 5:00:00 AM 18.85 65.93 0.249 7.32 77.96 6.38
9/2/2021 5:15:00 AM 18.83 65.894 0.252 7.31 77.69 6.38
9/2/2021 5:30:00 AM 18.81 65.858 0.255 7.32 82.86 6.38
9/2/2021 5:45:00 AM 18.79 65.82201 0.257 7.32 73.53 6.39
9/2/2021 6:00:00 AM 18.76 65.768 0.259 7.32 77.89 6.39
9/2/2021 6:15:00 AM 18.73 65.714 0.262 7.32 84.65 6.4
9/2/2021 6:30:00 AM 18.7 65.66 0.265 7.32 73.38 6.41
9/2/2021 6:45:00 AM 18.67 65.606 0.267 7.32 75.57 6.43
9/2/2021 7:00:00 AM 18.63 65.534 0.27 7.32 76.56 6.45
9/2/2021 7:15:00 AM 18.59 65.462 0.273 7.32 90.24 6.45
9/2/2021 7:30:00 AM 18.55 65.39 0.277 7.33 72.67 6.48
9/2/2021 7:45:00 AM 18.52 65.336 0.28 7.33 72.11 6.49
9/2/2021 8:00:00 AM 18.5 65.3 0.284 7.33 66.26 6.51
9/2/2021 8:15:00 AM 18.47 65.246 0.287 7.34 66.48 6.53
9/2/2021 8:30:00 AM 18.45 65.21 0.291 7.34 64.92 6.56
9/2/2021 8:45:00 AM 18.44 65.192 0.295 7.34 64.11 6.59
9/2/2021 9:00:00 AM 18.42 65.156 0.299 7.34 61.16 6.62
9/2/2021 9:15:00 AM 18.4 65.12 0.303 7.35 64.23 6.66
9/2/2021 9:30:00 AM 18.39 65.102 0.308 7.35 59.51 6.69
9/2/2021 9:45:00 AM 18.38 65.084 0.313 7.36 59.96 6.73
9/2/2021 10:00:00 AM 18.38 65.084 0.317 7.36 57.01 6.77
9/2/2021 10:15:00 AM 18.38 65.084 0.321 7.37 53.03 6.82
9/2/2021 10:30